Darstellungsparameter: Aktuell verwendete Einstellungen:
Skalierung der Graphiken ... ?
xyx+y,   Skalierungsfaktor:      Skalierung: Modus: x, Faktor: 1
Darstellungszeitraum ... ?
Vom - - bis: - -   Zeitraum: 16.05.2020 - 22.05.2020
Min/Max/Avg-Anzeige ... ?
Zeige MMA aktuell
Zeige MMA Monat
Zeige MMA alles
Zeige --A aktuell
Zeige --A Monat
Zeige --A alles
Keine MMA-Anzeige
MMA:
Average (ber die Originaldaten)
MMA-Basis: 16.05.2020 - 22.05.2020
Quicknavigation für Darstellung... ?
Tage:      1T, 2T, 3T, 5T -1T -2T -3T -5T +1T +2T +3T +5T
Wochen: 1W, 2W, 3W -1W -2W -3W +1W +2W +3W
Monate: 1M, 3M, 6M -1M -3M -6M +1M +3M +6M
Jahre:    1J, 3J, 5J, 10J -1J -3J -5J -10J +1J +3J +5J +10J
Nutze für die Darstellung ... ?
Originaldaten oder Mittelwerte auf ...
Stundenbasis Tagesbasis Wochenbasis
Monatsbasis Jahresbasis      Datenbasis: Original-Daten
Darstellen als:
Statistik (Auto) Statistik J:M      Darstellung:
Zur Graphik,    zurück zur Übersicht aller Sensoren.
 
Tabellarische Datenbersicht: ?
 
Sensor: Nr:Datum:Temp:Abs-Feuchte:Windchill:Wind:
Aussen-T/F 1 16-05-2020 00:00:00 8.2 C 5.69 g/m*3 8.2 C 3.2 km/h
2 16-05-2020 00:05:00 8.1 C 5.74 g/m*3 8.1 C 4.8 km/h
3 16-05-2020 00:10:00 8.1 C 5.74 g/m*3 8.1 C 3.2 km/h
4 16-05-2020 00:15:00 7.9 C 5.67 g/m*3 7.9 C 3.2 km/h
5 16-05-2020 00:20:00 7.9 C 5.67 g/m*3 7.9 C 3.2 km/h
6 16-05-2020 00:25:00 7.8 C 5.71 g/m*3 7.8 C 3.2 km/h
7 16-05-2020 00:30:00 7.7 C 5.68 g/m*3 7.7 C 3.2 km/h
8 16-05-2020 00:35:00 7.7 C 5.68 g/m*3 7.7 C 1.6 km/h
9 16-05-2020 00:40:00 7.6 C 5.72 g/m*3 7.6 C 3.2 km/h
10 16-05-2020 00:45:00 7.5 C 5.68 g/m*3 7.5 C 3.2 km/h
11 16-05-2020 00:50:00 7.4 C 5.73 g/m*3 7.4 C 3.2 km/h
12 16-05-2020 00:55:00 7.3 C 5.69 g/m*3 7.3 C 1.6 km/h
13 16-05-2020 01:00:00 7.1 C 5.69 g/m*3 7.1 C 1.6 km/h
14 16-05-2020 01:05:00 6.9 C 5.7 g/m*3 6.9 C 0 km/h
15 16-05-2020 01:10:00 6.8 C 5.74 g/m*3 6.8 C 0 km/h
16 16-05-2020 01:15:00 6.7 C 5.7 g/m*3 6.7 C 0 km/h
17 16-05-2020 01:20:00 6.5 C 5.7 g/m*3 6.5 C 0 km/h
18 16-05-2020 01:25:00 6.3 C 5.7 g/m*3 6.3 C 0 km/h
19 16-05-2020 01:30:00 6.2 C 5.66 g/m*3 6.2 C 0 km/h
20 16-05-2020 01:35:00 5.9 C 5.62 g/m*3 5.9 C 0 km/h
21 16-05-2020 01:40:00 5.8 C 5.59 g/m*3 5.8 C 0 km/h
22 16-05-2020 01:45:00 5.6 C 5.59 g/m*3 5.6 C 0 km/h
23 16-05-2020 01:50:00 5.5 C 5.55 g/m*3 5.5 C 0 km/h
24 16-05-2020 01:55:00 5.3 C 5.54 g/m*3 5.3 C 0 km/h
25 16-05-2020 02:00:00 5.3 C 5.54 g/m*3 5.3 C 0 km/h
Sensor: Nr:Datum:Temp:Abs-Feuchte:Windchill:Wind:
Aussen-T/F 26 16-05-2020 02:05:00 5.2 C 5.51 g/m*3 5.2 C 0 km/h
27 16-05-2020 02:10:00 5.1 C 5.54 g/m*3 5.1 C 0 km/h
28 16-05-2020 02:15:00 5 C 5.5 g/m*3 5 C 0 km/h
29 16-05-2020 02:20:00 4.9 C 5.47 g/m*3 4.9 C 0 km/h
30 16-05-2020 02:25:00 4.8 C 5.5 g/m*3 4.8 C 0 km/h
31 16-05-2020 02:30:00 4.7 C 5.46 g/m*3 4.7 C 0 km/h
32 16-05-2020 02:35:00 4.7 C 5.53 g/m*3 4.7 C 0 km/h
33 16-05-2020 02:40:00 4.6 C 5.49 g/m*3 4.6 C 0 km/h
34 16-05-2020 02:45:00 4.5 C 5.46 g/m*3 4.5 C 0 km/h
35 16-05-2020 02:50:00 4.4 C 5.48 g/m*3 4.4 C 0 km/h
36 16-05-2020 02:55:00 4.4 C 5.48 g/m*3 4.4 C 0 km/h
37 16-05-2020 03:00:00 4.3 C 5.45 g/m*3 4.3 C 0 km/h
38 16-05-2020 03:05:00 4.3 C 5.45 g/m*3 4.3 C 0 km/h
39 16-05-2020 03:10:00 4.2 C 5.41 g/m*3 4.2 C 0 km/h
40 16-05-2020 03:15:00 4.2 C 5.48 g/m*3 4.2 C 0 km/h
41 16-05-2020 03:20:00 4.1 C 5.44 g/m*3 4.1 C 0 km/h
42 16-05-2020 03:25:00 4 C 5.4 g/m*3 4 C 0 km/h
43 16-05-2020 03:30:00 3.9 C 5.43 g/m*3 3.9 C 0 km/h
44 16-05-2020 03:35:00 3.9 C 5.43 g/m*3 3.9 C 0 km/h
45 16-05-2020 03:40:00 3.8 C 5.4 g/m*3 3.8 C 0 km/h
46 16-05-2020 03:45:00 3.8 C 5.4 g/m*3 3.8 C 0 km/h
47 16-05-2020 03:50:00 3.8 C 5.4 g/m*3 3.8 C 0 km/h
48 16-05-2020 03:55:00 3.7 C 5.42 g/m*3 3.7 C 0 km/h
49 16-05-2020 04:00:00 3.7 C 5.36 g/m*3 3.7 C 0 km/h
50 16-05-2020 04:05:00 3.6 C 5.39 g/m*3 3.6 C 0 km/h
Sensor: Nr:Datum:Temp:Abs-Feuchte:Windchill:Wind:
Aussen-T/F 51 16-05-2020 04:10:00 3.6 C 5.39 g/m*3 3.6 C 0 km/h
52 16-05-2020 04:15:00 3.5 C 5.35 g/m*3 3.5 C 0 km/h
53 16-05-2020 04:20:00 3.4 C 5.31 g/m*3 3.4 C 0 km/h
54 16-05-2020 04:25:00 3.4 C 5.37 g/m*3 3.4 C 0 km/h
55 16-05-2020 04:30:00 3.3 C 5.34 g/m*3 3.3 C 0 km/h
56 16-05-2020 04:35:00 3.3 C 5.34 g/m*3 3.3 C 0 km/h
57 16-05-2020 04:40:00 3.2 C 5.3 g/m*3 3.2 C 0 km/h
58 16-05-2020 04:45:00 3.2 C 5.36 g/m*3 3.2 C 0 km/h
59 16-05-2020 04:50:00 3.2 C 5.36 g/m*3 3.2 C 0 km/h
60 16-05-2020 04:55:00 3.1 C 5.33 g/m*3 3.1 C 0 km/h
61 16-05-2020 05:00:00 3.1 C 5.33 g/m*3 3.1 C 0 km/h
62 16-05-2020 05:05:00 3.1 C 5.33 g/m*3 3.1 C 0 km/h
63 16-05-2020 05:10:00 3 C 5.29 g/m*3 3 C 0 km/h
64 16-05-2020 05:15:00 3 C 5.29 g/m*3 3 C 0 km/h
65 16-05-2020 05:20:00 2.9 C 5.32 g/m*3 2.9 C 0 km/h
66 16-05-2020 05:25:00 2.9 C 5.32 g/m*3 2.9 C 0 km/h
67 16-05-2020 05:30:00 2.8 C 5.28 g/m*3 2.8 C 0 km/h
68 16-05-2020 05:35:00 2.8 C 5.28 g/m*3 2.8 C 1.6 km/h
69 16-05-2020 05:40:00 2.8 C 5.28 g/m*3 2.8 C 0 km/h
70 16-05-2020 05:45:00 2.7 C 5.24 g/m*3 2.7 C 0 km/h
71 16-05-2020 05:50:00 2.7 C 5.24 g/m*3 2.7 C 0 km/h
72 16-05-2020 05:55:00 2.6 C 5.21 g/m*3 2.6 C 0 km/h
73 16-05-2020 06:00:00 2.6 C 5.21 g/m*3 2.6 C 0 km/h
74 16-05-2020 06:05:00 2.6 C 5.27 g/m*3 2.6 C 0 km/h
75 16-05-2020 06:10:00 2.6 C 5.27 g/m*3 2.6 C 0 km/h
Sensor: Nr:Datum:Temp:Abs-Feuchte:Windchill:Wind:
Aussen-T/F 76 16-05-2020 06:15:00 2.6 C 5.27 g/m*3 2.6 C 0 km/h
77 16-05-2020 06:20:00 2.6 C 5.27 g/m*3 2.6 C 0 km/h
78 16-05-2020 06:25:00 2.6 C 5.27 g/m*3 2.6 C 0 km/h
79 16-05-2020 06:30:00 2.6 C 5.27 g/m*3 2.6 C 0 km/h
80 16-05-2020 06:35:00 2.6 C 5.27 g/m*3 2.6 C 0 km/h
81 16-05-2020 06:40:00 2.6 C 5.27 g/m*3 2.6 C 0 km/h
82 16-05-2020 06:45:00 2.6 C 5.27 g/m*3 2.6 C 0 km/h
83 16-05-2020 06:50:00 2.6 C 5.27 g/m*3 2.6 C 0 km/h
84 16-05-2020 06:55:00 2.6 C 5.32 g/m*3 2.6 C 0 km/h
85 16-05-2020 07:00:00 2.7 C 5.36 g/m*3 2.7 C 0 km/h
86 16-05-2020 07:05:00 2.7 C 5.36 g/m*3 2.7 C 0 km/h
87 16-05-2020 07:10:00 2.7 C 5.36 g/m*3 2.7 C 0 km/h
88 16-05-2020 07:15:00 2.8 C 5.4 g/m*3 2.8 C 0 km/h
89 16-05-2020 07:20:00 2.8 C 5.4 g/m*3 2.8 C 0 km/h
90 16-05-2020 07:25:00 2.9 C 5.43 g/m*3 2.9 C 0 km/h
91 16-05-2020 07:30:00 3 C 5.53 g/m*3 3 C 0 km/h
92 16-05-2020 07:35:00 3.1 C 5.57 g/m*3 3.1 C 0 km/h
93 16-05-2020 07:40:00 3.2 C 5.54 g/m*3 3.2 C 0 km/h
94 16-05-2020 07:45:00 3.2 C 5.6 g/m*3 3.2 C 0 km/h
95 16-05-2020 07:50:00 3.3 C 5.64 g/m*3 3.3 C 0 km/h
96 16-05-2020 07:55:00 3.4 C 5.68 g/m*3 3.4 C 0 km/h
97 16-05-2020 08:00:00 3.6 C 5.76 g/m*3 3.6 C 0 km/h
98 16-05-2020 08:05:00 3.7 C 5.8 g/m*3 3.7 C 0 km/h
99 16-05-2020 08:10:00 3.8 C 5.83 g/m*3 3.8 C 0 km/h
100 16-05-2020 08:15:00 3.9 C 5.87 g/m*3 3.9 C 0 km/h
Sensor: Nr:Datum:Temp:Abs-Feuchte:Windchill:Wind:
Aussen-T/F 101 16-05-2020 08:20:00 4 C 5.91 g/m*3 4 C 1.6 km/h
102 16-05-2020 08:25:00 4.1 C 5.95 g/m*3 4.1 C 1.6 km/h
103 16-05-2020 08:30:00 4.2 C 5.93 g/m*3 4.2 C 1.6 km/h
104 16-05-2020 08:35:00 4.4 C 6.07 g/m*3 4.4 C 0 km/h
105 16-05-2020 08:40:00 4.6 C 6.09 g/m*3 4.6 C 0 km/h
106 16-05-2020 08:45:00 4.8 C 6.24 g/m*3 4.8 C 0 km/h
107 16-05-2020 08:50:00 5 C 6.25 g/m*3 5 C 0 km/h
108 16-05-2020 08:55:00 5.2 C 6.33 g/m*3 5.2 C 0 km/h
109 16-05-2020 09:00:00 5.3 C 6.38 g/m*3 5.3 C 0 km/h
110 16-05-2020 09:05:00 5.5 C 6.46 g/m*3 5.5 C 0 km/h
111 16-05-2020 09:10:00 5.7 C 6.55 g/m*3 5.7 C 0 km/h
112 16-05-2020 09:15:00 5.8 C 6.59 g/m*3 5.8 C 0 km/h
113 16-05-2020 09:20:00 6 C 6.6 g/m*3 6 C 0 km/h
114 16-05-2020 09:25:00 6.2 C 6.69 g/m*3 6.2 C 0 km/h
115 16-05-2020 09:30:00 6.4 C 6.78 g/m*3 6.4 C 0 km/h
116 16-05-2020 09:35:00 6.6 C 6.79 g/m*3 6.6 C 0 km/h
117 16-05-2020 09:40:00 6.8 C 6.88 g/m*3 6.8 C 0 km/h
118 16-05-2020 09:45:00 7.1 C 6.94 g/m*3 7.1 C 0 km/h
119 16-05-2020 09:50:00 7.3 C 6.95 g/m*3 7.3 C 0 km/h
120 16-05-2020 09:55:00 7.5 C 7.04 g/m*3 7.5 C 0 km/h
121 16-05-2020 10:00:00 7.7 C 7.05 g/m*3 7.7 C 0 km/h
122 16-05-2020 10:05:00 7.9 C 6.98 g/m*3 7.9 C 1.6 km/h
123 16-05-2020 10:10:00 8.3 C 7 g/m*3 8.3 C 0 km/h
124 16-05-2020 10:15:00 8.7 C 7.18 g/m*3 8.7 C 0 km/h
125 16-05-2020 10:20:00 9.1 C 7.1 g/m*3 9.1 C 0 km/h
Sensor: Nr:Datum:Temp:Abs-Feuchte:Windchill:Wind:
Aussen-T/F 126 16-05-2020 10:25:00 9.6 C 7.24 g/m*3 9.6 C 3.2 km/h
127 16-05-2020 10:30:00 10.1 C 7 g/m*3 10.1 C 1.6 km/h
128 16-05-2020 10:35:00 10.6 C 7.12 g/m*3 10.6 C 1.6 km/h
129 16-05-2020 10:40:00 11.1 C 7.05 g/m*3 11.1 C 1.6 km/h
130 16-05-2020 10:45:00 11.4 C 6.36 g/m*3 11.4 C 3.2 km/h
131 16-05-2020 10:50:00 11.9 C 6.25 g/m*3 11.9 C 0 km/h
132 16-05-2020 10:55:00 12.1 C 6.43 g/m*3 12.1 C 1.6 km/h
133 16-05-2020 11:00:00 12.3 C 6.3 g/m*3 12.3 C 4.8 km/h
134 16-05-2020 11:05:00 12.7 C 6.35 g/m*3 12.7 C 4.8 km/h
135 16-05-2020 11:10:00 13.1 C 6.39 g/m*3 13.1 C 4.8 km/h
136 16-05-2020 11:15:00 13.3 C 6.12 g/m*3 13.3 C 8.1 km/h
137 16-05-2020 11:20:00 13.5 C 6.08 g/m*3 13.5 C 6.4 km/h
138 16-05-2020 11:25:00 13.7 C 6.28 g/m*3 13.7 C 9.7 km/h
139 16-05-2020 11:30:00 13.8 C 6.08 g/m*3 13.8 C 8.1 km/h
140 16-05-2020 11:35:00 13.8 C 5.96 g/m*3 13.8 C 4.8 km/h
141 16-05-2020 11:40:00 13.9 C 6.11 g/m*3 13.9 C 8.1 km/h
142 16-05-2020 11:45:00 14.2 C 6.23 g/m*3 14.2 C 8.1 km/h
143 16-05-2020 11:50:00 14.4 C 6.18 g/m*3 14.4 C 8.1 km/h
144 16-05-2020 11:55:00 14.3 C 5.9 g/m*3 14.3 C 4.8 km/h
145 16-05-2020 12:00:00 14.3 C 6.14 g/m*3 14.3 C 4.8 km/h
146 16-05-2020 12:05:00 14.4 C 6.06 g/m*3 14.4 C 9.7 km/h
147 16-05-2020 12:10:00 14.6 C 6.01 g/m*3 14.6 C 11.3 km/h
148 16-05-2020 12:15:00 14.6 C 5.88 g/m*3 14.6 C 11.3 km/h
149 16-05-2020 12:20:00 14.6 C 5.88 g/m*3 14.6 C 6.4 km/h
150 16-05-2020 12:25:00 14.6 C 6.13 g/m*3 14.6 C 4.8 km/h
Sensor: Nr:Datum:Temp:Abs-Feuchte:Windchill:Wind:
Aussen-T/F 151 16-05-2020 12:30:00 14.7 C 5.92 g/m*3 14.7 C 8.1 km/h
152 16-05-2020 12:35:00 14.7 C 6.04 g/m*3 14.7 C 6.4 km/h
153 16-05-2020 12:40:00 14.7 C 6.04 g/m*3 14.7 C 6.4 km/h
154 16-05-2020 12:45:00 14.8 C 6.08 g/m*3 14.8 C 6.4 km/h
155 16-05-2020 12:50:00 14.9 C 5.99 g/m*3 14.9 C 8.1 km/h
156 16-05-2020 12:55:00 14.9 C 5.86 g/m*3 14.9 C 4.8 km/h
157 16-05-2020 13:00:00 14.9 C 5.86 g/m*3 14.9 C 4.8 km/h
158 16-05-2020 13:05:00 15.1 C 5.93 g/m*3 15.1 C 4.8 km/h
159 16-05-2020 13:10:00 15.1 C 6.06 g/m*3 15.1 C 0 km/h
160 16-05-2020 13:15:00 15.3 C 6.14 g/m*3 15.3 C 4.8 km/h
161 16-05-2020 13:20:00 15.5 C 6.08 g/m*3 15.5 C 8.1 km/h
162 16-05-2020 13:25:00 15.7 C 6.02 g/m*3 15.7 C 8.1 km/h
163 16-05-2020 13:30:00 15.8 C 6.06 g/m*3 15.8 C 6.4 km/h
164 16-05-2020 13:35:00 15.9 C 5.96 g/m*3 15.9 C 11.3 km/h
165 16-05-2020 13:40:00 16 C 5.99 g/m*3 16 C 9.7 km/h
166 16-05-2020 13:45:00 16.1 C 6.03 g/m*3 16.1 C 9.7 km/h
167 16-05-2020 13:50:00 16.2 C 6.21 g/m*3 16.2 C 4.8 km/h
168 16-05-2020 13:55:00 16.3 C 6.1 g/m*3 16.3 C 12.9 km/h
169 16-05-2020 14:00:00 16.5 C 6.04 g/m*3 16.5 C 12.9 km/h
170 16-05-2020 14:05:00 16.6 C 6.07 g/m*3 16.6 C 11.3 km/h
171 16-05-2020 14:10:00 16.7 C 6.25 g/m*3 16.7 C 6.4 km/h
172 16-05-2020 14:15:00 16.8 C 6.15 g/m*3 16.8 C 6.4 km/h
173 16-05-2020 14:20:00 16.7 C 5.83 g/m*3 16.7 C 6.4 km/h
174 16-05-2020 14:25:00 16.7 C 5.97 g/m*3 16.7 C 4.8 km/h
175 16-05-2020 14:30:00 16.8 C 6.15 g/m*3 16.8 C 8.1 km/h
Sensor: Nr:Datum:Temp:Abs-Feuchte:Windchill:Wind:
Aussen-T/F 176 16-05-2020 14:35:00 17.2 C 6 g/m*3 17.2 C 8.1 km/h
177 16-05-2020 14:40:00 17.4 C 5.93 g/m*3 17.4 C 11.3 km/h
178 16-05-2020 14:45:00 17.5 C 5.81 g/m*3 17.5 C 12.9 km/h
179 16-05-2020 14:50:00 17.7 C 6.04 g/m*3 17.7 C 9.7 km/h
180 16-05-2020 14:55:00 17.8 C 5.62 g/m*3 17.8 C 9.7 km/h
181 16-05-2020 15:00:00 17.8 C 5.46 g/m*3 17.8 C 11.3 km/h
182 16-05-2020 15:05:00 17.8 C 5.46 g/m*3 17.8 C 12.9 km/h
183 16-05-2020 15:10:00 17.9 C 5.65 g/m*3 17.9 C 6.4 km/h
184 16-05-2020 15:15:00 18 C 5.84 g/m*3 18 C 12.9 km/h
185 16-05-2020 15:20:00 18.3 C 5.63 g/m*3 18.3 C 9.7 km/h
186 16-05-2020 15:25:00 18.7 C 5.76 g/m*3 18.7 C 12.9 km/h
187 16-05-2020 15:30:00 18.8 C 5.8 g/m*3 18.8 C 9.7 km/h
188 16-05-2020 15:35:00 18.9 C 5.83 g/m*3 18.9 C 9.7 km/h
189 16-05-2020 15:40:00 19.1 C 5.9 g/m*3 19.1 C 9.7 km/h
190 16-05-2020 15:45:00 19.3 C 5.81 g/m*3 19.3 C 8.1 km/h
191 16-05-2020 15:50:00 19.3 C 5.64 g/m*3 19.3 C 6.4 km/h
192 16-05-2020 15:55:00 19.3 C 5.64 g/m*3 19.3 C 9.7 km/h
193 16-05-2020 16:00:00 19.2 C 6.1 g/m*3 19.2 C 12.9 km/h
194 16-05-2020 16:05:00 19.3 C 6.14 g/m*3 19.3 C 4.8 km/h
195 16-05-2020 16:10:00 19.5 C 6.04 g/m*3 19.5 C 6.4 km/h
196 16-05-2020 16:15:00 19.8 C 6.15 g/m*3 19.8 C 11.3 km/h
197 16-05-2020 16:20:00 19.7 C 6.11 g/m*3 19.7 C 8.1 km/h
198 16-05-2020 16:25:00 20.3 C 6.86 g/m*3 20.3 C 4.8 km/h
199 16-05-2020 16:30:00 20.9 C 6.37 g/m*3 20.9 C 1.6 km/h
200 16-05-2020 16:35:00 20.7 C 5.94 g/m*3 20.7 C 9.7 km/h
Sensor: Nr:Datum:Temp:Abs-Feuchte:Windchill:Wind:
Aussen-T/F 201 16-05-2020 16:40:00 20 C 6.05 g/m*3 20 C 11.3 km/h
202 16-05-2020 16:45:00 19.9 C 6.01 g/m*3 19.9 C 6.4 km/h
203 16-05-2020 16:50:00 19.7 C 5.94 g/m*3 19.7 C 9.7 km/h
204 16-05-2020 16:55:00 19.3 C 5.97 g/m*3 19.3 C 3.2 km/h
205 16-05-2020 17:00:00 19.2 C 6.43 g/m*3 19.2 C 3.2 km/h
206 16-05-2020 17:05:00 19.2 C 6.1 g/m*3 19.2 C 6.4 km/h
207 16-05-2020 17:10:00 18.9 C 6.16 g/m*3 18.9 C 4.8 km/h
208 16-05-2020 17:15:00 18.8 C 6.12 g/m*3 18.8 C 3.2 km/h
209 16-05-2020 17:20:00 18.8 C 6.44 g/m*3 18.8 C 3.2 km/h
210 16-05-2020 17:25:00 18.8 C 6.28 g/m*3 18.8 C 8.1 km/h
211 16-05-2020 17:30:00 18.8 C 6.28 g/m*3 18.8 C 6.4 km/h
212 16-05-2020 17:35:00 18.8 C 6.28 g/m*3 18.8 C 3.2 km/h
213 16-05-2020 17:40:00 18.8 C 6.44 g/m*3 18.8 C 0 km/h
214 16-05-2020 17:45:00 18.8 C 6.28 g/m*3 18.8 C 1.6 km/h
215 16-05-2020 17:50:00 18.8 C 6.44 g/m*3 18.8 C 4.8 km/h
216 16-05-2020 17:55:00 18.8 C 6.12 g/m*3 18.8 C 8.1 km/h
217 16-05-2020 18:00:00 18.7 C 6.24 g/m*3 18.7 C 4.8 km/h
218 16-05-2020 18:05:00 18.8 C 6.12 g/m*3 18.8 C 6.4 km/h
219 16-05-2020 18:10:00 18.9 C 6.16 g/m*3 18.9 C 3.2 km/h
220 16-05-2020 18:15:00 19.1 C 6.23 g/m*3 19.1 C 4.8 km/h
221 16-05-2020 18:20:00 19.2 C 6.43 g/m*3 19.2 C 4.8 km/h
222 16-05-2020 18:25:00 19.1 C 6.23 g/m*3 19.1 C 9.7 km/h
223 16-05-2020 18:30:00 19.1 C 6.39 g/m*3 19.1 C 8.1 km/h
224 16-05-2020 18:35:00 19.6 C 6.42 g/m*3 19.6 C 8.1 km/h
225 16-05-2020 18:40:00 20.1 C 6.61 g/m*3 20.1 C 3.2 km/h
Sensor: Nr:Datum:Temp:Abs-Feuchte:Windchill:Wind:
Aussen-T/F 226 16-05-2020 18:45:00 20.3 C 6.16 g/m*3 20.3 C 9.7 km/h
227 16-05-2020 18:50:00 20.2 C 6.47 g/m*3 20.2 C 12.9 km/h
228 16-05-2020 18:55:00 19.9 C 6.36 g/m*3 19.9 C 12.9 km/h
229 16-05-2020 19:00:00 19.4 C 6.34 g/m*3 19.4 C 11.3 km/h
230 16-05-2020 19:05:00 19.2 C 6.27 g/m*3 19.2 C 12.9 km/h
231 16-05-2020 19:10:00 18.9 C 6.48 g/m*3 18.9 C 6.4 km/h
232 16-05-2020 19:15:00 18.6 C 6.37 g/m*3 18.6 C 3.2 km/h
233 16-05-2020 19:20:00 18.4 C 6.76 g/m*3 18.4 C 3.2 km/h
234 16-05-2020 19:25:00 18.3 C 6.57 g/m*3 18.3 C 4.8 km/h
235 16-05-2020 19:30:00 18.3 C 6.41 g/m*3 18.3 C 8.1 km/h
236 16-05-2020 19:35:00 18.3 C 6.41 g/m*3 18.3 C 8.1 km/h
237 16-05-2020 19:40:00 18.4 C 6.45 g/m*3 18.4 C 6.4 km/h
238 16-05-2020 19:45:00 18.4 C 6.29 g/m*3 18.4 C 4.8 km/h
239 16-05-2020 19:50:00 18.4 C 6.61 g/m*3 18.4 C 3.2 km/h
240 16-05-2020 19:55:00 18.4 C 6.61 g/m*3 18.4 C 6.4 km/h
241 16-05-2020 20:00:00 18.4 C 6.61 g/m*3 18.4 C 4.8 km/h
242 16-05-2020 20:05:00 18.3 C 6.72 g/m*3 18.3 C 6.4 km/h
243 16-05-2020 20:10:00 18.2 C 6.68 g/m*3 18.2 C 6.4 km/h
244 16-05-2020 20:15:00 18 C 6.76 g/m*3 18 C 6.4 km/h
245 16-05-2020 20:20:00 17.8 C 6.37 g/m*3 17.8 C 6.4 km/h
246 16-05-2020 20:25:00 17.7 C 6.64 g/m*3 17.7 C 6.4 km/h
247 16-05-2020 20:30:00 17.6 C 6.45 g/m*3 17.6 C 6.4 km/h
248 16-05-2020 20:35:00 17.3 C 6.48 g/m*3 17.3 C 4.8 km/h
249 16-05-2020 20:40:00 17.2 C 6.59 g/m*3 17.2 C 4.8 km/h
250 16-05-2020 20:45:00 16.9 C 6.47 g/m*3 16.9 C 3.2 km/h
Sensor: Nr:Datum:Temp:Abs-Feuchte:Windchill:Wind:
Aussen-T/F 251 16-05-2020 20:50:00 16.8 C 7.29 g/m*3 16.8 C 0 km/h
252 16-05-2020 20:55:00 16.3 C 7.21 g/m*3 16.3 C 0 km/h
253 16-05-2020 21:00:00 15.7 C 7.23 g/m*3 15.7 C 1.6 km/h
254 16-05-2020 21:05:00 15.2 C 7.01 g/m*3 15.2 C 1.6 km/h
255 16-05-2020 21:10:00 14.7 C 7.05 g/m*3 14.7 C 1.6 km/h
256 16-05-2020 21:15:00 14.5 C 6.96 g/m*3 14.5 C 4.8 km/h
257 16-05-2020 21:20:00 14.4 C 7.05 g/m*3 14.4 C 0 km/h
258 16-05-2020 21:25:00 14.3 C 7 g/m*3 14.3 C 3.2 km/h
259 16-05-2020 21:30:00 14.2 C 7.08 g/m*3 14.2 C 0 km/h
260 16-05-2020 21:35:00 14 C 7.12 g/m*3 14 C 0 km/h
261 16-05-2020 21:40:00 13.8 C 7.15 g/m*3 13.8 C 3.2 km/h
262 16-05-2020 21:45:00 13.7 C 7.1 g/m*3 13.7 C 1.6 km/h
263 16-05-2020 21:50:00 13.5 C 7.25 g/m*3 13.5 C 4.8 km/h
264 16-05-2020 21:55:00 13.4 C 7.21 g/m*3 13.4 C 4.8 km/h
265 16-05-2020 22:00:00 13.3 C 7.16 g/m*3 13.3 C 4.8 km/h
266 16-05-2020 22:05:00 13.2 C 7 g/m*3 13.2 C 4.8 km/h
267 16-05-2020 22:10:00 13.1 C 7.07 g/m*3 13.1 C 8.1 km/h
268 16-05-2020 22:15:00 12.9 C 6.99 g/m*3 12.9 C 6.4 km/h
269 16-05-2020 22:20:00 12.9 C 6.99 g/m*3 12.9 C 6.4 km/h
270 16-05-2020 22:25:00 12.8 C 6.94 g/m*3 12.8 C 8.1 km/h
271 16-05-2020 22:30:00 12.8 C 6.94 g/m*3 12.8 C 6.4 km/h
272 16-05-2020 22:35:00 12.7 C 6.9 g/m*3 12.7 C 6.4 km/h
273 16-05-2020 22:40:00 12.6 C 6.97 g/m*3 12.6 C 6.4 km/h
274 16-05-2020 22:45:00 12.6 C 6.97 g/m*3 12.6 C 6.4 km/h
275 16-05-2020 22:50:00 12.5 C 6.93 g/m*3 12.5 C 6.4 km/h
Sensor: Nr:Datum:Temp:Abs-Feuchte:Windchill:Wind:
Aussen-T/F 276 16-05-2020 22:55:00 12.4 C 6.99 g/m*3 12.4 C 6.4 km/h
277 16-05-2020 23:00:00 12.3 C 7.17 g/m*3 12.3 C 3.2 km/h
278 16-05-2020 23:05:00 12.2 C 7.12 g/m*3 12.2 C 3.2 km/h
279 16-05-2020 23:10:00 12 C 6.93 g/m*3 12 C 4.8 km/h
280 16-05-2020 23:15:00 12.2 C 7.01 g/m*3 12.2 C 8.1 km/h
281 16-05-2020 23:20:00 12.3 C 6.95 g/m*3 12.3 C 4.8 km/h
282 16-05-2020 23:25:00 12.4 C 6.99 g/m*3 12.4 C 6.4 km/h
283 16-05-2020 23:30:00 12.4 C 6.99 g/m*3 12.4 C 3.2 km/h
284 16-05-2020 23:35:00 12.4 C 6.99 g/m*3 12.4 C 4.8 km/h
285 16-05-2020 23:40:00 12.2 C 7.12 g/m*3 12.2 C 4.8 km/h
286 16-05-2020 23:45:00 12 C 7.14 g/m*3 12 C 3.2 km/h
287 16-05-2020 23:50:00 11.8 C 7.05 g/m*3 11.8 C 4.8 km/h
288 16-05-2020 23:55:00 11.8 C 7.16 g/m*3 11.8 C 3.2 km/h
289 17-05-2020 00:00:00 11.7 C 7.01 g/m*3 11.7 C 4.8 km/h
290 17-05-2020 00:05:00 11.7 C 7.11 g/m*3 11.7 C 6.4 km/h
291 17-05-2020 00:10:00 11.8 C 7.05 g/m*3 11.8 C 6.4 km/h
292 17-05-2020 00:15:00 11.8 C 7.16 g/m*3 11.8 C 1.6 km/h
293 17-05-2020 00:20:00 11.7 C 7.11 g/m*3 11.7 C 3.2 km/h
294 17-05-2020 00:25:00 11.5 C 7.13 g/m*3 11.5 C 1.6 km/h
295 17-05-2020 00:30:00 11.3 C 7.04 g/m*3 11.3 C 4.8 km/h
296 17-05-2020 00:35:00 11.2 C 7.1 g/m*3 11.2 C 3.2 km/h
297 17-05-2020 00:40:00 11.1 C 7.15 g/m*3 11.1 C 3.2 km/h
298 17-05-2020 00:45:00 10.8 C 7.02 g/m*3 10.8 C 0 km/h
299 17-05-2020 00:50:00 10.7 C 7.07 g/m*3 10.7 C 1.6 km/h
300 17-05-2020 00:55:00 10.5 C 7.08 g/m*3 10.5 C 4.8 km/h
Sensor: Nr:Datum:Temp:Abs-Feuchte:Windchill:Wind:
Aussen-T/F 301 17-05-2020 01:00:00 10.4 C 7.04 g/m*3 10.4 C 1.6 km/h
302 17-05-2020 01:05:00 10.3 C 7.09 g/m*3 10.3 C 1.6 km/h
303 17-05-2020 01:10:00 10.2 C 7.04 g/m*3 10.2 C 4.8 km/h
304 17-05-2020 01:15:00 10.2 C 7.04 g/m*3 10.2 C 4.8 km/h
305 17-05-2020 01:20:00 10 C 6.95 g/m*3 10 C 4.8 km/h
306 17-05-2020 01:25:00 9.9 C 7 g/m*3 9.9 C 3.2 km/h
307 17-05-2020 01:30:00 9.8 C 7.05 g/m*3 9.8 C 1.6 km/h
308 17-05-2020 01:35:00 9.7 C 7.01 g/m*3 9.02 C 6.4 km/h
309 17-05-2020 01:40:00 9.6 C 6.96 g/m*3 9.6 C 4.8 km/h
310 17-05-2020 01:45:00 9.5 C 6.92 g/m*3 9.5 C 0 km/h
311 17-05-2020 01:50:00 9.4 C 6.87 g/m*3 8.68 C 6.4 km/h
312 17-05-2020 01:55:00 9.3 C 6.92 g/m*3 9.3 C 4.8 km/h
313 17-05-2020 02:00:00 9.2 C 6.88 g/m*3 9.2 C 4.8 km/h
314 17-05-2020 02:05:00 9.2 C 6.88 g/m*3 8.45 C 6.4 km/h
315 17-05-2020 02:10:00 9.1 C 6.83 g/m*3 7.93 C 8.1 km/h
316 17-05-2020 02:15:00 9.1 C 6.92 g/m*3 8.33 C 6.4 km/h
317 17-05-2020 02:20:00 9.1 C 6.92 g/m*3 9.1 C 0 km/h
318 17-05-2020 02:25:00 9.2 C 6.88 g/m*3 8.05 C 8.1 km/h
319 17-05-2020 02:30:00 9.3 C 6.92 g/m*3 9.3 C 4.8 km/h
320 17-05-2020 02:35:00 9.3 C 6.92 g/m*3 9.3 C 4.8 km/h
321 17-05-2020 02:40:00 9.2 C 6.88 g/m*3 8.45 C 6.4 km/h
322 17-05-2020 02:45:00 9.1 C 6.83 g/m*3 7.93 C 8.1 km/h
323 17-05-2020 02:50:00 9 C 6.88 g/m*3 9 C 3.2 km/h
324 17-05-2020 02:55:00 8.9 C 6.92 g/m*3 8.9 C 3.2 km/h
325 17-05-2020 03:00:00 8.8 C 6.88 g/m*3 8.8 C 3.2 km/h
Sensor: Nr:Datum:Temp:Abs-Feuchte:Windchill:Wind:
Aussen-T/F 326 17-05-2020 03:05:00 8.7 C 6.92 g/m*3 7.87 C 6.4 km/h
327 17-05-2020 03:10:00 8.6 C 6.96 g/m*3 8.6 C 3.2 km/h
328 17-05-2020 03:15:00 8.6 C 6.96 g/m*3 8.6 C 1.6 km/h
329 17-05-2020 03:20:00 8.6 C 6.96 g/m*3 8.6 C 4.8 km/h
330 17-05-2020 03:25:00 8.6 C 6.96 g/m*3 8.6 C 1.6 km/h
331 17-05-2020 03:30:00 8.6 C 6.96 g/m*3 8.6 C 4.8 km/h
332 17-05-2020 03:35:00 8.6 C 7.05 g/m*3 8.6 C 1.6 km/h
333 17-05-2020 03:40:00 8.5 C 7 g/m*3 8.5 C 4.8 km/h
334 17-05-2020 03:45:00 8.6 C 7.05 g/m*3 7.34 C 8.1 km/h
335 17-05-2020 03:50:00 8.7 C 7.09 g/m*3 8.7 C 1.6 km/h
336 17-05-2020 03:55:00 8.6 C 6.96 g/m*3 8.6 C 3.2 km/h
337 17-05-2020 04:00:00 8.6 C 7.05 g/m*3 8.6 C 4.8 km/h
338 17-05-2020 04:05:00 8.6 C 7.05 g/m*3 8.6 C 4.8 km/h
339 17-05-2020 04:10:00 8.6 C 7.05 g/m*3 8.6 C 3.2 km/h
340 17-05-2020 04:15:00 8.5 C 7 g/m*3 8.5 C 3.2 km/h
341 17-05-2020 04:20:00 8.4 C 6.96 g/m*3 8.4 C 1.6 km/h
342 17-05-2020 04:25:00 8.4 C 7.04 g/m*3 8.4 C 1.6 km/h
343 17-05-2020 04:30:00 8.3 C 7 g/m*3 8.3 C 4.8 km/h
344 17-05-2020 04:35:00 8.2 C 6.95 g/m*3 8.2 C 4.8 km/h
345 17-05-2020 04:40:00 8.1 C 6.91 g/m*3 8.1 C 4.8 km/h
346 17-05-2020 04:45:00 7.9 C 6.9 g/m*3 7.9 C 3.2 km/h
347 17-05-2020 04:50:00 7.8 C 6.86 g/m*3 7.8 C 3.2 km/h
348 17-05-2020 04:55:00 7.7 C 6.89 g/m*3 7.7 C 3.2 km/h
349 17-05-2020 05:00:00 7.6 C 6.85 g/m*3 7.6 C 1.6 km/h
350 17-05-2020 05:05:00 7.5 C 6.8 g/m*3 7.5 C 4.8 km/h
Sensor: Nr:Datum:Temp:Abs-Feuchte:Windchill:Wind:
Aussen-T/F 351 17-05-2020 05:10:00 7.4 C 6.84 g/m*3 7.4 C 1.6 km/h
352 17-05-2020 05:15:00 7.3 C 6.79 g/m*3 7.3 C 3.2 km/h
353 17-05-2020 05:20:00 7.3 C 6.79 g/m*3 7.3 C 4.8 km/h
354 17-05-2020 05:25:00 7.2 C 6.83 g/m*3 7.2 C 4.8 km/h
355 17-05-2020 05:30:00 7.2 C 6.83 g/m*3 7.2 C 3.2 km/h
356 17-05-2020 05:35:00 7.1 C 6.79 g/m*3 7.1 C 0 km/h
357 17-05-2020 05:40:00 7.1 C 6.79 g/m*3 7.1 C 3.2 km/h
358 17-05-2020 05:45:00 6.9 C 6.7 g/m*3 5.79 C 6.4 km/h
359 17-05-2020 05:50:00 6.8 C 6.65 g/m*3 6.8 C 4.8 km/h
360 17-05-2020 05:55:00 6.8 C 6.65 g/m*3 6.8 C 4.8 km/h
361 17-05-2020 06:00:00 6.8 C 6.65 g/m*3 6.8 C 3.2 km/h
362 17-05-2020 06:05:00 6.7 C 6.61 g/m*3 6.7 C 1.6 km/h
363 17-05-2020 06:10:00 6.7 C 6.69 g/m*3 6.7 C 3.2 km/h
364 17-05-2020 06:15:00 6.7 C 6.69 g/m*3 6.7 C 3.2 km/h
365 17-05-2020 06:20:00 6.7 C 6.69 g/m*3 5.56 C 6.4 km/h
366 17-05-2020 06:25:00 6.7 C 6.69 g/m*3 6.7 C 1.6 km/h
367 17-05-2020 06:30:00 6.7 C 6.69 g/m*3 6.7 C 4.8 km/h
368 17-05-2020 06:35:00 6.7 C 6.69 g/m*3 6.7 C 3.2 km/h
369 17-05-2020 06:40:00 6.7 C 6.69 g/m*3 6.7 C 3.2 km/h
370 17-05-2020 06:45:00 6.7 C 6.69 g/m*3 6.7 C 3.2 km/h
371 17-05-2020 06:50:00 6.7 C 6.69 g/m*3 6.7 C 3.2 km/h
372 17-05-2020 06:55:00 6.7 C 6.69 g/m*3 5.56 C 6.4 km/h
373 17-05-2020 07:00:00 6.8 C 6.81 g/m*3 6.8 C 0 km/h
374 17-05-2020 07:05:00 6.8 C 6.81 g/m*3 6.8 C 4.8 km/h
375 17-05-2020 07:10:00 6.9 C 6.85 g/m*3 6.9 C 3.2 km/h
Sensor: Nr:Datum:Temp:Abs-Feuchte:Windchill:Wind:
Aussen-T/F 376 17-05-2020 07:15:00 7 C 6.82 g/m*3 7 C 0 km/h
377 17-05-2020 07:20:00 7 C 6.82 g/m*3 7 C 0 km/h
378 17-05-2020 07:25:00 6.9 C 6.77 g/m*3 6.9 C 1.6 km/h
379 17-05-2020 07:30:00 6.9 C 6.77 g/m*3 6.9 C 0 km/h
380 17-05-2020 07:35:00 6.9 C 6.85 g/m*3 6.9 C 0 km/h
381 17-05-2020 07:40:00 6.9 C 6.85 g/m*3 6.9 C 3.2 km/h
382 17-05-2020 07:45:00 7 C 6.9 g/m*3 7 C 1.6 km/h
383 17-05-2020 07:50:00 7 C 6.9 g/m*3 7 C 4.8 km/h
384 17-05-2020 07:55:00 7.1 C 6.94 g/m*3 7.1 C 1.6 km/h
385 17-05-2020 08:00:00 7.1 C 6.94 g/m*3 7.1 C 1.6 km/h
386 17-05-2020 08:05:00 7.2 C 6.99 g/m*3 7.2 C 1.6 km/h
387 17-05-2020 08:10:00 7.2 C 6.99 g/m*3 7.2 C 0 km/h
388 17-05-2020 08:15:00 7.3 C 7.03 g/m*3 7.3 C 0 km/h
389 17-05-2020 08:20:00 7.3 C 7.03 g/m*3 7.3 C 0 km/h
390 17-05-2020 08:25:00 7.4 C 7.08 g/m*3 7.4 C 0 km/h
391 17-05-2020 08:30:00 7.4 C 7.08 g/m*3 7.4 C 0 km/h
392 17-05-2020 08:35:00 7.5 C 7.12 g/m*3 7.5 C 0 km/h
393 17-05-2020 08:40:00 7.6 C 7.17 g/m*3 7.6 C 3.2 km/h
394 17-05-2020 08:45:00 7.8 C 7.26 g/m*3 7.8 C 0 km/h
395 17-05-2020 08:50:00 7.9 C 7.23 g/m*3 7.9 C 0 km/h
396 17-05-2020 08:55:00 8.2 C 7.37 g/m*3 8.2 C 3.2 km/h
397 17-05-2020 09:00:00 8.4 C 7.38 g/m*3 8.4 C 3.2 km/h
398 17-05-2020 09:05:00 8.7 C 7.35 g/m*3 8.7 C 0 km/h
399 17-05-2020 09:10:00 9.1 C 7.36 g/m*3 7.93 C 8.1 km/h
400 17-05-2020 09:15:00 9.3 C 7.37 g/m*3 9.3 C 4.8 km/h
Sensor: Nr:Datum:Temp:Abs-Feuchte:Windchill:Wind:
Aussen-T/F 401 17-05-2020 09:20:00 9.6 C 7.33 g/m*3 8.91 C 6.4 km/h
402 17-05-2020 09:25:00 9.9 C 7.38 g/m*3 9.9 C 3.2 km/h
403 17-05-2020 09:30:00 10.2 C 7.42 g/m*3 9.6 C 6.4 km/h
404 17-05-2020 09:35:00 10.4 C 7.42 g/m*3 10.4 C 1.6 km/h
405 17-05-2020 09:40:00 10.7 C 7.37 g/m*3 10.7 C 3.2 km/h
406 17-05-2020 09:45:00 10.9 C 7.26 g/m*3 10.41 C 6.4 km/h
407 17-05-2020 09:50:00 11.2 C 7.1 g/m*3 11.2 C 4.8 km/h
408 17-05-2020 09:55:00 11.2 C 6.99 g/m*3 11.2 C 4.8 km/h
409 17-05-2020 10:00:00 11.3 C 6.94 g/m*3 11.3 C 9.7 km/h
410 17-05-2020 10:05:00 11.4 C 6.98 g/m*3 11.4 C 6.4 km/h
411 17-05-2020 10:10:00 11.6 C 7.07 g/m*3 11.6 C 1.6 km/h
412 17-05-2020 10:15:00 11.7 C 7.22 g/m*3 11.7 C 4.8 km/h
413 17-05-2020 10:20:00 11.9 C 6.99 g/m*3 11.9 C 6.4 km/h
414 17-05-2020 10:25:00 12.2 C 7.01 g/m*3 12.2 C 11.3 km/h
415 17-05-2020 10:30:00 12.4 C 7.21 g/m*3 12.4 C 12.9 km/h
416 17-05-2020 10:35:00 12.6 C 7.19 g/m*3 12.6 C 6.4 km/h
417 17-05-2020 10:40:00 12.8 C 7.06 g/m*3 12.8 C 8.1 km/h
418 17-05-2020 10:45:00 12.9 C 6.99 g/m*3 12.9 C 6.4 km/h
419 17-05-2020 10:50:00 12.9 C 7.1 g/m*3 12.9 C 6.4 km/h
420 17-05-2020 10:55:00 12.9 C 6.88 g/m*3 12.9 C 9.7 km/h
421 17-05-2020 11:00:00 12.9 C 6.99 g/m*3 12.9 C 9.7 km/h
422 17-05-2020 11:05:00 12.9 C 6.99 g/m*3 12.9 C 8.1 km/h
423 17-05-2020 11:10:00 13.1 C 6.96 g/m*3 13.1 C 9.7 km/h
424 17-05-2020 11:15:00 13.1 C 6.96 g/m*3 13.1 C 6.4 km/h
425 17-05-2020 11:20:00 13.1 C 6.85 g/m*3 13.1 C 4.8 km/h
Sensor: Nr:Datum:Temp:Abs-Feuchte:Windchill:Wind:
Aussen-T/F 426 17-05-2020 11:25:00 13.1 C 6.96 g/m*3 13.1 C 6.4 km/h
427 17-05-2020 11:30:00 13.2 C 7 g/m*3 13.2 C 3.2 km/h
428 17-05-2020 11:35:00 13.3 C 7.05 g/m*3 13.3 C 4.8 km/h
429 17-05-2020 11:40:00 13.4 C 7.21 g/m*3 13.4 C 6.4 km/h
430 17-05-2020 11:45:00 13.4 C 7.09 g/m*3 13.4 C 6.4 km/h
431 17-05-2020 11:50:00 13.6 C 7.18 g/m*3 13.6 C 3.2 km/h
432 17-05-2020 11:55:00 13.7 C 6.99 g/m*3 13.7 C 4.8 km/h
433 17-05-2020 12:00:00 13.7 C 6.87 g/m*3 13.7 C 8.1 km/h
434 17-05-2020 12:05:00 13.8 C 6.91 g/m*3 13.8 C 9.7 km/h
435 17-05-2020 12:10:00 14 C 6.88 g/m*3 14 C 9.7 km/h
436 17-05-2020 12:15:00 14.2 C 6.96 g/m*3 14.2 C 6.4 km/h
437 17-05-2020 12:20:00 14.3 C 6.88 g/m*3 14.3 C 9.7 km/h
438 17-05-2020 12:25:00 14.3 C 6.88 g/m*3 14.3 C 3.2 km/h
439 17-05-2020 12:30:00 14.2 C 6.84 g/m*3 14.2 C 4.8 km/h
440 17-05-2020 12:35:00 14.3 C 7 g/m*3 14.3 C 6.4 km/h
441 17-05-2020 12:40:00 14.4 C 7.05 g/m*3 14.4 C 8.1 km/h
442 17-05-2020 12:45:00 14.7 C 6.92 g/m*3 14.7 C 9.7 km/h
443 17-05-2020 12:50:00 14.6 C 6.88 g/m*3 14.6 C 6.4 km/h
444 17-05-2020 12:55:00 14.6 C 7.01 g/m*3 14.6 C 11.3 km/h
445 17-05-2020 13:00:00 14.6 C 6.88 g/m*3 14.6 C 9.7 km/h
446 17-05-2020 13:05:00 14.8 C 7.09 g/m*3 14.8 C 6.4 km/h
447 17-05-2020 13:10:00 14.9 C 6.75 g/m*3 14.9 C 9.7 km/h
448 17-05-2020 13:15:00 15.1 C 6.71 g/m*3 15.1 C 8.1 km/h
449 17-05-2020 13:20:00 15.3 C 6.79 g/m*3 15.3 C 12.9 km/h
450 17-05-2020 13:25:00 15.4 C 6.83 g/m*3 15.4 C 6.4 km/h
Sensor: Nr:Datum:Temp:Abs-Feuchte:Windchill:Wind:
Aussen-T/F 451 17-05-2020 13:30:00 15.4 C 6.7 g/m*3 15.4 C 11.3 km/h
452 17-05-2020 13:35:00 15.6 C 6.92 g/m*3 15.6 C 8.1 km/h
453 17-05-2020 13:40:00 15.7 C 6.82 g/m*3 15.7 C 9.7 km/h
454 17-05-2020 13:45:00 15.8 C 6.87 g/m*3 15.8 C 6.4 km/h
455 17-05-2020 13:50:00 15.8 C 7 g/m*3 15.8 C 4.8 km/h
456 17-05-2020 13:55:00 15.9 C 6.91 g/m*3 15.9 C 11.3 km/h
457 17-05-2020 14:00:00 16.2 C 6.76 g/m*3 16.2 C 9.7 km/h
458 17-05-2020 14:05:00 16.3 C 6.8 g/m*3 16.3 C 6.4 km/h
459 17-05-2020 14:10:00 16.4 C 6.98 g/m*3 16.4 C 12.9 km/h
460 17-05-2020 14:15:00 16.6 C 6.78 g/m*3 16.6 C 11.3 km/h
461 17-05-2020 14:20:00 16.6 C 6.64 g/m*3 16.6 C 8.1 km/h
462 17-05-2020 14:25:00 16.8 C 6.72 g/m*3 16.8 C 6.4 km/h
463 17-05-2020 14:30:00 16.9 C 6.76 g/m*3 16.9 C 6.4 km/h
464 17-05-2020 14:35:00 16.9 C 6.76 g/m*3 16.9 C 4.8 km/h
465 17-05-2020 14:40:00 17.1 C 6.84 g/m*3 17.1 C 12.9 km/h
466 17-05-2020 14:45:00 17.4 C 6.82 g/m*3 17.4 C 11.3 km/h
467 17-05-2020 14:50:00 17.5 C 6.41 g/m*3 17.5 C 6.4 km/h
468 17-05-2020 14:55:00 17.5 C 6.86 g/m*3 17.5 C 8.1 km/h
469 17-05-2020 15:00:00 17.8 C 6.68 g/m*3 17.8 C 9.7 km/h
470 17-05-2020 15:05:00 17.9 C 6.57 g/m*3 17.9 C 8.1 km/h
471 17-05-2020 15:10:00 18 C 6.3 g/m*3 18 C 12.9 km/h
472 17-05-2020 15:15:00 18.1 C 6.33 g/m*3 18.1 C 9.7 km/h
473 17-05-2020 15:20:00 18.1 C 6.64 g/m*3 18.1 C 8.1 km/h
474 17-05-2020 15:25:00 18.3 C 6.25 g/m*3 18.3 C 8.1 km/h
475 17-05-2020 15:30:00 18.6 C 6.53 g/m*3 18.6 C 6.4 km/h
Sensor: Nr:Datum:Temp:Abs-Feuchte:Windchill:Wind:
Aussen-T/F 476 17-05-2020 15:35:00 19.2 C 6.93 g/m*3 19.2 C 6.4 km/h
477 17-05-2020 15:40:00 19.5 C 6.71 g/m*3 19.5 C 8.1 km/h
478 17-05-2020 15:45:00 19.4 C 6.67 g/m*3 19.4 C 3.2 km/h
479 17-05-2020 15:50:00 19.4 C 6.67 g/m*3 19.4 C 11.3 km/h
480 17-05-2020 15:55:00 19.2 C 6.76 g/m*3 19.2 C 12.9 km/h
481 17-05-2020 16:00:00 19.2 C 6.76 g/m*3 19.2 C 9.7 km/h
482 17-05-2020 16:05:00 19.3 C 6.63 g/m*3 19.3 C 8.1 km/h
483 17-05-2020 16:10:00 19.4 C 6.84 g/m*3 19.4 C 9.7 km/h
484 17-05-2020 16:15:00 19.8 C 6.66 g/m*3 19.8 C 16.1 km/h
485 17-05-2020 16:20:00 20 C 6.57 g/m*3 20 C 16.1 km/h
486 17-05-2020 16:25:00 20.2 C 6.64 g/m*3 20.2 C 8.1 km/h
487 17-05-2020 16:30:00 20.4 C 6.37 g/m*3 20.4 C 11.3 km/h
488 17-05-2020 16:35:00 20.7 C 6.48 g/m*3 20.7 C 6.4 km/h
489 17-05-2020 16:40:00 20.7 C 6.3 g/m*3 20.7 C 9.7 km/h
490 17-05-2020 16:45:00 20.7 C 6.3 g/m*3 20.7 C 9.7 km/h
491 17-05-2020 16:50:00 20.6 C 6.26 g/m*3 20.6 C 9.7 km/h
492 17-05-2020 16:55:00 20.6 C 6.26 g/m*3 20.6 C 9.7 km/h
493 17-05-2020 17:00:00 20.7 C 6.12 g/m*3 20.7 C 6.4 km/h
494 17-05-2020 17:05:00 20.3 C 5.98 g/m*3 20.3 C 6.4 km/h
495 17-05-2020 17:10:00 20.4 C 6.19 g/m*3 20.4 C 11.3 km/h
496 17-05-2020 17:15:00 20.8 C 6.34 g/m*3 20.8 C 9.7 km/h
497 17-05-2020 17:20:00 20.8 C 6.16 g/m*3 20.8 C 12.9 km/h
498 17-05-2020 17:25:00 20.8 C 5.98 g/m*3 20.8 C 6.4 km/h
499 17-05-2020 17:30:00 20.8 C 6.16 g/m*3 20.8 C 8.1 km/h
500 17-05-2020 17:35:00 20.9 C 6.19 g/m*3 20.9 C 11.3 km/h
Sensor: Nr:Datum:Temp:Abs-Feuchte:Windchill:Wind:
Aussen-T/F 501 17-05-2020 17:40:00 20.7 C 6.3 g/m*3 20.7 C 12.9 km/h
502 17-05-2020 17:45:00 20.5 C 6.41 g/m*3 20.5 C 11.3 km/h
503 17-05-2020 17:50:00 20.7 C 6.48 g/m*3 20.7 C 11.3 km/h
504 17-05-2020 17:55:00 20.9 C 6.56 g/m*3 20.9 C 9.7 km/h
505 17-05-2020 18:00:00 21.1 C 6.45 g/m*3 21.1 C 9.7 km/h
506 17-05-2020 18:05:00 21.1 C 6.45 g/m*3 21.1 C 8.1 km/h
507 17-05-2020 18:10:00 21 C 6.41 g/m*3 21 C 8.1 km/h
508 17-05-2020 18:15:00 21.1 C 6.63 g/m*3 21.1 C 4.8 km/h
509 17-05-2020 18:20:00 21.2 C 6.49 g/m*3 21.2 C 9.7 km/h
510 17-05-2020 18:25:00 20.7 C 6.48 g/m*3 20.7 C 8.1 km/h
511 17-05-2020 18:30:00 20.7 C 6.48 g/m*3 20.7 C 9.7 km/h
512 17-05-2020 18:35:00 20.9 C 6.74 g/m*3 20.9 C 8.1 km/h
513 17-05-2020 18:40:00 21.2 C 6.86 g/m*3 21.2 C 6.4 km/h
514 17-05-2020 18:45:00 21.1 C 6.45 g/m*3 21.1 C 9.7 km/h
515 17-05-2020 18:50:00 20.8 C 6.34 g/m*3 20.8 C 8.1 km/h
516 17-05-2020 18:55:00 20.6 C 6.26 g/m*3 20.6 C 4.8 km/h
517 17-05-2020 19:00:00 20.4 C 6.37 g/m*3 20.4 C 8.1 km/h
518 17-05-2020 19:05:00 20.6 C 6.62 g/m*3 20.6 C 4.8 km/h
519 17-05-2020 19:10:00 20.7 C 6.66 g/m*3 20.7 C 4.8 km/h
520 17-05-2020 19:15:00 20.6 C 6.44 g/m*3 20.6 C 3.2 km/h
521 17-05-2020 19:20:00 20.4 C 6.37 g/m*3 20.4 C 9.7 km/h
522 17-05-2020 19:25:00 20 C 6.39 g/m*3 20 C 9.7 km/h
523 17-05-2020 19:30:00 19.8 C 6.49 g/m*3 19.8 C 3.2 km/h
524 17-05-2020 19:35:00 19.8 C 6.49 g/m*3 19.8 C 4.8 km/h
525 17-05-2020 19:40:00 19.6 C 6.42 g/m*3 19.6 C 6.4 km/h
Sensor: Nr:Datum:Temp:Abs-Feuchte:Windchill:Wind:
Aussen-T/F 526 17-05-2020 19:45:00 19.4 C 6.51 g/m*3 19.4 C 6.4 km/h
527 17-05-2020 19:50:00 19.4 C 6.51 g/m*3 19.4 C 4.8 km/h
528 17-05-2020 19:55:00 19.4 C 6.67 g/m*3 19.4 C 4.8 km/h
529 17-05-2020 20:00:00 19.3 C 6.63 g/m*3 19.3 C 4.8 km/h
530 17-05-2020 20:05:00 19.2 C 6.76 g/m*3 19.2 C 3.2 km/h
531 17-05-2020 20:10:00 19.1 C 6.56 g/m*3 19.1 C 3.2 km/h
532 17-05-2020 20:15:00 18.9 C 6.64 g/m*3 18.9 C 4.8 km/h
533 17-05-2020 20:20:00 18.7 C 6.72 g/m*3 18.7 C 8.1 km/h
534 17-05-2020 20:25:00 18.6 C 6.68 g/m*3 18.6 C 4.8 km/h
535 17-05-2020 20:30:00 18.4 C 6.61 g/m*3 18.4 C 3.2 km/h
536 17-05-2020 20:35:00 18.3 C 6.72 g/m*3 18.3 C 3.2 km/h
537 17-05-2020 20:40:00 18.2 C 6.84 g/m*3 18.2 C 3.2 km/h
538 17-05-2020 20:45:00 18 C 7.53 g/m*3 18 C 1.6 km/h
539 17-05-2020 20:50:00 17.7 C 7.54 g/m*3 17.7 C 0 km/h
540 17-05-2020 20:55:00 17.2 C 7.61 g/m*3 17.2 C 0 km/h
541 17-05-2020 21:00:00 16.7 C 7.53 g/m*3 16.7 C 4.8 km/h
542 17-05-2020 21:05:00 16.1 C 7.4 g/m*3 16.1 C 4.8 km/h
543 17-05-2020 21:10:00 15.7 C 7.36 g/m*3 15.7 C 6.4 km/h
544 17-05-2020 21:15:00 15.3 C 7.31 g/m*3 15.3 C 8.1 km/h
545 17-05-2020 21:20:00 14.9 C 7.14 g/m*3 14.9 C 6.4 km/h
546 17-05-2020 21:25:00 14.7 C 7.18 g/m*3 14.7 C 8.1 km/h
547 17-05-2020 21:30:00 14.4 C 7.17 g/m*3 14.4 C 8.1 km/h
548 17-05-2020 21:35:00 14.2 C 7.08 g/m*3 14.2 C 8.1 km/h
549 17-05-2020 21:40:00 14 C 7.12 g/m*3 14 C 4.8 km/h
550 17-05-2020 21:45:00 13.8 C 7.15 g/m*3 13.8 C 8.1 km/h
Sensor: Nr:Datum:Temp:Abs-Feuchte:Windchill:Wind:
Aussen-T/F 551 17-05-2020 21:50:00 13.7 C 7.1 g/m*3 13.7 C 8.1 km/h
552 17-05-2020 21:55:00 13.6 C 7.06 g/m*3 13.6 C 8.1 km/h
553 17-05-2020 22:00:00 13.5 C 7.02 g/m*3 13.5 C 8.1 km/h
554 17-05-2020 22:05:00 13.4 C 6.97 g/m*3 13.4 C 8.1 km/h
555 17-05-2020 22:10:00 13.4 C 6.97 g/m*3 13.4 C 6.4 km/h
556 17-05-2020 22:15:00 13.3 C 7.05 g/m*3 13.3 C 6.4 km/h
557 17-05-2020 22:20:00 13.3 C 7.05 g/m*3 13.3 C 6.4 km/h
558 17-05-2020 22:25:00 13.2 C 7.12 g/m*3 13.2 C 6.4 km/h
559 17-05-2020 22:30:00 13.1 C 7.19 g/m*3 13.1 C 4.8 km/h
560 17-05-2020 22:35:00 12.9 C 7.1 g/m*3 12.9 C 3.2 km/h
561 17-05-2020 22:40:00 12.7 C 7.12 g/m*3 12.7 C 4.8 km/h
562 17-05-2020 22:45:00 12.6 C 7.08 g/m*3 12.6 C 3.2 km/h
563 17-05-2020 22:50:00 12.4 C 7.32 g/m*3 12.4 C 0 km/h
564 17-05-2020 22:55:00 12.1 C 7.18 g/m*3 12.1 C 0 km/h
565 17-05-2020 23:00:00 11.8 C 7.26 g/m*3 11.8 C 0 km/h
566 17-05-2020 23:05:00 11.5 C 7.23 g/m*3 11.5 C 0 km/h
567 17-05-2020 23:10:00 11.3 C 7.24 g/m*3 11.3 C 0 km/h
568 17-05-2020 23:15:00 11.1 C 7.15 g/m*3 11.1 C 0 km/h
569 17-05-2020 23:20:00 10.9 C 7.16 g/m*3 10.9 C 0 km/h
570 17-05-2020 23:25:00 10.7 C 7.07 g/m*3 10.7 C 0 km/h
571 17-05-2020 23:30:00 10.6 C 7.12 g/m*3 10.6 C 0 km/h
572 17-05-2020 23:35:00 10.4 C 7.13 g/m*3 10.4 C 0 km/h
573 17-05-2020 23:40:00 10.3 C 7.09 g/m*3 10.3 C 0 km/h
574 17-05-2020 23:45:00 10.2 C 7.14 g/m*3 10.2 C 0 km/h
575 17-05-2020 23:50:00 10.1 C 7.09 g/m*3 10.1 C 0 km/h
Sensor: Nr:Datum:Temp:Abs-Feuchte:Windchill:Wind:
Aussen-T/F 576 17-05-2020 23:55:00 9.9 C 7 g/m*3 9.9 C 0 km/h
577 18-05-2020 00:00:00 9.8 C 7.05 g/m*3 9.8 C 0 km/h
578 18-05-2020 00:05:00 9.7 C 7.01 g/m*3 9.7 C 1.6 km/h
579 18-05-2020 00:10:00 9.6 C 7.05 g/m*3 9.6 C 0 km/h
580 18-05-2020 00:15:00 9.6 C 7.05 g/m*3 9.6 C 0 km/h
581 18-05-2020 00:20:00 9.5 C 7.1 g/m*3 9.5 C 0 km/h
582 18-05-2020 00:25:00 9.4 C 7.05 g/m*3 9.4 C 0 km/h
583 18-05-2020 00:30:00 9.3 C 7.01 g/m*3 9.3 C 0 km/h
584 18-05-2020 00:35:00 9.2 C 6.97 g/m*3 9.2 C 0 km/h
585 18-05-2020 00:40:00 9.1 C 6.92 g/m*3 9.1 C 0 km/h
586 18-05-2020 00:45:00 9.1 C 7.01 g/m*3 9.1 C 1.6 km/h
587 18-05-2020 00:50:00 9 C 6.96 g/m*3 9 C 1.6 km/h
588 18-05-2020 00:55:00 8.9 C 6.92 g/m*3 8.9 C 0 km/h
589 18-05-2020 01:00:00 8.8 C 6.96 g/m*3 8.8 C 0 km/h
590 18-05-2020 01:05:00 8.8 C 6.96 g/m*3 8.8 C 0 km/h
591 18-05-2020 01:10:00 8.7 C 6.92 g/m*3 8.7 C 0 km/h
592 18-05-2020 01:15:00 8.7 C 7.01 g/m*3 8.7 C 0 km/h
593 18-05-2020 01:20:00 8.6 C 6.96 g/m*3 8.6 C 0 km/h
594 18-05-2020 01:25:00 8.6 C 6.96 g/m*3 8.6 C 0 km/h
595 18-05-2020 01:30:00 8.6 C 6.96 g/m*3 8.6 C 0 km/h
596 18-05-2020 01:35:00 8.5 C 6.92 g/m*3 8.5 C 0 km/h
597 18-05-2020 01:40:00 8.4 C 6.87 g/m*3 8.4 C 0 km/h
598 18-05-2020 01:45:00 8.3 C 6.91 g/m*3 8.3 C 1.6 km/h
599 18-05-2020 01:50:00 8.3 C 6.91 g/m*3 8.3 C 1.6 km/h
600 18-05-2020 01:55:00 8.2 C 6.87 g/m*3 8.2 C 0 km/h
Sensor: Nr:Datum:Temp:Abs-Feuchte:Windchill:Wind:
Aussen-T/F 601 18-05-2020 02:00:00 8.2 C 6.87 g/m*3 8.2 C 3.2 km/h
602 18-05-2020 02:05:00 8.2 C 6.95 g/m*3 8.2 C 0 km/h
603 18-05-2020 02:10:00 8.1 C 6.82 g/m*3 8.1 C 0 km/h
604 18-05-2020 02:15:00 8 C 6.86 g/m*3 8 C 0 km/h
605 18-05-2020 02:20:00 7.9 C 6.82 g/m*3 7.9 C 3.2 km/h
606 18-05-2020 02:25:00 8 C 6.94 g/m*3 8 C 1.6 km/h
607 18-05-2020 02:30:00 8 C 6.94 g/m*3 8 C 0 km/h
608 18-05-2020 02:35:00 8 C 6.94 g/m*3 8 C 0 km/h
609 18-05-2020 02:40:00 7.9 C 6.82 g/m*3 7.9 C 0 km/h
610 18-05-2020 02:45:00 7.8 C 6.77 g/m*3 7.8 C 0 km/h
611 18-05-2020 02:50:00 7.7 C 6.81 g/m*3 7.7 C 0 km/h
612 18-05-2020 02:55:00 7.6 C 6.77 g/m*3 7.6 C 0 km/h
613 18-05-2020 03:00:00 7.5 C 6.72 g/m*3 7.5 C 0 km/h
614 18-05-2020 03:05:00 7.4 C 6.76 g/m*3 7.4 C 0 km/h
615 18-05-2020 03:10:00 7.3 C 6.72 g/m*3 7.3 C 0 km/h
616 18-05-2020 03:15:00 7.2 C 6.67 g/m*3 7.2 C 0 km/h
617 18-05-2020 03:20:00 7.2 C 6.67 g/m*3 7.2 C 0 km/h
618 18-05-2020 03:25:00 7.1 C 6.71 g/m*3 7.1 C 1.6 km/h
619 18-05-2020 03:30:00 7.1 C 6.79 g/m*3 7.1 C 0 km/h
620 18-05-2020 03:35:00 7.1 C 6.79 g/m*3 7.1 C 0 km/h
621 18-05-2020 03:40:00 7.1 C 6.79 g/m*3 7.1 C 0 km/h
622 18-05-2020 03:45:00 7 C 6.74 g/m*3 7 C 0 km/h
623 18-05-2020 03:50:00 7 C 6.74 g/m*3 7 C 0 km/h
624 18-05-2020 03:55:00 7 C 6.74 g/m*3 7 C 0 km/h
625 18-05-2020 04:00:00 6.9 C 6.7 g/m*3 6.9 C 0 km/h
Sensor: Nr:Datum:Temp:Abs-Feuchte:Windchill:Wind:
Aussen-T/F 626 18-05-2020 04:05:00 6.9 C 6.77 g/m*3 6.9 C 0 km/h
627 18-05-2020 04:10:00 6.9 C 6.77 g/m*3 6.9 C 0 km/h
628 18-05-2020 04:15:00 6.8 C 6.65 g/m*3 6.8 C 0 km/h
629 18-05-2020 04:20:00 6.7 C 6.61 g/m*3 6.7 C 0 km/h
630 18-05-2020 04:25:00 6.7 C 6.61 g/m*3 6.7 C 0 km/h
631 18-05-2020 04:30:00 6.6 C 6.64 g/m*3 6.6 C 0 km/h
632 18-05-2020 04:35:00 6.5 C 6.6 g/m*3 6.5 C 0 km/h
633 18-05-2020 04:40:00 6.4 C 6.56 g/m*3 6.4 C 0 km/h
634 18-05-2020 04:45:00 6.4 C 6.56 g/m*3 6.4 C 0 km/h
635 18-05-2020 04:50:00 6.3 C 6.51 g/m*3 6.3 C 0 km/h
636 18-05-2020 04:55:00 6.2 C 6.47 g/m*3 6.2 C 3.2 km/h
637 18-05-2020 05:00:00 6.2 C 6.55 g/m*3 6.2 C 1.6 km/h
638 18-05-2020 05:05:00 6.2 C 6.55 g/m*3 6.2 C 0 km/h
639 18-05-2020 05:10:00 6.2 C 6.55 g/m*3 6.2 C 0 km/h
640 18-05-2020 05:15:00 6.2 C 6.55 g/m*3 6.2 C 0 km/h
641 18-05-2020 05:20:00 6.1 C 6.5 g/m*3 6.1 C 0 km/h
642 18-05-2020 05:25:00 6.1 C 6.5 g/m*3 6.1 C 0 km/h
643 18-05-2020 05:30:00 6 C 6.46 g/m*3 6 C 0 km/h
644 18-05-2020 05:35:00 5.9 C 6.42 g/m*3 5.9 C 0 km/h
645 18-05-2020 05:40:00 5.9 C 6.42 g/m*3 5.9 C 3.2 km/h
646 18-05-2020 05:45:00 5.9 C 6.49 g/m*3 5.9 C 3.2 km/h
647 18-05-2020 05:50:00 5.9 C 6.49 g/m*3 5.9 C 0 km/h
648 18-05-2020 05:55:00 5.9 C 6.49 g/m*3 5.9 C 0 km/h
649 18-05-2020 06:00:00 5.9 C 6.49 g/m*3 5.9 C 0 km/h
650 18-05-2020 06:05:00 5.9 C 6.49 g/m*3 5.9 C 0 km/h
Sensor: Nr:Datum:Temp:Abs-Feuchte:Windchill:Wind:
Aussen-T/F 651 18-05-2020 06:10:00 5.9 C 6.49 g/m*3 5.9 C 0 km/h
652 18-05-2020 06:15:00 5.8 C 6.45 g/m*3 5.8 C 0 km/h
653 18-05-2020 06:20:00 5.8 C 6.52 g/m*3 5.8 C 0 km/h
654 18-05-2020 06:25:00 5.8 C 6.52 g/m*3 5.8 C 0 km/h
655 18-05-2020 06:30:00 5.9 C 6.56 g/m*3 5.9 C 0 km/h
656 18-05-2020 06:35:00 5.9 C 6.56 g/m*3 5.9 C 0 km/h
657 18-05-2020 06:40:00 5.9 C 6.56 g/m*3 5.9 C 0 km/h
658 18-05-2020 06:45:00 6 C 6.6 g/m*3 6 C 0 km/h
659 18-05-2020 06:50:00 6.1 C 6.72 g/m*3 6.1 C 0 km/h
660 18-05-2020 06:55:00 6.2 C 6.77 g/m*3 6.2 C 0 km/h
661 18-05-2020 07:00:00 6.2 C 6.77 g/m*3 6.2 C 0 km/h
662 18-05-2020 07:05:00 6.3 C 6.81 g/m*3 6.3 C 1.6 km/h
663 18-05-2020 07:10:00 6.4 C 6.85 g/m*3 6.4 C 0 km/h
664 18-05-2020 07:15:00 6.5 C 6.9 g/m*3 6.5 C 0 km/h
665 18-05-2020 07:20:00 6.6 C 6.95 g/m*3 6.6 C 0 km/h
666 18-05-2020 07:25:00 6.7 C 6.99 g/m*3 6.7 C 0 km/h
667 18-05-2020 07:30:00 6.7 C 6.99 g/m*3 6.7 C 0 km/h
668 18-05-2020 07:35:00 6.8 C 7.04 g/m*3 6.8 C 0 km/h
669 18-05-2020 07:40:00 6.9 C 7.08 g/m*3 6.9 C 0 km/h
670 18-05-2020 07:45:00 7 C 7.13 g/m*3 7 C 0 km/h
671 18-05-2020 07:50:00 7.1 C 7.18 g/m*3 7.1 C 0 km/h
672 18-05-2020 07:55:00 7.2 C 7.22 g/m*3 7.2 C 0 km/h
673 18-05-2020 08:00:00 7.3 C 7.27 g/m*3 7.3 C 0 km/h
674 18-05-2020 08:05:00 7.4 C 7.32 g/m*3 7.4 C 0 km/h
675 18-05-2020 08:10:00 7.6 C 7.41 g/m*3 7.6 C 0 km/h
Sensor: Nr:Datum:Temp:Abs-Feuchte:Windchill:Wind:
Aussen-T/F 676 18-05-2020 08:15:00 7.7 C 7.46 g/m*3 7.7 C 0 km/h
677 18-05-2020 08:20:00 7.8 C 7.51 g/m*3 7.8 C 0 km/h
678 18-05-2020 08:25:00 8 C 7.61 g/m*3 8 C 0 km/h
679 18-05-2020 08:30:00 8.2 C 7.7 g/m*3 8.2 C 0 km/h
680 18-05-2020 08:35:00 8.3 C 7.75 g/m*3 8.3 C 0 km/h
681 18-05-2020 08:40:00 8.5 C 7.85 g/m*3 8.5 C 0 km/h
682 18-05-2020 08:45:00 8.7 C 7.96 g/m*3 8.7 C 0 km/h
683 18-05-2020 08:50:00 8.9 C 8.06 g/m*3 8.9 C 0 km/h
684 18-05-2020 08:55:00 9.1 C 8.16 g/m*3 9.1 C 0 km/h
685 18-05-2020 09:00:00 9.3 C 8.18 g/m*3 9.3 C 0 km/h
686 18-05-2020 09:05:00 9.6 C 8.34 g/m*3 9.6 C 0 km/h
687 18-05-2020 09:10:00 9.7 C 8.3 g/m*3 9.7 C 0 km/h
688 18-05-2020 09:15:00 10 C 8.36 g/m*3 10 C 0 km/h
689 18-05-2020 09:20:00 10.3 C 8.43 g/m*3 10.3 C 0 km/h
690 18-05-2020 09:25:00 10.5 C 8.53 g/m*3 10.5 C 0 km/h
691 18-05-2020 09:30:00 10.7 C 8.55 g/m*3 10.7 C 0 km/h
692 18-05-2020 09:35:00 10.9 C 8.65 g/m*3 10.9 C 0 km/h
693 18-05-2020 09:40:00 11 C 8.61 g/m*3 11 C 0 km/h
694 18-05-2020 09:45:00 11.2 C 8.62 g/m*3 11.2 C 0 km/h
695 18-05-2020 09:50:00 11.4 C 8.72 g/m*3 11.4 C 0 km/h
696 18-05-2020 09:55:00 11.7 C 8.79 g/m*3 11.7 C 0 km/h
697 18-05-2020 10:00:00 11.9 C 9 g/m*3 11.9 C 0 km/h
698 18-05-2020 10:05:00 12.2 C 9.06 g/m*3 12.2 C 0 km/h
699 18-05-2020 10:10:00 12.3 C 9.12 g/m*3 12.3 C 0 km/h
700 18-05-2020 10:15:00 12.6 C 9.29 g/m*3 12.6 C 0 km/h
Sensor: Nr:Datum:Temp:Abs-Feuchte:Windchill:Wind:
Aussen-T/F 701 18-05-2020 10:20:00 12.9 C 9.35 g/m*3 12.9 C 0 km/h
702 18-05-2020 10:25:00 13.2 C 9.07 g/m*3 13.2 C 0 km/h
703 18-05-2020 10:30:00 13.8 C 9.06 g/m*3 13.8 C 4.8 km/h
704 18-05-2020 10:35:00 14.4 C 9.27 g/m*3 14.4 C 1.6 km/h
705 18-05-2020 10:40:00 15 C 8.98 g/m*3 15 C 1.6 km/h
706 18-05-2020 10:45:00 15.7 C 8.43 g/m*3 15.7 C 4.8 km/h
707 18-05-2020 10:50:00 16.4 C 8.1 g/m*3 16.4 C 4.8 km/h
708 18-05-2020 10:55:00 17.3 C 8.1 g/m*3 17.3 C 11.3 km/h
709 18-05-2020 11:00:00 17.9 C 8.09 g/m*3 17.9 C 6.4 km/h
710 18-05-2020 11:05:00 18.3 C 8.13 g/m*3 18.3 C 9.7 km/h
711 18-05-2020 11:10:00 18.5 C 7.91 g/m*3 18.5 C 8.1 km/h
712 18-05-2020 11:15:00 18.7 C 8.49 g/m*3 18.7 C 4.8 km/h
713 18-05-2020 11:20:00 18.7 C 8.33 g/m*3 18.7 C 3.2 km/h
714 18-05-2020 11:25:00 18.8 C 8.37 g/m*3 18.8 C 6.4 km/h
715 18-05-2020 11:30:00 19 C 8.15 g/m*3 19 C 11.3 km/h
716 18-05-2020 11:35:00 19.2 C 8.24 g/m*3 19.2 C 4.8 km/h
717 18-05-2020 11:40:00 19.3 C 8.46 g/m*3 19.3 C 4.8 km/h
718 18-05-2020 11:45:00 19.4 C 8.18 g/m*3 19.4 C 6.4 km/h
719 18-05-2020 11:50:00 19.6 C 8.27 g/m*3 19.6 C 9.7 km/h
720 18-05-2020 11:55:00 19.7 C 7.98 g/m*3 19.7 C 11.3 km/h
721 18-05-2020 12:00:00 19.7 C 8.32 g/m*3 19.7 C 12.9 km/h
722 18-05-2020 12:05:00 19.8 C 8.2 g/m*3 19.8 C 6.4 km/h
723 18-05-2020 12:10:00 19.9 C 8.25 g/m*3 19.9 C 9.7 km/h
724 18-05-2020 12:15:00 20.1 C 8.17 g/m*3 20.1 C 4.8 km/h
725 18-05-2020 12:20:00 20.2 C 8.22 g/m*3 20.2 C 8.1 km/h
Sensor: Nr:Datum:Temp:Abs-Feuchte:Windchill:Wind:
Aussen-T/F 726 18-05-2020 12:25:00 20.3 C 8.27 g/m*3 20.3 C 9.7 km/h
727 18-05-2020 12:30:00 20.3 C 8.27 g/m*3 20.3 C 12.9 km/h
728 18-05-2020 12:35:00 20.2 C 8.22 g/m*3 20.2 C 4.8 km/h
729 18-05-2020 12:40:00 20.3 C 8.44 g/m*3 20.3 C 4.8 km/h
730 18-05-2020 12:45:00 20.4 C 8.14 g/m*3 20.4 C 11.3 km/h
731 18-05-2020 12:50:00 20.7 C 8.1 g/m*3 20.7 C 11.3 km/h
732 18-05-2020 12:55:00 20.8 C 8.15 g/m*3 20.8 C 14.5 km/h
733 18-05-2020 13:00:00 20.9 C 8.01 g/m*3 20.9 C 14.5 km/h
734 18-05-2020 13:05:00 20.9 C 8.2 g/m*3 20.9 C 4.8 km/h
735 18-05-2020 13:10:00 20.9 C 8.01 g/m*3 20.9 C 12.9 km/h
736 18-05-2020 13:15:00 21.1 C 7.92 g/m*3 21.1 C 8.1 km/h
737 18-05-2020 13:20:00 21.2 C 8.15 g/m*3 21.2 C 6.4 km/h
738 18-05-2020 13:25:00 21.3 C 8.02 g/m*3 21.3 C 9.7 km/h
739 18-05-2020 13:30:00 21.4 C 8.06 g/m*3 21.4 C 4.8 km/h
740 18-05-2020 13:35:00 21.6 C 8.16 g/m*3 21.6 C 16.1 km/h
741 18-05-2020 13:40:00 21.7 C 8.2 g/m*3 21.7 C 11.3 km/h
742 18-05-2020 13:45:00 22.1 C 8.39 g/m*3 22.1 C 14.5 km/h
743 18-05-2020 13:50:00 22.2 C 8.25 g/m*3 22.2 C 14.5 km/h
744 18-05-2020 13:55:00 22.1 C 7.81 g/m*3 22.1 C 11.3 km/h
745 18-05-2020 14:00:00 22 C 8.35 g/m*3 22 C 6.4 km/h
746 18-05-2020 14:05:00 22.2 C 7.85 g/m*3 22.2 C 16.1 km/h
747 18-05-2020 14:10:00 22.4 C 8.14 g/m*3 22.4 C 11.3 km/h
748 18-05-2020 14:15:00 22.6 C 8.44 g/m*3 22.6 C 9.7 km/h
749 18-05-2020 14:20:00 22.8 C 7.92 g/m*3 22.8 C 11.3 km/h
750 18-05-2020 14:25:00 22.9 C 8.17 g/m*3 22.9 C 11.3 km/h
Sensor: Nr:Datum:Temp:Abs-Feuchte:Windchill:Wind:
Aussen-T/F 751 18-05-2020 14:30:00 22.8 C 8.13 g/m*3 22.8 C 9.7 km/h
752 18-05-2020 14:35:00 22.8 C 7.72 g/m*3 22.8 C 3.2 km/h
753 18-05-2020 14:40:00 23 C 8.22 g/m*3 23 C 11.3 km/h
754 18-05-2020 14:45:00 23.2 C 7.9 g/m*3 23.2 C 11.3 km/h
755 18-05-2020 14:50:00 23.4 C 8.41 g/m*3 23.4 C 6.4 km/h
756 18-05-2020 14:55:00 23.6 C 8.08 g/m*3 23.6 C 11.3 km/h
757 18-05-2020 15:00:00 23.8 C 7.96 g/m*3 23.8 C 12.9 km/h
758 18-05-2020 15:05:00 23.8 C 7.96 g/m*3 23.8 C 8.1 km/h
759 18-05-2020 15:10:00 23.7 C 8.13 g/m*3 23.7 C 4.8 km/h
760 18-05-2020 15:15:00 23.9 C 8 g/m*3 23.9 C 9.7 km/h
761 18-05-2020 15:20:00 24.2 C 8.36 g/m*3 24.2 C 17.7 km/h
762 18-05-2020 15:25:00 24.3 C 8.63 g/m*3 24.3 C 9.7 km/h
763 18-05-2020 15:30:00 24.4 C 8.23 g/m*3 24.4 C 8.1 km/h
764 18-05-2020 15:35:00 24.6 C 8.33 g/m*3 24.6 C 8.1 km/h
765 18-05-2020 15:40:00 24.9 C 8.47 g/m*3 24.9 C 9.7 km/h
766 18-05-2020 15:45:00 25.1 C 8.57 g/m*3 25.1 C 8.1 km/h
767 18-05-2020 15:50:00 25.2 C 8.38 g/m*3 25.2 C 9.7 km/h
768 18-05-2020 15:55:00 25.3 C 8.43 g/m*3 25.3 C 4.8 km/h
769 18-05-2020 16:00:00 25.1 C 8.33 g/m*3 25.1 C 9.7 km/h
770 18-05-2020 16:05:00 25.1 C 8.1 g/m*3 25.1 C 9.7 km/h
771 18-05-2020 16:10:00 24.9 C 8.24 g/m*3 24.9 C 9.7 km/h
772 18-05-2020 16:15:00 25.1 C 8.33 g/m*3 25.1 C 9.7 km/h
773 18-05-2020 16:20:00 25.5 C 8.29 g/m*3 25.5 C 12.9 km/h
774 18-05-2020 16:25:00 25.7 C 8.38 g/m*3 25.7 C 9.7 km/h
775 18-05-2020 16:30:00 25.8 C 8.43 g/m*3 25.8 C 9.7 km/h
Sensor: Nr:Datum:Temp:Abs-Feuchte:Windchill:Wind:
Aussen-T/F 776 18-05-2020 16:35:00 25.8 C 8.67 g/m*3 25.8 C 8.1 km/h
777 18-05-2020 16:40:00 26.2 C 8.62 g/m*3 26.2 C 12.9 km/h
778 18-05-2020 16:45:00 26.1 C 8.57 g/m*3 26.1 C 12.9 km/h
779 18-05-2020 16:50:00 25.9 C 8.23 g/m*3 25.9 C 6.4 km/h
780 18-05-2020 16:55:00 25.9 C 8.47 g/m*3 25.9 C 11.3 km/h
781 18-05-2020 17:00:00 25.9 C 8.23 g/m*3 25.9 C 9.7 km/h
782 18-05-2020 17:05:00 25.7 C 8.14 g/m*3 25.7 C 8.1 km/h
783 18-05-2020 17:10:00 25.8 C 8.67 g/m*3 25.8 C 6.4 km/h
784 18-05-2020 17:15:00 26 C 8.52 g/m*3 26 C 11.3 km/h
785 18-05-2020 17:20:00 26 C 8.52 g/m*3 26 C 11.3 km/h
786 18-05-2020 17:25:00 25.8 C 8.67 g/m*3 25.8 C 6.4 km/h
787 18-05-2020 17:30:00 25.9 C 8.72 g/m*3 25.9 C 12.9 km/h
788 18-05-2020 17:35:00 25.8 C 8.67 g/m*3 25.8 C 12.9 km/h
789 18-05-2020 17:40:00 25.9 C 8.96 g/m*3 25.9 C 6.4 km/h
790 18-05-2020 17:45:00 25.9 C 8.72 g/m*3 25.9 C 12.9 km/h
791 18-05-2020 17:50:00 25.8 C 8.91 g/m*3 25.8 C 8.1 km/h
792 18-05-2020 17:55:00 25.9 C 8.96 g/m*3 25.9 C 11.3 km/h
793 18-05-2020 18:00:00 26 C 9.01 g/m*3 26 C 9.7 km/h
794 18-05-2020 18:05:00 26.2 C 9.11 g/m*3 26.2 C 4.8 km/h
795 18-05-2020 18:10:00 26.1 C 9.06 g/m*3 26.1 C 9.7 km/h
796 18-05-2020 18:15:00 26 C 9.01 g/m*3 26 C 11.3 km/h
797 18-05-2020 18:20:00 26 C 9.01 g/m*3 26 C 11.3 km/h
798 18-05-2020 18:25:00 25.9 C 9.2 g/m*3 25.9 C 9.7 km/h
799 18-05-2020 18:30:00 25.9 C 9.2 g/m*3 25.9 C 9.7 km/h
800 18-05-2020 18:35:00 26.1 C 9.3 g/m*3 26.1 C 6.4 km/h
Sensor: Nr:Datum:Temp:Abs-Feuchte:Windchill:Wind:
Aussen-T/F 801 18-05-2020 18:40:00 26.2 C 9.35 g/m*3 26.2 C 9.7 km/h
802 18-05-2020 18:45:00 26.1 C 9.55 g/m*3 26.1 C 9.7 km/h
803 18-05-2020 18:50:00 26.1 C 9.55 g/m*3 26.1 C 6.4 km/h
804 18-05-2020 18:55:00 26 C 9.49 g/m*3 26 C 8.1 km/h
805 18-05-2020 19:00:00 25.9 C 9.44 g/m*3 25.9 C 9.7 km/h
806 18-05-2020 19:05:00 25.8 C 9.39 g/m*3 25.8 C 9.7 km/h
807 18-05-2020 19:10:00 25.6 C 9.28 g/m*3 25.6 C 9.7 km/h
808 18-05-2020 19:15:00 25.5 C 9.71 g/m*3 25.5 C 6.4 km/h
809 18-05-2020 19:20:00 25.1 C 9.49 g/m*3 25.1 C 11.3 km/h
810 18-05-2020 19:25:00 24.8 C 9.56 g/m*3 24.8 C 9.7 km/h
811 18-05-2020 19:30:00 24.6 C 9.68 g/m*3 24.6 C 8.1 km/h
812 18-05-2020 19:35:00 24.5 C 9.62 g/m*3 24.5 C 8.1 km/h
813 18-05-2020 19:40:00 24.3 C 9.74 g/m*3 24.3 C 8.1 km/h
814 18-05-2020 19:45:00 24.2 C 9.68 g/m*3 24.2 C 8.1 km/h
815 18-05-2020 19:50:00 24.1 C 9.85 g/m*3 24.1 C 4.8 km/h
816 18-05-2020 19:55:00 23.8 C 9.68 g/m*3 23.8 C 3.2 km/h
817 18-05-2020 20:00:00 23.7 C 9.84 g/m*3 23.7 C 6.4 km/h
818 18-05-2020 20:05:00 23.6 C 9.78 g/m*3 23.6 C 9.7 km/h
819 18-05-2020 20:10:00 23.4 C 9.88 g/m*3 23.4 C 4.8 km/h
820 18-05-2020 20:15:00 23.3 C 9.83 g/m*3 23.3 C 8.1 km/h
821 18-05-2020 20:20:00 23.2 C 9.98 g/m*3 23.2 C 4.8 km/h
822 18-05-2020 20:25:00 23 C 9.87 g/m*3 23 C 4.8 km/h
823 18-05-2020 20:30:00 22.8 C 9.75 g/m*3 22.8 C 6.4 km/h
824 18-05-2020 20:35:00 22.7 C 9.9 g/m*3 22.7 C 4.8 km/h
825 18-05-2020 20:40:00 22.6 C 9.84 g/m*3 22.6 C 6.4 km/h
Sensor: Nr:Datum:Temp:Abs-Feuchte:Windchill:Wind:
Aussen-T/F 826 18-05-2020 20:45:00 22.4 C 9.93 g/m*3 22.4 C 3.2 km/h
827 18-05-2020 20:50:00 22.2 C 10.21 g/m*3 22.2 C 1.6 km/h
828 18-05-2020 20:55:00 21.8 C 9.98 g/m*3 21.8 C 1.6 km/h
829 18-05-2020 21:00:00 21.3 C 10.25 g/m*3 21.3 C 4.8 km/h
830 18-05-2020 21:05:00 20.9 C 10.02 g/m*3 20.9 C 1.6 km/h
831 18-05-2020 21:10:00 20.6 C 10.02 g/m*3 20.6 C 0 km/h
832 18-05-2020 21:15:00 20.2 C 9.97 g/m*3 20.2 C 0 km/h
833 18-05-2020 21:20:00 19.8 C 9.91 g/m*3 19.8 C 4.8 km/h
834 18-05-2020 21:25:00 19.5 C 9.73 g/m*3 19.5 C 6.4 km/h
835 18-05-2020 21:30:00 19.2 C 9.89 g/m*3 19.2 C 3.2 km/h
836 18-05-2020 21:35:00 18.8 C 9.82 g/m*3 18.8 C 8.1 km/h
837 18-05-2020 21:40:00 18.6 C 9.71 g/m*3 18.6 C 6.4 km/h
838 18-05-2020 21:45:00 18.3 C 9.69 g/m*3 18.3 C 9.7 km/h
839 18-05-2020 21:50:00 18.1 C 9.73 g/m*3 18.1 C 6.4 km/h
840 18-05-2020 21:55:00 17.9 C 9.77 g/m*3 17.9 C 8.1 km/h
841 18-05-2020 22:00:00 17.7 C 9.66 g/m*3 17.7 C 6.4 km/h
842 18-05-2020 22:05:00 17.6 C 9.75 g/m*3 17.6 C 8.1 km/h
843 18-05-2020 22:10:00 17.4 C 9.63 g/m*3 17.4 C 8.1 km/h
844 18-05-2020 22:15:00 17.3 C 9.72 g/m*3 17.3 C 4.8 km/h
845 18-05-2020 22:20:00 17.2 C 9.67 g/m*3 17.2 C 6.4 km/h
846 18-05-2020 22:25:00 17.1 C 9.75 g/m*3 17.1 C 3.2 km/h
847 18-05-2020 22:30:00 17 C 9.69 g/m*3 17 C 6.4 km/h
848 18-05-2020 22:35:00 16.9 C 9.78 g/m*3 16.9 C 1.6 km/h
849 18-05-2020 22:40:00 16.8 C 9.87 g/m*3 16.8 C 3.2 km/h
850 18-05-2020 22:45:00 16.6 C 9.75 g/m*3 16.6 C 4.8 km/h
Sensor: Nr:Datum:Temp:Abs-Feuchte:Windchill:Wind:
Aussen-T/F 851 18-05-2020 22:50:00 16.4 C 9.77 g/m*3 16.4 C 8.1 km/h
852 18-05-2020 22:55:00 16.3 C 9.71 g/m*3 16.3 C 6.4 km/h
853 18-05-2020 23:00:00 16.2 C 9.79 g/m*3 16.2 C 6.4 km/h
854 18-05-2020 23:05:00 16.2 C 9.79 g/m*3 16.2 C 8.1 km/h
855 18-05-2020 23:10:00 16.1 C 9.73 g/m*3 16.1 C 6.4 km/h
856 18-05-2020 23:15:00 16 C 9.67 g/m*3 16 C 6.4 km/h
857 18-05-2020 23:20:00 15.9 C 9.75 g/m*3 15.9 C 4.8 km/h
858 18-05-2020 23:25:00 15.8 C 9.69 g/m*3 15.8 C 3.2 km/h
859 18-05-2020 23:30:00 15.7 C 9.77 g/m*3 15.7 C 3.2 km/h
860 18-05-2020 23:35:00 15.4 C 9.59 g/m*3 15.4 C 6.4 km/h
861 18-05-2020 23:40:00 15.3 C 9.53 g/m*3 15.3 C 6.4 km/h
862 18-05-2020 23:45:00 15.3 C 9.66 g/m*3 15.3 C 4.8 km/h
863 18-05-2020 23:50:00 15.2 C 9.61 g/m*3 15.2 C 1.6 km/h
864 18-05-2020 23:55:00 15.2 C 9.61 g/m*3 15.2 C 0 km/h
865 19-05-2020 00:00:00 15 C 9.62 g/m*3 15 C 1.6 km/h
866 19-05-2020 00:05:00 14.8 C 9.5 g/m*3 14.8 C 1.6 km/h
867 19-05-2020 00:10:00 14.6 C 9.51 g/m*3 14.6 C 0 km/h
868 19-05-2020 00:15:00 14.4 C 9.39 g/m*3 14.4 C 0 km/h
869 19-05-2020 00:20:00 14.1 C 9.22 g/m*3 14.1 C 0 km/h
870 19-05-2020 00:25:00 13.9 C 9.23 g/m*3 13.9 C 0 km/h
871 19-05-2020 00:30:00 13.7 C 9.24 g/m*3 13.7 C 0 km/h
872 19-05-2020 00:35:00 13.4 C 9.18 g/m*3 13.4 C 0 km/h
873 19-05-2020 00:40:00 13.3 C 9.13 g/m*3 13.3 C 0 km/h
874 19-05-2020 00:45:00 13.2 C 9.19 g/m*3 13.2 C 0 km/h
875 19-05-2020 00:50:00 13 C 9.07 g/m*3 13 C 0 km/h
Sensor: Nr:Datum:Temp:Abs-Feuchte:Windchill:Wind:
Aussen-T/F 876 19-05-2020 00:55:00 12.9 C 9.02 g/m*3 12.9 C 0 km/h
877 19-05-2020 01:00:00 12.7 C 9.02 g/m*3 12.7 C 1.6 km/h
878 19-05-2020 01:05:00 12.6 C 9.07 g/m*3 12.6 C 3.2 km/h
879 19-05-2020 01:10:00 12.4 C 8.96 g/m*3 12.4 C 1.6 km/h
880 19-05-2020 01:15:00 12.3 C 9.01 g/m*3 12.3 C 4.8 km/h
881 19-05-2020 01:20:00 12.2 C 8.96 g/m*3 12.2 C 0 km/h
882 19-05-2020 01:25:00 12.1 C 9.01 g/m*3 12.1 C 1.6 km/h
883 19-05-2020 01:30:00 12 C 8.95 g/m*3 12 C 0 km/h
884 19-05-2020 01:35:00 11.9 C 9 g/m*3 11.9 C 4.8 km/h
885 19-05-2020 01:40:00 11.9 C 9 g/m*3 11.9 C 3.2 km/h
886 19-05-2020 01:45:00 11.8 C 8.95 g/m*3 11.8 C 0 km/h
887 19-05-2020 01:50:00 11.6 C 8.83 g/m*3 11.6 C 3.2 km/h
888 19-05-2020 01:55:00 11.5 C 8.78 g/m*3 11.5 C 0 km/h
889 19-05-2020 02:00:00 11.5 C 8.78 g/m*3 11.5 C 4.8 km/h
890 19-05-2020 02:05:00 11.4 C 8.72 g/m*3 11.4 C 3.2 km/h
891 19-05-2020 02:10:00 11.3 C 8.57 g/m*3 11.3 C 0 km/h
892 19-05-2020 02:15:00 11.3 C 8.67 g/m*3 11.3 C 3.2 km/h
893 19-05-2020 02:20:00 11.2 C 8.62 g/m*3 11.2 C 0 km/h
894 19-05-2020 02:25:00 11.2 C 8.62 g/m*3 11.2 C 0 km/h
895 19-05-2020 02:30:00 11.1 C 8.56 g/m*3 11.1 C 0 km/h
896 19-05-2020 02:35:00 10.9 C 8.45 g/m*3 10.9 C 1.6 km/h
897 19-05-2020 02:40:00 10.8 C 8.4 g/m*3 10.8 C 0 km/h
898 19-05-2020 02:45:00 10.7 C 8.35 g/m*3 10.7 C 0 km/h
899 19-05-2020 02:50:00 10.6 C 8.3 g/m*3 10.6 C 0 km/h
900 19-05-2020 02:55:00 10.4 C 8.29 g/m*3 10.4 C 0 km/h
Sensor: Nr:Datum:Temp:Abs-Feuchte:Windchill:Wind:
Aussen-T/F 901 19-05-2020 03:00:00 10.4 C 8.29 g/m*3 10.4 C 0 km/h
902 19-05-2020 03:05:00 10.3 C 8.33 g/m*3 10.3 C 0 km/h
903 19-05-2020 03:10:00 10.2 C 8.28 g/m*3 10.2 C 0 km/h
904 19-05-2020 03:15:00 10.1 C 8.23 g/m*3 10.1 C 0 km/h
905 19-05-2020 03:20:00 9.9 C 8.12 g/m*3 9.9 C 0 km/h
906 19-05-2020 03:25:00 9.8 C 8.16 g/m*3 9.8 C 0 km/h
907 19-05-2020 03:30:00 9.7 C 8.11 g/m*3 9.7 C 0 km/h
908 19-05-2020 03:35:00 9.7 C 8.11 g/m*3 9.7 C 0 km/h
909 19-05-2020 03:40:00 9.6 C 8.15 g/m*3 9.6 C 0 km/h
910 19-05-2020 03:45:00 9.5 C 8.1 g/m*3 9.5 C 0 km/h
911 19-05-2020 03:50:00 9.4 C 8.05 g/m*3 9.4 C 0 km/h
912 19-05-2020 03:55:00 9.3 C 8 g/m*3 9.3 C 0 km/h
913 19-05-2020 04:00:00 9.2 C 7.95 g/m*3 9.2 C 0 km/h
914 19-05-2020 04:05:00 9.1 C 7.99 g/m*3 9.1 C 0 km/h
915 19-05-2020 04:10:00 9 C 7.93 g/m*3 9 C 1.6 km/h
916 19-05-2020 04:15:00 8.9 C 7.88 g/m*3 8.9 C 0 km/h
917 19-05-2020 04:20:00 8.9 C 7.88 g/m*3 8.9 C 0 km/h
918 19-05-2020 04:25:00 8.9 C 7.97 g/m*3 8.9 C 1.6 km/h
919 19-05-2020 04:30:00 8.8 C 7.92 g/m*3 8.8 C 3.2 km/h
920 19-05-2020 04:35:00 8.9 C 7.97 g/m*3 8.9 C 1.6 km/h
921 19-05-2020 04:40:00 8.8 C 7.92 g/m*3 8.8 C 4.8 km/h
922 19-05-2020 04:45:00 8.8 C 7.92 g/m*3 8.8 C 1.6 km/h
923 19-05-2020 04:50:00 8.7 C 7.87 g/m*3 8.7 C 0 km/h
924 19-05-2020 04:55:00 8.7 C 7.78 g/m*3 8.7 C 3.2 km/h
925 19-05-2020 05:00:00 8.7 C 7.78 g/m*3 8.7 C 1.6 km/h
Sensor: Nr:Datum:Temp:Abs-Feuchte:Windchill:Wind:
Aussen-T/F 926 19-05-2020 05:05:00 8.7 C 7.87 g/m*3 8.7 C 0 km/h
927 19-05-2020 05:10:00 8.6 C 7.73 g/m*3 8.6 C 0 km/h
928 19-05-2020 05:15:00 8.4 C 7.63 g/m*3 8.4 C 0 km/h
929 19-05-2020 05:20:00 8.3 C 7.59 g/m*3 8.3 C 0 km/h
930 19-05-2020 05:25:00 8.3 C 7.59 g/m*3 8.3 C 1.6 km/h
931 19-05-2020 05:30:00 8.2 C 7.62 g/m*3 8.2 C 3.2 km/h
932 19-05-2020 05:35:00 8.2 C 7.62 g/m*3 8.2 C 0 km/h
933 19-05-2020 05:40:00 8.1 C 7.57 g/m*3 8.1 C 0 km/h
934 19-05-2020 05:45:00 8.1 C 7.57 g/m*3 8.1 C 0 km/h
935 19-05-2020 05:50:00 8.1 C 7.57 g/m*3 8.1 C 0 km/h
936 19-05-2020 05:55:00 8.1 C 7.57 g/m*3 8.1 C 1.6 km/h
937 19-05-2020 06:00:00 8.1 C 7.57 g/m*3 8.1 C 0 km/h
938 19-05-2020 06:05:00 8 C 7.52 g/m*3 8 C 3.2 km/h
939 19-05-2020 06:10:00 8.1 C 7.66 g/m*3 8.1 C 0 km/h
940 19-05-2020 06:15:00 8.1 C 7.66 g/m*3 8.1 C 0 km/h
941 19-05-2020 06:20:00 8.2 C 7.7 g/m*3 8.2 C 1.6 km/h
942 19-05-2020 06:25:00 8.2 C 7.7 g/m*3 8.2 C 0 km/h
943 19-05-2020 06:30:00 8.2 C 7.62 g/m*3 8.2 C 0 km/h
944 19-05-2020 06:35:00 8.2 C 7.62 g/m*3 8.2 C 0 km/h
945 19-05-2020 06:40:00 8.1 C 7.57 g/m*3 8.1 C 0 km/h
946 19-05-2020 06:45:00 8.1 C 7.57 g/m*3 8.1 C 1.6 km/h
947 19-05-2020 06:50:00 8.1 C 7.57 g/m*3 8.1 C 0 km/h
948 19-05-2020 06:55:00 8.1 C 7.66 g/m*3 8.1 C 0 km/h
949 19-05-2020 07:00:00 8.1 C 7.66 g/m*3 8.1 C 1.6 km/h
950 19-05-2020 07:05:00 8.2 C 7.7 g/m*3 8.2 C 0 km/h
Sensor: Nr:Datum:Temp:Abs-Feuchte:Windchill:Wind:
Aussen-T/F 951 19-05-2020 07:10:00 8.2 C 7.7 g/m*3 8.2 C 0 km/h
952 19-05-2020 07:15:00 8.3 C 7.75 g/m*3 8.3 C 0 km/h
953 19-05-2020 07:20:00 8.3 C 7.75 g/m*3 8.3 C 0 km/h
954 19-05-2020 07:25:00 8.3 C 7.75 g/m*3 8.3 C 0 km/h
955 19-05-2020 07:30:00 8.3 C 7.75 g/m*3 8.3 C 0 km/h
956 19-05-2020 07:35:00 8.4 C 7.8 g/m*3 8.4 C 0 km/h
957 19-05-2020 07:40:00 8.4 C 7.8 g/m*3 8.4 C 0 km/h
958 19-05-2020 07:45:00 8.5 C 7.85 g/m*3 8.5 C 0 km/h
959 19-05-2020 07:50:00 8.6 C 7.91 g/m*3 8.6 C 0 km/h
960 19-05-2020 07:55:00 8.6 C 7.91 g/m*3 8.6 C 0 km/h
961 19-05-2020 08:00:00 8.7 C 7.96 g/m*3 8.7 C 3.2 km/h
962 19-05-2020 08:05:00 8.8 C 8.01 g/m*3 8.8 C 3.2 km/h
963 19-05-2020 08:10:00 8.8 C 8.01 g/m*3 8.8 C 0 km/h
964 19-05-2020 08:15:00 8.9 C 8.15 g/m*3 8.9 C 0 km/h
965 19-05-2020 08:20:00 9.1 C 8.25 g/m*3 9.1 C 0 km/h
966 19-05-2020 08:25:00 9.2 C 8.3 g/m*3 9.2 C 0 km/h
967 19-05-2020 08:30:00 9.3 C 8.36 g/m*3 9.3 C 0 km/h
968 19-05-2020 08:35:00 9.4 C 8.32 g/m*3 9.4 C 0 km/h
969 19-05-2020 08:40:00 9.6 C 8.43 g/m*3 9.6 C 0 km/h
970 19-05-2020 08:45:00 9.7 C 8.48 g/m*3 9.7 C 0 km/h
971 19-05-2020 08:50:00 9.9 C 8.59 g/m*3 9.9 C 0 km/h
972 19-05-2020 08:55:00 10.1 C 8.7 g/m*3 10.1 C 0 km/h
973 19-05-2020 09:00:00 10.2 C 8.76 g/m*3 10.2 C 0 km/h
974 19-05-2020 09:05:00 10.4 C 8.87 g/m*3 10.4 C 0 km/h
975 19-05-2020 09:10:00 10.7 C 9.04 g/m*3 10.7 C 0 km/h
Sensor: Nr:Datum:Temp:Abs-Feuchte:Windchill:Wind:
Aussen-T/F 976 19-05-2020 09:15:00 10.8 C 8.99 g/m*3 10.8 C 0 km/h
977 19-05-2020 09:20:00 11 C 9.11 g/m*3 11 C 0 km/h
978 19-05-2020 09:25:00 11.3 C 9.18 g/m*3 11.3 C 0 km/h
979 19-05-2020 09:30:00 11.6 C 9.25 g/m*3 11.6 C 0 km/h
980 19-05-2020 09:35:00 11.9 C 9.21 g/m*3 11.9 C 3.2 km/h
981 19-05-2020 09:40:00 12.2 C 9.17 g/m*3 12.2 C 1.6 km/h
982 19-05-2020 09:45:00 12.6 C 9.18 g/m*3 12.6 C 0 km/h
983 19-05-2020 09:50:00 12.9 C 9.24 g/m*3 12.9 C 0 km/h
984 19-05-2020 09:55:00 13.1 C 9.36 g/m*3 13.1 C 0 km/h
985 19-05-2020 10:00:00 13.2 C 9.19 g/m*3 13.2 C 0 km/h
986 19-05-2020 10:05:00 13.4 C 9.18 g/m*3 13.4 C 0 km/h
987 19-05-2020 10:10:00 13.6 C 8.83 g/m*3 13.6 C 0 km/h
988 19-05-2020 10:15:00 13.9 C 8.99 g/m*3 13.9 C 0 km/h
989 19-05-2020 10:20:00 14.3 C 8.97 g/m*3 14.3 C 0 km/h
990 19-05-2020 10:25:00 14.7 C 8.94 g/m*3 14.7 C 0 km/h
991 19-05-2020 10:30:00 15.1 C 8.64 g/m*3 15.1 C 3.2 km/h
992 19-05-2020 10:35:00 15.5 C 8.86 g/m*3 15.5 C 1.6 km/h
993 19-05-2020 10:40:00 15.9 C 8.4 g/m*3 15.9 C 1.6 km/h
994 19-05-2020 10:45:00 16.4 C 8.23 g/m*3 16.4 C 0 km/h
995 19-05-2020 10:50:00 16.8 C 8.01 g/m*3 16.8 C 4.8 km/h
996 19-05-2020 10:55:00 17.5 C 7.45 g/m*3 17.5 C 6.4 km/h
997 19-05-2020 11:00:00 18.1 C 7.88 g/m*3 18.1 C 1.6 km/h
998 19-05-2020 11:05:00 18.7 C 7.36 g/m*3 18.7 C 4.8 km/h
999 19-05-2020 11:10:00 19.1 C 7.54 g/m*3 19.1 C 6.4 km/h
1000 19-05-2020 11:15:00 19.4 C 7.84 g/m*3 19.4 C 4.8 km/h
Sensor: Nr:Datum:Temp:Abs-Feuchte:Windchill:Wind:
Aussen-T/F 1001 19-05-2020 11:20:00 19.7 C 7.47 g/m*3 19.7 C 4.8 km/h
1002 19-05-2020 11:25:00 19.8 C 8.03 g/m*3 19.8 C 0 km/h
1003 19-05-2020 11:30:00 19.8 C 7.86 g/m*3 19.8 C 1.6 km/h
1004 19-05-2020 11:35:00 19.8 C 7.52 g/m*3 19.8 C 3.2 km/h
1005 19-05-2020 11:40:00 19.8 C 7.69 g/m*3 19.8 C 3.2 km/h
1006 19-05-2020 11:45:00 19.9 C 7.56 g/m*3 19.9 C 6.4 km/h
1007 19-05-2020 11:50:00 20 C 7.43 g/m*3 20 C 8.1 km/h
1008 19-05-2020 11:55:00 20.1 C 7.47 g/m*3 20.1 C 3.2 km/h
1009 19-05-2020 12:00:00 20.1 C 7.65 g/m*3 20.1 C 1.6 km/h
1010 19-05-2020 12:05:00 20.1 C 6.95 g/m*3 20.1 C 4.8 km/h
1011 19-05-2020 12:10:00 20.2 C 6.99 g/m*3 20.2 C 6.4 km/h
1012 19-05-2020 12:15:00 20.2 C 7.17 g/m*3 20.2 C 1.6 km/h
1013 19-05-2020 12:20:00 20.2 C 7.17 g/m*3 20.2 C 3.2 km/h
1014 19-05-2020 12:25:00 20.3 C 7.03 g/m*3 20.3 C 1.6 km/h
1015 19-05-2020 12:30:00 20.4 C 7.08 g/m*3 20.4 C 4.8 km/h
1016 19-05-2020 12:35:00 20.4 C 7.43 g/m*3 20.4 C 1.6 km/h
1017 19-05-2020 12:40:00 20.4 C 7.25 g/m*3 20.4 C 1.6 km/h
1018 19-05-2020 12:45:00 20.4 C 6.72 g/m*3 20.4 C 6.4 km/h
1019 19-05-2020 12:50:00 20.6 C 6.62 g/m*3 20.6 C 4.8 km/h
1020 19-05-2020 12:55:00 20.8 C 7.42 g/m*3 20.8 C 1.6 km/h
1021 19-05-2020 13:00:00 20.9 C 7.29 g/m*3 20.9 C 4.8 km/h
1022 19-05-2020 13:05:00 21 C 6.78 g/m*3 21 C 3.2 km/h
1023 19-05-2020 13:10:00 21.2 C 7.23 g/m*3 21.2 C 9.7 km/h
1024 19-05-2020 13:15:00 21.4 C 6.94 g/m*3 21.4 C 9.7 km/h
1025 19-05-2020 13:20:00 21.7 C 7.25 g/m*3 21.7 C 9.7 km/h
Sensor: Nr:Datum:Temp:Abs-Feuchte:Windchill:Wind:
Aussen-T/F 1026 19-05-2020 13:25:00 21.8 C 7.1 g/m*3 21.8 C 12.9 km/h
1027 19-05-2020 13:30:00 22 C 7.18 g/m*3 22 C 8.1 km/h
1028 19-05-2020 13:35:00 22 C 7.38 g/m*3 22 C 6.4 km/h
1029 19-05-2020 13:40:00 22.1 C 7.42 g/m*3 22.1 C 12.9 km/h
1030 19-05-2020 13:45:00 22.2 C 7.07 g/m*3 22.2 C 12.9 km/h
1031 19-05-2020 13:50:00 22.3 C 7.11 g/m*3 22.3 C 14.5 km/h
1032 19-05-2020 13:55:00 22.4 C 7.15 g/m*3 22.4 C 9.7 km/h
1033 19-05-2020 14:00:00 22.4 C 7.55 g/m*3 22.4 C 4.8 km/h
1034 19-05-2020 14:05:00 22.6 C 7.43 g/m*3 22.6 C 11.3 km/h
1035 19-05-2020 14:10:00 23 C 7.4 g/m*3 23 C 12.9 km/h
1036 19-05-2020 14:15:00 23.1 C 7.44 g/m*3 23.1 C 12.9 km/h
1037 19-05-2020 14:20:00 23.1 C 7.44 g/m*3 23.1 C 12.9 km/h
1038 19-05-2020 14:25:00 23.3 C 7.53 g/m*3 23.3 C 14.5 km/h
1039 19-05-2020 14:30:00 23.3 C 7.53 g/m*3 23.3 C 11.3 km/h
1040 19-05-2020 14:35:00 23.4 C 7.78 g/m*3 23.4 C 12.9 km/h
1041 19-05-2020 14:40:00 23.5 C 7.61 g/m*3 23.5 C 11.3 km/h
1042 19-05-2020 14:45:00 23.6 C 8.08 g/m*3 23.6 C 9.7 km/h
1043 19-05-2020 14:50:00 23.7 C 8.13 g/m*3 23.7 C 11.3 km/h
1044 19-05-2020 14:55:00 23.7 C 8.34 g/m*3 23.7 C 11.3 km/h
1045 19-05-2020 15:00:00 23.9 C 8.65 g/m*3 23.9 C 9.7 km/h
1046 19-05-2020 15:05:00 24.2 C 8.58 g/m*3 24.2 C 14.5 km/h
1047 19-05-2020 15:10:00 24.2 C 8.58 g/m*3 24.2 C 16.1 km/h
1048 19-05-2020 15:15:00 24.3 C 8.63 g/m*3 24.3 C 9.7 km/h
1049 19-05-2020 15:20:00 24.3 C 8.41 g/m*3 24.3 C 12.9 km/h
1050 19-05-2020 15:25:00 24.3 C 8.63 g/m*3 24.3 C 14.5 km/h
Sensor: Nr:Datum:Temp:Abs-Feuchte:Windchill:Wind:
Aussen-T/F 1051 19-05-2020 15:30:00 24.3 C 8.19 g/m*3 24.3 C 11.3 km/h
1052 19-05-2020 15:35:00 24.1 C 8.53 g/m*3 24.1 C 9.7 km/h
1053 19-05-2020 15:40:00 24.1 C 8.53 g/m*3 24.1 C 9.7 km/h
1054 19-05-2020 15:45:00 24 C 8.7 g/m*3 24 C 11.3 km/h
1055 19-05-2020 15:50:00 23.9 C 8.65 g/m*3 23.9 C 9.7 km/h
1056 19-05-2020 15:55:00 23.8 C 8.82 g/m*3 23.8 C 11.3 km/h
1057 19-05-2020 16:00:00 24.1 C 8.97 g/m*3 24.1 C 9.7 km/h
1058 19-05-2020 16:05:00 24.4 C 9.12 g/m*3 24.4 C 16.1 km/h
1059 19-05-2020 16:10:00 24.5 C 8.95 g/m*3 24.5 C 12.9 km/h
1060 19-05-2020 16:15:00 24.5 C 8.95 g/m*3 24.5 C 11.3 km/h
1061 19-05-2020 16:20:00 24.6 C 9.23 g/m*3 24.6 C 19.3 km/h
1062 19-05-2020 16:25:00 25.1 C 9.26 g/m*3 25.1 C 12.9 km/h
1063 19-05-2020 16:30:00 25 C 8.98 g/m*3 25 C 14.5 km/h
1064 19-05-2020 16:35:00 24.7 C 9.05 g/m*3 24.7 C 17.7 km/h
1065 19-05-2020 16:40:00 24.8 C 9.1 g/m*3 24.8 C 16.1 km/h
1066 19-05-2020 16:45:00 24.7 C 9.05 g/m*3 24.7 C 14.5 km/h
1067 19-05-2020 16:50:00 24.6 C 9 g/m*3 24.6 C 16.1 km/h
1068 19-05-2020 16:55:00 24.4 C 9.12 g/m*3 24.4 C 16.1 km/h
1069 19-05-2020 17:00:00 24.6 C 9.45 g/m*3 24.6 C 14.5 km/h
1070 19-05-2020 17:05:00 24.8 C 9.56 g/m*3 24.8 C 16.1 km/h
1071 19-05-2020 17:10:00 25.1 C 9.26 g/m*3 25.1 C 17.7 km/h
1072 19-05-2020 17:15:00 25 C 9.44 g/m*3 25 C 11.3 km/h
1073 19-05-2020 17:20:00 25.1 C 9.72 g/m*3 25.1 C 11.3 km/h
1074 19-05-2020 17:25:00 25.5 C 9.71 g/m*3 25.5 C 12.9 km/h
1075 19-05-2020 17:30:00 25.8 C 9.87 g/m*3 25.8 C 11.3 km/h
Sensor: Nr:Datum:Temp:Abs-Feuchte:Windchill:Wind:
Aussen-T/F 1076 19-05-2020 17:35:00 25.7 C 9.58 g/m*3 25.7 C 12.9 km/h
1077 19-05-2020 17:40:00 25.5 C 9.71 g/m*3 25.5 C 11.3 km/h
1078 19-05-2020 17:45:00 25.5 C 9.71 g/m*3 25.5 C 14.5 km/h
1079 19-05-2020 17:50:00 25.3 C 9.6 g/m*3 25.3 C 17.7 km/h
1080 19-05-2020 17:55:00 25.3 C 9.83 g/m*3 25.3 C 12.9 km/h
1081 19-05-2020 18:00:00 25.4 C 9.65 g/m*3 25.4 C 14.5 km/h
1082 19-05-2020 18:05:00 25.5 C 9.71 g/m*3 25.5 C 11.3 km/h
1083 19-05-2020 18:10:00 25.5 C 9.71 g/m*3 25.5 C 14.5 km/h
1084 19-05-2020 18:15:00 25.5 C 9.71 g/m*3 25.5 C 14.5 km/h
1085 19-05-2020 18:20:00 25.4 C 9.65 g/m*3 25.4 C 14.5 km/h
1086 19-05-2020 18:25:00 25.5 C 9.94 g/m*3 25.5 C 12.9 km/h
1087 19-05-2020 18:30:00 25.4 C 9.89 g/m*3 25.4 C 12.9 km/h
1088 19-05-2020 18:35:00 25.4 C 9.89 g/m*3 25.4 C 12.9 km/h
1089 19-05-2020 18:40:00 25.4 C 9.89 g/m*3 25.4 C 11.3 km/h
1090 19-05-2020 18:45:00 25.4 C 9.89 g/m*3 25.4 C 9.7 km/h
1091 19-05-2020 18:50:00 25.5 C 9.94 g/m*3 25.5 C 11.3 km/h
1092 19-05-2020 18:55:00 25.3 C 9.83 g/m*3 25.3 C 16.1 km/h
1093 19-05-2020 19:00:00 25.2 C 10.01 g/m*3 25.2 C 8.1 km/h
1094 19-05-2020 19:05:00 25.2 C 10.01 g/m*3 25.2 C 8.1 km/h
1095 19-05-2020 19:10:00 25 C 9.9 g/m*3 25 C 9.7 km/h
1096 19-05-2020 19:15:00 24.8 C 10.24 g/m*3 24.8 C 9.7 km/h
1097 19-05-2020 19:20:00 24.6 C 9.9 g/m*3 24.6 C 9.7 km/h
1098 19-05-2020 19:25:00 24.4 C 10.24 g/m*3 24.4 C 8.1 km/h
1099 19-05-2020 19:30:00 24.3 C 10.18 g/m*3 24.3 C 11.3 km/h
1100 19-05-2020 19:35:00 24.1 C 10.28 g/m*3 24.1 C 11.3 km/h
Sensor: Nr:Datum:Temp:Abs-Feuchte:Windchill:Wind:
Aussen-T/F 1101 19-05-2020 19:40:00 23.9 C 10.17 g/m*3 23.9 C 11.3 km/h
1102 19-05-2020 19:45:00 23.7 C 10.05 g/m*3 23.7 C 11.3 km/h
1103 19-05-2020 19:50:00 23.6 C 10.21 g/m*3 23.6 C 9.7 km/h
1104 19-05-2020 19:55:00 23.4 C 10.09 g/m*3 23.4 C 9.7 km/h
1105 19-05-2020 20:00:00 23.3 C 10.04 g/m*3 23.3 C 8.1 km/h
1106 19-05-2020 20:05:00 23.1 C 10.13 g/m*3 23.1 C 8.1 km/h
1107 19-05-2020 20:10:00 22.8 C 10.16 g/m*3 22.8 C 6.4 km/h
1108 19-05-2020 20:15:00 22.5 C 9.99 g/m*3 22.5 C 11.3 km/h
1109 19-05-2020 20:20:00 22.4 C 10.53 g/m*3 22.4 C 6.4 km/h
1110 19-05-2020 20:25:00 21.9 C 11.19 g/m*3 21.9 C 4.8 km/h
1111 19-05-2020 20:30:00 21.3 C 10.81 g/m*3 21.3 C 1.6 km/h
1112 19-05-2020 20:35:00 20.9 C 10.38 g/m*3 20.9 C 4.8 km/h
1113 19-05-2020 20:40:00 20.8 C 10.32 g/m*3 20.8 C 6.4 km/h
1114 19-05-2020 20:45:00 20.8 C 10.5 g/m*3 20.8 C 3.2 km/h
1115 19-05-2020 20:50:00 20.8 C 10.32 g/m*3 20.8 C 4.8 km/h
1116 19-05-2020 20:55:00 20.9 C 10.75 g/m*3 20.9 C 3.2 km/h
1117 19-05-2020 21:00:00 20.8 C 10.86 g/m*3 20.8 C 1.6 km/h
1118 19-05-2020 21:05:00 20.7 C 10.98 g/m*3 20.7 C 0 km/h
1119 19-05-2020 21:10:00 20.3 C 10.73 g/m*3 20.3 C 1.6 km/h
1120 19-05-2020 21:15:00 20 C 10.54 g/m*3 20 C 1.6 km/h
1121 19-05-2020 21:20:00 19.7 C 10.53 g/m*3 19.7 C 1.6 km/h
1122 19-05-2020 21:25:00 19.3 C 10.45 g/m*3 19.3 C 0 km/h
1123 19-05-2020 21:30:00 18.9 C 10.37 g/m*3 18.9 C 3.2 km/h
1124 19-05-2020 21:35:00 18.7 C 10.41 g/m*3 18.7 C 0 km/h
1125 19-05-2020 21:40:00 18.4 C 10.38 g/m*3 18.4 C 1.6 km/h
Sensor: Nr:Datum:Temp:Abs-Feuchte:Windchill:Wind:
Aussen-T/F 1126 19-05-2020 21:45:00 18.2 C 10.41 g/m*3 18.2 C 4.8 km/h
1127 19-05-2020 21:50:00 17.9 C 10.23 g/m*3 17.9 C 6.4 km/h
1128 19-05-2020 21:55:00 17.8 C 10.32 g/m*3 17.8 C 6.4 km/h
1129 19-05-2020 22:00:00 17.6 C 10.2 g/m*3 17.6 C 6.4 km/h
1130 19-05-2020 22:05:00 17.4 C 10.23 g/m*3 17.4 C 4.8 km/h
1131 19-05-2020 22:10:00 17.3 C 10.31 g/m*3 17.3 C 4.8 km/h
1132 19-05-2020 22:15:00 17.2 C 10.25 g/m*3 17.2 C 4.8 km/h
1133 19-05-2020 22:20:00 17.1 C 10.19 g/m*3 17.1 C 3.2 km/h
1134 19-05-2020 22:25:00 17.1 C 10.34 g/m*3 17.1 C 4.8 km/h
1135 19-05-2020 22:30:00 16.9 C 10.07 g/m*3 16.9 C 4.8 km/h
1136 19-05-2020 22:35:00 16.9 C 10.21 g/m*3 16.9 C 1.6 km/h
1137 19-05-2020 22:40:00 16.8 C 10.29 g/m*3 16.8 C 3.2 km/h
1138 19-05-2020 22:45:00 16.7 C 10.23 g/m*3 16.7 C 4.8 km/h
1139 19-05-2020 22:50:00 16.6 C 10.31 g/m*3 16.6 C 3.2 km/h
1140 19-05-2020 22:55:00 16.4 C 10.19 g/m*3 16.4 C 3.2 km/h
1141 19-05-2020 23:00:00 16.3 C 10.27 g/m*3 16.3 C 4.8 km/h
1142 19-05-2020 23:05:00 16.1 C 10.28 g/m*3 16.1 C 1.6 km/h
1143 19-05-2020 23:10:00 15.9 C 10.16 g/m*3 15.9 C 3.2 km/h
1144 19-05-2020 23:15:00 15.8 C 10.23 g/m*3 15.8 C 0 km/h
1145 19-05-2020 23:20:00 15.7 C 10.17 g/m*3 15.7 C 0 km/h
1146 19-05-2020 23:25:00 15.6 C 10.24 g/m*3 15.6 C 0 km/h
1147 19-05-2020 23:30:00 15.5 C 10.18 g/m*3 15.5 C 0 km/h
1148 19-05-2020 23:35:00 15.4 C 10.12 g/m*3 15.4 C 0 km/h
1149 19-05-2020 23:40:00 15.3 C 10.19 g/m*3 15.3 C 0 km/h
1150 19-05-2020 23:45:00 15.2 C 10.12 g/m*3 15.2 C 0 km/h
Sensor: Nr:Datum:Temp:Abs-Feuchte:Windchill:Wind:
Aussen-T/F 1151 19-05-2020 23:50:00 15.1 C 10.19 g/m*3 15.1 C 0 km/h
1152 19-05-2020 23:55:00 15.1 C 10.32 g/m*3 15.1 C 0 km/h
1153 20-05-2020 00:00:00 15.1 C 10.45 g/m*3 15.1 C 0 km/h
1154 20-05-2020 00:05:00 15.1 C 10.45 g/m*3 15.1 C 0 km/h
1155 20-05-2020 00:10:00 15.1 C 10.45 g/m*3 15.1 C 0 km/h
1156 20-05-2020 00:15:00 15.1 C 10.45 g/m*3 15.1 C 0 km/h
1157 20-05-2020 00:20:00 15.1 C 10.45 g/m*3 15.1 C 0 km/h
1158 20-05-2020 00:25:00 15.1 C 10.45 g/m*3 15.1 C 0 km/h
1159 20-05-2020 00:30:00 15.1 C 10.45 g/m*3 15.1 C 0 km/h
1160 20-05-2020 00:35:00 14.9 C 10.32 g/m*3 14.9 C 0 km/h
1161 20-05-2020 00:40:00 14.8 C 10.13 g/m*3 14.8 C 0 km/h
1162 20-05-2020 00:45:00 14.7 C 10.2 g/m*3 14.7 C 0 km/h
1163 20-05-2020 00:50:00 14.5 C 10.07 g/m*3 14.5 C 0 km/h
1164 20-05-2020 00:55:00 14.3 C 9.95 g/m*3 14.3 C 0 km/h
1165 20-05-2020 01:00:00 14.2 C 10.01 g/m*3 14.2 C 0 km/h
1166 20-05-2020 01:05:00 14.1 C 10.07 g/m*3 14.1 C 0 km/h
1167 20-05-2020 01:10:00 13.9 C 9.95 g/m*3 13.9 C 0 km/h
1168 20-05-2020 01:15:00 13.9 C 9.95 g/m*3 13.9 C 0 km/h
1169 20-05-2020 01:20:00 13.8 C 9.89 g/m*3 13.8 C 0 km/h
1170 20-05-2020 01:25:00 13.7 C 9.95 g/m*3 13.7 C 0 km/h
1171 20-05-2020 01:30:00 13.6 C 9.89 g/m*3 13.6 C 0 km/h
1172 20-05-2020 01:35:00 13.5 C 9.83 g/m*3 13.5 C 0 km/h
1173 20-05-2020 01:40:00 13.4 C 9.88 g/m*3 13.4 C 0 km/h
1174 20-05-2020 01:45:00 13.3 C 9.82 g/m*3 13.3 C 0 km/h
1175 20-05-2020 01:50:00 13.3 C 9.82 g/m*3 13.3 C 0 km/h
Sensor: Nr:Datum:Temp:Abs-Feuchte:Windchill:Wind:
Aussen-T/F 1176 20-05-2020 01:55:00 13.2 C 9.76 g/m*3 13.2 C 0 km/h
1177 20-05-2020 02:00:00 13.1 C 9.7 g/m*3 13.1 C 0 km/h
1178 20-05-2020 02:05:00 13 C 9.75 g/m*3 13 C 0 km/h
1179 20-05-2020 02:10:00 12.9 C 9.69 g/m*3 12.9 C 0 km/h
1180 20-05-2020 02:15:00 12.9 C 9.81 g/m*3 12.9 C 0 km/h
1181 20-05-2020 02:20:00 12.8 C 9.74 g/m*3 12.8 C 0 km/h
1182 20-05-2020 02:25:00 12.8 C 9.74 g/m*3 12.8 C 0 km/h
1183 20-05-2020 02:30:00 12.8 C 9.74 g/m*3 12.8 C 0 km/h
1184 20-05-2020 02:35:00 12.8 C 9.74 g/m*3 12.8 C 1.6 km/h
1185 20-05-2020 02:40:00 12.8 C 9.74 g/m*3 12.8 C 0 km/h
1186 20-05-2020 02:45:00 12.7 C 9.68 g/m*3 12.7 C 0 km/h
1187 20-05-2020 02:50:00 12.7 C 9.68 g/m*3 12.7 C 3.2 km/h
1188 20-05-2020 02:55:00 12.6 C 9.74 g/m*3 12.6 C 0 km/h
1189 20-05-2020 03:00:00 12.6 C 9.74 g/m*3 12.6 C 0 km/h
1190 20-05-2020 03:05:00 12.5 C 9.68 g/m*3 12.5 C 0 km/h
1191 20-05-2020 03:10:00 12.4 C 9.62 g/m*3 12.4 C 0 km/h
1192 20-05-2020 03:15:00 12.3 C 9.56 g/m*3 12.3 C 0 km/h
1193 20-05-2020 03:20:00 12.3 C 9.56 g/m*3 12.3 C 0 km/h
1194 20-05-2020 03:25:00 12.2 C 9.6 g/m*3 12.2 C 0 km/h
1195 20-05-2020 03:30:00 12.2 C 9.6 g/m*3 12.2 C 4.8 km/h
1196 20-05-2020 03:35:00 12.2 C 9.6 g/m*3 12.2 C 1.6 km/h
1197 20-05-2020 03:40:00 12.1 C 9.54 g/m*3 12.1 C 0 km/h
1198 20-05-2020 03:45:00 12.1 C 9.54 g/m*3 12.1 C 1.6 km/h
1199 20-05-2020 03:50:00 12.1 C 9.65 g/m*3 12.1 C 3.2 km/h
1200 20-05-2020 03:55:00 12.1 C 9.65 g/m*3 12.1 C 8.1 km/h
Sensor: Nr:Datum:Temp:Abs-Feuchte:Windchill:Wind:
Aussen-T/F 1201 20-05-2020 04:00:00 12.1 C 9.65 g/m*3 12.1 C 3.2 km/h
1202 20-05-2020 04:05:00 12.1 C 9.65 g/m*3 12.1 C 0 km/h
1203 20-05-2020 04:10:00 12.1 C 9.65 g/m*3 12.1 C 0 km/h
1204 20-05-2020 04:15:00 12 C 9.59 g/m*3 12 C 0 km/h
1205 20-05-2020 04:20:00 11.9 C 9.53 g/m*3 11.9 C 0 km/h
1206 20-05-2020 04:25:00 11.8 C 9.47 g/m*3 11.8 C 1.6 km/h
1207 20-05-2020 04:30:00 11.8 C 9.58 g/m*3 11.8 C 8.1 km/h
1208 20-05-2020 04:35:00 11.9 C 9.64 g/m*3 11.9 C 8.1 km/h
1209 20-05-2020 04:40:00 11.9 C 9.64 g/m*3 11.9 C 3.2 km/h
1210 20-05-2020 04:45:00 11.9 C 9.64 g/m*3 11.9 C 3.2 km/h
1211 20-05-2020 04:50:00 11.8 C 9.47 g/m*3 11.8 C 0 km/h
1212 20-05-2020 04:55:00 11.7 C 9.41 g/m*3 11.7 C 0 km/h
1213 20-05-2020 05:00:00 11.6 C 9.35 g/m*3 11.6 C 0 km/h
1214 20-05-2020 05:05:00 11.4 C 9.24 g/m*3 11.4 C 0 km/h
1215 20-05-2020 05:10:00 11.3 C 9.28 g/m*3 11.3 C 0 km/h
1216 20-05-2020 05:15:00 11.3 C 9.28 g/m*3 11.3 C 1.6 km/h
1217 20-05-2020 05:20:00 11.3 C 9.28 g/m*3 11.3 C 0 km/h
1218 20-05-2020 05:25:00 11.2 C 9.22 g/m*3 11.2 C 0 km/h
1219 20-05-2020 05:30:00 11.2 C 9.22 g/m*3 11.2 C 0 km/h
1220 20-05-2020 05:35:00 11.2 C 9.33 g/m*3 11.2 C 0 km/h
1221 20-05-2020 05:40:00 11.2 C 9.33 g/m*3 11.2 C 0 km/h
1222 20-05-2020 05:45:00 11.3 C 9.38 g/m*3 11.3 C 0 km/h
1223 20-05-2020 05:50:00 11.3 C 9.38 g/m*3 11.3 C 0 km/h
1224 20-05-2020 05:55:00 11.3 C 9.38 g/m*3 11.3 C 1.6 km/h
1225 20-05-2020 06:00:00 11.3 C 9.38 g/m*3 11.3 C 1.6 km/h
Sensor: Nr:Datum:Temp:Abs-Feuchte:Windchill:Wind:
Aussen-T/F 1226 20-05-2020 06:05:00 11.4 C 9.44 g/m*3 11.4 C 0 km/h
1227 20-05-2020 06:10:00 11.4 C 9.44 g/m*3 11.4 C 0 km/h
1228 20-05-2020 06:15:00 11.4 C 9.44 g/m*3 11.4 C 0 km/h
1229 20-05-2020 06:20:00 11.4 C 9.44 g/m*3 11.4 C 0 km/h
1230 20-05-2020 06:25:00 11.4 C 9.44 g/m*3 11.4 C 0 km/h
1231 20-05-2020 06:30:00 11.4 C 9.44 g/m*3 11.4 C 0 km/h
1232 20-05-2020 06:35:00 11.4 C 9.44 g/m*3 11.4 C 0 km/h
1233 20-05-2020 06:40:00 11.5 C 9.61 g/m*3 11.5 C 0 km/h
1234 20-05-2020 06:45:00 11.6 C 9.67 g/m*3 11.6 C 0 km/h
1235 20-05-2020 06:50:00 11.6 C 9.56 g/m*3 11.6 C 0 km/h
1236 20-05-2020 06:55:00 11.6 C 9.56 g/m*3 11.6 C 0 km/h
1237 20-05-2020 07:00:00 11.6 C 9.56 g/m*3 11.6 C 0 km/h
1238 20-05-2020 07:05:00 11.6 C 9.56 g/m*3 11.6 C 0 km/h
1239 20-05-2020 07:10:00 11.6 C 9.56 g/m*3 11.6 C 1.6 km/h
1240 20-05-2020 07:15:00 11.7 C 9.73 g/m*3 11.7 C 0 km/h
1241 20-05-2020 07:20:00 11.7 C 9.73 g/m*3 11.7 C 4.8 km/h
1242 20-05-2020 07:25:00 11.8 C 9.79 g/m*3 11.8 C 0 km/h
1243 20-05-2020 07:30:00 11.8 C 9.79 g/m*3 11.8 C 4.8 km/h
1244 20-05-2020 07:35:00 12 C 9.91 g/m*3 12 C 3.2 km/h
1245 20-05-2020 07:40:00 12.2 C 10.04 g/m*3 12.2 C 3.2 km/h
1246 20-05-2020 07:45:00 12.3 C 10.21 g/m*3 12.3 C 1.6 km/h
1247 20-05-2020 07:50:00 12.6 C 10.4 g/m*3 12.6 C 1.6 km/h
1248 20-05-2020 07:55:00 12.8 C 10.42 g/m*3 12.8 C 6.4 km/h
1249 20-05-2020 08:00:00 13.1 C 10.61 g/m*3 13.1 C 3.2 km/h
1250 20-05-2020 08:05:00 13.2 C 10.68 g/m*3 13.2 C 0 km/h
Sensor: Nr:Datum:Temp:Abs-Feuchte:Windchill:Wind:
Aussen-T/F 1251 20-05-2020 08:10:00 13.4 C 10.81 g/m*3 13.4 C 9.7 km/h
1252 20-05-2020 08:15:00 13.8 C 10.84 g/m*3 13.8 C 9.7 km/h
1253 20-05-2020 08:20:00 14.3 C 10.93 g/m*3 14.3 C 6.4 km/h
1254 20-05-2020 08:25:00 14.7 C 10.95 g/m*3 14.7 C 6.4 km/h
1255 20-05-2020 08:30:00 15.2 C 11.03 g/m*3 15.2 C 9.7 km/h
1256 20-05-2020 08:35:00 15.6 C 11.17 g/m*3 15.6 C 9.7 km/h
1257 20-05-2020 08:40:00 15.8 C 11.17 g/m*3 15.8 C 6.4 km/h
1258 20-05-2020 08:45:00 15.9 C 11.1 g/m*3 15.9 C 9.7 km/h
1259 20-05-2020 08:50:00 16.1 C 11.1 g/m*3 16.1 C 6.4 km/h
1260 20-05-2020 08:55:00 16.3 C 11.24 g/m*3 16.3 C 9.7 km/h
1261 20-05-2020 09:00:00 16.4 C 11.17 g/m*3 16.4 C 8.1 km/h
1262 20-05-2020 09:05:00 16.5 C 11.23 g/m*3 16.5 C 9.7 km/h
1263 20-05-2020 09:10:00 16.6 C 11.16 g/m*3 16.6 C 8.1 km/h
1264 20-05-2020 09:15:00 16.7 C 11.23 g/m*3 16.7 C 6.4 km/h
1265 20-05-2020 09:20:00 16.8 C 11.29 g/m*3 16.8 C 9.7 km/h
1266 20-05-2020 09:25:00 16.9 C 11.22 g/m*3 16.9 C 12.9 km/h
1267 20-05-2020 09:30:00 17.1 C 11.35 g/m*3 17.1 C 6.4 km/h
1268 20-05-2020 09:35:00 17.1 C 11.21 g/m*3 17.1 C 8.1 km/h
1269 20-05-2020 09:40:00 17.2 C 11.28 g/m*3 17.2 C 4.8 km/h
1270 20-05-2020 09:45:00 17.3 C 11.34 g/m*3 17.3 C 4.8 km/h
1271 20-05-2020 09:50:00 17.4 C 11.26 g/m*3 17.4 C 11.3 km/h
1272 20-05-2020 09:55:00 17.6 C 11.25 g/m*3 17.6 C 9.7 km/h
1273 20-05-2020 10:00:00 17.7 C 11.32 g/m*3 17.7 C 9.7 km/h
1274 20-05-2020 10:05:00 17.8 C 11.23 g/m*3 17.8 C 14.5 km/h
1275 20-05-2020 10:10:00 18 C 11.37 g/m*3 18 C 8.1 km/h
Sensor: Nr:Datum:Temp:Abs-Feuchte:Windchill:Wind:
Aussen-T/F 1276 20-05-2020 10:15:00 18.3 C 11.57 g/m*3 18.3 C 8.1 km/h
1277 20-05-2020 10:20:00 18.5 C 11.39 g/m*3 18.5 C 8.1 km/h
1278 20-05-2020 10:25:00 18.6 C 11.3 g/m*3 18.6 C 8.1 km/h
1279 20-05-2020 10:30:00 18.8 C 11.43 g/m*3 18.8 C 8.1 km/h
1280 20-05-2020 10:35:00 18.9 C 11.5 g/m*3 18.9 C 8.1 km/h
1281 20-05-2020 10:40:00 19 C 11.57 g/m*3 19 C 9.7 km/h
1282 20-05-2020 10:45:00 19.2 C 11.71 g/m*3 19.2 C 6.4 km/h
1283 20-05-2020 10:50:00 19.2 C 11.54 g/m*3 19.2 C 6.4 km/h
1284 20-05-2020 10:55:00 19.3 C 11.61 g/m*3 19.3 C 11.3 km/h
1285 20-05-2020 11:00:00 19.4 C 11.51 g/m*3 19.4 C 9.7 km/h
1286 20-05-2020 11:05:00 19.4 C 11.35 g/m*3 19.4 C 6.4 km/h
1287 20-05-2020 11:10:00 19.6 C 11.48 g/m*3 19.6 C 9.7 km/h
1288 20-05-2020 11:15:00 19.7 C 11.55 g/m*3 19.7 C 12.9 km/h
1289 20-05-2020 11:20:00 19.7 C 11.55 g/m*3 19.7 C 9.7 km/h
1290 20-05-2020 11:25:00 19.7 C 11.38 g/m*3 19.7 C 9.7 km/h
1291 20-05-2020 11:30:00 19.7 C 11.55 g/m*3 19.7 C 8.1 km/h
1292 20-05-2020 11:35:00 19.6 C 11.48 g/m*3 19.6 C 14.5 km/h
1293 20-05-2020 11:40:00 19.6 C 11.48 g/m*3 19.6 C 11.3 km/h
1294 20-05-2020 11:45:00 19.6 C 11.48 g/m*3 19.6 C 11.3 km/h
1295 20-05-2020 11:50:00 19.6 C 11.65 g/m*3 19.6 C 9.7 km/h
1296 20-05-2020 11:55:00 19.7 C 11.55 g/m*3 19.7 C 9.7 km/h
1297 20-05-2020 12:00:00 19.8 C 11.44 g/m*3 19.8 C 9.7 km/h
1298 20-05-2020 12:05:00 19.9 C 11.51 g/m*3 19.9 C 4.8 km/h
1299 20-05-2020 12:10:00 20.1 C 11.47 g/m*3 20.1 C 8.1 km/h
1300 20-05-2020 12:15:00 20.1 C 11.65 g/m*3 20.1 C 11.3 km/h
Sensor: Nr:Datum:Temp:Abs-Feuchte:Windchill:Wind:
Aussen-T/F 1301 20-05-2020 12:20:00 20.2 C 11.71 g/m*3 20.2 C 4.8 km/h
1302 20-05-2020 12:25:00 20.3 C 11.43 g/m*3 20.3 C 14.5 km/h
1303 20-05-2020 12:30:00 20.3 C 11.61 g/m*3 20.3 C 9.7 km/h
1304 20-05-2020 12:35:00 20.2 C 11.54 g/m*3 20.2 C 6.4 km/h
1305 20-05-2020 12:40:00 20.3 C 11.43 g/m*3 20.3 C 9.7 km/h
1306 20-05-2020 12:45:00 20.5 C 11.57 g/m*3 20.5 C 12.9 km/h
1307 20-05-2020 12:50:00 20.6 C 11.45 g/m*3 20.6 C 11.3 km/h
1308 20-05-2020 12:55:00 20.7 C 11.52 g/m*3 20.7 C 14.5 km/h
1309 20-05-2020 13:00:00 20.8 C 11.59 g/m*3 20.8 C 9.7 km/h
1310 20-05-2020 13:05:00 21.1 C 11.79 g/m*3 21.1 C 12.9 km/h
1311 20-05-2020 13:10:00 21 C 11.36 g/m*3 21 C 11.3 km/h
1312 20-05-2020 13:15:00 20.9 C 11.47 g/m*3 20.9 C 8.1 km/h
1313 20-05-2020 13:20:00 21.1 C 11.42 g/m*3 21.1 C 14.5 km/h
1314 20-05-2020 13:25:00 21.2 C 11.49 g/m*3 21.2 C 6.4 km/h
1315 20-05-2020 13:30:00 21.3 C 11.56 g/m*3 21.3 C 9.7 km/h
1316 20-05-2020 13:35:00 21.3 C 11.37 g/m*3 21.3 C 12.9 km/h
1317 20-05-2020 13:40:00 21.2 C 11.3 g/m*3 21.2 C 9.7 km/h
1318 20-05-2020 13:45:00 21.2 C 11.12 g/m*3 21.2 C 14.5 km/h
1319 20-05-2020 13:50:00 21.3 C 11.37 g/m*3 21.3 C 14.5 km/h
1320 20-05-2020 13:55:00 21.4 C 11.25 g/m*3 21.4 C 11.3 km/h
1321 20-05-2020 14:00:00 21.3 C 11.37 g/m*3 21.3 C 12.9 km/h
1322 20-05-2020 14:05:00 21.4 C 11.44 g/m*3 21.4 C 12.9 km/h
1323 20-05-2020 14:10:00 21.4 C 11.25 g/m*3 21.4 C 16.1 km/h
1324 20-05-2020 14:15:00 21.6 C 11.38 g/m*3 21.6 C 8.1 km/h
1325 20-05-2020 14:20:00 21.7 C 11.25 g/m*3 21.7 C 12.9 km/h
Sensor: Nr:Datum:Temp:Abs-Feuchte:Windchill:Wind:
Aussen-T/F 1326 20-05-2020 14:25:00 21.7 C 11.45 g/m*3 21.7 C 11.3 km/h
1327 20-05-2020 14:30:00 21.8 C 11.51 g/m*3 21.8 C 14.5 km/h
1328 20-05-2020 14:35:00 22.1 C 11.52 g/m*3 22.1 C 12.9 km/h
1329 20-05-2020 14:40:00 22.3 C 11.65 g/m*3 22.3 C 12.9 km/h
1330 20-05-2020 14:45:00 22.6 C 11.65 g/m*3 22.6 C 8.1 km/h
1331 20-05-2020 14:50:00 22.5 C 11.39 g/m*3 22.5 C 14.5 km/h
1332 20-05-2020 14:55:00 22.3 C 11.45 g/m*3 22.3 C 9.7 km/h
1333 20-05-2020 15:00:00 22.3 C 11.85 g/m*3 22.3 C 12.9 km/h
1334 20-05-2020 15:05:00 22.4 C 11.52 g/m*3 22.4 C 9.7 km/h
1335 20-05-2020 15:10:00 22.5 C 11.58 g/m*3 22.5 C 4.8 km/h
1336 20-05-2020 15:15:00 22.6 C 11.45 g/m*3 22.6 C 12.9 km/h
1337 20-05-2020 15:20:00 22.8 C 11.38 g/m*3 22.8 C 8.1 km/h
1338 20-05-2020 15:25:00 22.9 C 11.65 g/m*3 22.9 C 11.3 km/h
1339 20-05-2020 15:30:00 23.3 C 11.71 g/m*3 23.3 C 9.7 km/h
1340 20-05-2020 15:35:00 23.7 C 11.34 g/m*3 23.7 C 12.9 km/h
1341 20-05-2020 15:40:00 23.8 C 11.19 g/m*3 23.8 C 4.8 km/h
1342 20-05-2020 15:45:00 23.9 C 11.25 g/m*3 23.9 C 9.7 km/h
1343 20-05-2020 15:50:00 24.2 C 11.44 g/m*3 24.2 C 9.7 km/h
1344 20-05-2020 15:55:00 24.3 C 11.51 g/m*3 24.3 C 11.3 km/h
1345 20-05-2020 16:00:00 24.4 C 11.35 g/m*3 24.4 C 11.3 km/h
1346 20-05-2020 16:05:00 24.5 C 11.41 g/m*3 24.5 C 12.9 km/h
1347 20-05-2020 16:10:00 24.6 C 11.48 g/m*3 24.6 C 8.1 km/h
1348 20-05-2020 16:15:00 24.7 C 11.09 g/m*3 24.7 C 12.9 km/h
1349 20-05-2020 16:20:00 24.4 C 10.9 g/m*3 24.4 C 12.9 km/h
1350 20-05-2020 16:25:00 24.1 C 10.94 g/m*3 24.1 C 14.5 km/h
Sensor: Nr:Datum:Temp:Abs-Feuchte:Windchill:Wind:
Aussen-T/F 1351 20-05-2020 16:30:00 23.7 C 11.12 g/m*3 23.7 C 16.1 km/h
1352 20-05-2020 16:35:00 23.8 C 11.19 g/m*3 23.8 C 11.3 km/h
1353 20-05-2020 16:40:00 24.3 C 11.06 g/m*3 24.3 C 6.4 km/h
1354 20-05-2020 16:45:00 24.2 C 11 g/m*3 24.2 C 14.5 km/h
1355 20-05-2020 16:50:00 24.1 C 10.94 g/m*3 24.1 C 9.7 km/h
1356 20-05-2020 16:55:00 24.2 C 11 g/m*3 24.2 C 12.9 km/h
1357 20-05-2020 17:00:00 24.4 C 11.13 g/m*3 24.4 C 6.4 km/h
1358 20-05-2020 17:05:00 24.8 C 11.15 g/m*3 24.8 C 19.3 km/h
1359 20-05-2020 17:10:00 25.1 C 11.34 g/m*3 25.1 C 19.3 km/h
1360 20-05-2020 17:15:00 24.9 C 10.99 g/m*3 24.9 C 16.1 km/h
1361 20-05-2020 17:20:00 24.4 C 11.13 g/m*3 24.4 C 11.3 km/h
1362 20-05-2020 17:25:00 24.3 C 11.29 g/m*3 24.3 C 8.1 km/h
1363 20-05-2020 17:30:00 24.2 C 11 g/m*3 24.2 C 6.4 km/h
1364 20-05-2020 17:35:00 24.4 C 10.9 g/m*3 24.4 C 9.7 km/h
1365 20-05-2020 17:40:00 24.6 C 10.8 g/m*3 24.6 C 12.9 km/h
1366 20-05-2020 17:45:00 24.4 C 10.9 g/m*3 24.4 C 9.7 km/h
1367 20-05-2020 17:50:00 24.5 C 11.19 g/m*3 24.5 C 8.1 km/h
1368 20-05-2020 17:55:00 24.3 C 10.62 g/m*3 24.3 C 12.9 km/h
1369 20-05-2020 18:00:00 24.2 C 10.56 g/m*3 24.2 C 9.7 km/h
1370 20-05-2020 18:05:00 24.3 C 11.06 g/m*3 24.3 C 8.1 km/h
1371 20-05-2020 18:10:00 24.6 C 10.8 g/m*3 24.6 C 9.7 km/h
1372 20-05-2020 18:15:00 24.4 C 10.9 g/m*3 24.4 C 9.7 km/h
1373 20-05-2020 18:20:00 24.4 C 10.9 g/m*3 24.4 C 8.1 km/h
1374 20-05-2020 18:25:00 24.5 C 10.97 g/m*3 24.5 C 8.1 km/h
1375 20-05-2020 18:30:00 24.6 C 11.03 g/m*3 24.6 C 9.7 km/h
Sensor: Nr:Datum:Temp:Abs-Feuchte:Windchill:Wind:
Aussen-T/F 1376 20-05-2020 18:35:00 24.6 C 10.8 g/m*3 24.6 C 8.1 km/h
1377 20-05-2020 18:40:00 24.6 C 10.8 g/m*3 24.6 C 4.8 km/h
1378 20-05-2020 18:45:00 24.8 C 10.7 g/m*3 24.8 C 8.1 km/h
1379 20-05-2020 18:50:00 24.8 C 10.93 g/m*3 24.8 C 6.4 km/h
1380 20-05-2020 18:55:00 24.4 C 10.68 g/m*3 24.4 C 14.5 km/h
1381 20-05-2020 19:00:00 24.1 C 10.72 g/m*3 24.1 C 9.7 km/h
1382 20-05-2020 19:05:00 24.2 C 11 g/m*3 24.2 C 8.1 km/h
1383 20-05-2020 19:10:00 24.1 C 10.94 g/m*3 24.1 C 6.4 km/h
1384 20-05-2020 19:15:00 24 C 10.88 g/m*3 24 C 9.7 km/h
1385 20-05-2020 19:20:00 23.8 C 10.76 g/m*3 23.8 C 8.1 km/h
1386 20-05-2020 19:25:00 23.7 C 10.69 g/m*3 23.7 C 8.1 km/h
1387 20-05-2020 19:30:00 23.5 C 10.79 g/m*3 23.5 C 11.3 km/h
1388 20-05-2020 19:35:00 23.3 C 10.66 g/m*3 23.3 C 11.3 km/h
1389 20-05-2020 19:40:00 23.2 C 10.81 g/m*3 23.2 C 8.1 km/h
1390 20-05-2020 19:45:00 23 C 10.89 g/m*3 23 C 9.7 km/h
1391 20-05-2020 19:50:00 22.9 C 10.83 g/m*3 22.9 C 9.7 km/h
1392 20-05-2020 19:55:00 22.8 C 10.77 g/m*3 22.8 C 6.4 km/h
1393 20-05-2020 20:00:00 22.8 C 10.77 g/m*3 22.8 C 6.4 km/h
1394 20-05-2020 20:05:00 22.7 C 10.71 g/m*3 22.7 C 6.4 km/h
1395 20-05-2020 20:10:00 22.4 C 10.72 g/m*3 22.4 C 4.8 km/h
1396 20-05-2020 20:15:00 22.3 C 10.86 g/m*3 22.3 C 6.4 km/h
1397 20-05-2020 20:20:00 22.2 C 10.8 g/m*3 22.2 C 6.4 km/h
1398 20-05-2020 20:25:00 22 C 10.67 g/m*3 22 C 3.2 km/h
1399 20-05-2020 20:30:00 21.9 C 10.61 g/m*3 21.9 C 4.8 km/h
1400 20-05-2020 20:35:00 21.7 C 10.68 g/m*3 21.7 C 4.8 km/h
Sensor: Nr:Datum:Temp:Abs-Feuchte:Windchill:Wind:
Aussen-T/F 1401 20-05-2020 20:40:00 21.6 C 10.62 g/m*3 21.6 C 4.8 km/h
1402 20-05-2020 20:45:00 21.4 C 10.87 g/m*3 21.4 C 3.2 km/h
1403 20-05-2020 20:50:00 21.2 C 10.93 g/m*3 21.2 C 4.8 km/h
1404 20-05-2020 20:55:00 21 C 10.99 g/m*3 21 C 1.6 km/h
1405 20-05-2020 21:00:00 20.6 C 10.74 g/m*3 20.6 C 6.4 km/h
1406 20-05-2020 21:05:00 20.3 C 10.73 g/m*3 20.3 C 6.4 km/h
1407 20-05-2020 21:10:00 20.1 C 10.6 g/m*3 20.1 C 8.1 km/h
1408 20-05-2020 21:15:00 20 C 10.54 g/m*3 20 C 4.8 km/h
1409 20-05-2020 21:20:00 20 C 10.71 g/m*3 20 C 6.4 km/h
1410 20-05-2020 21:25:00 19.9 C 11 g/m*3 19.9 C 3.2 km/h
1411 20-05-2020 21:30:00 19.6 C 10.97 g/m*3 19.6 C 4.8 km/h
1412 20-05-2020 21:35:00 19.1 C 10.82 g/m*3 19.1 C 1.6 km/h
1413 20-05-2020 21:40:00 18.6 C 10.66 g/m*3 18.6 C 3.2 km/h
1414 20-05-2020 21:45:00 18.2 C 10.57 g/m*3 18.2 C 3.2 km/h
1415 20-05-2020 21:50:00 17.8 C 10.62 g/m*3 17.8 C 4.8 km/h
1416 20-05-2020 21:55:00 17.5 C 10.59 g/m*3 17.5 C 0 km/h
1417 20-05-2020 22:00:00 17.3 C 10.61 g/m*3 17.3 C 1.6 km/h
1418 20-05-2020 22:05:00 17.1 C 10.48 g/m*3 17.1 C 4.8 km/h
1419 20-05-2020 22:10:00 16.9 C 10.5 g/m*3 16.9 C 3.2 km/h
1420 20-05-2020 22:15:00 16.8 C 10.58 g/m*3 16.8 C 4.8 km/h
1421 20-05-2020 22:20:00 16.6 C 10.45 g/m*3 16.6 C 4.8 km/h
1422 20-05-2020 22:25:00 16.4 C 10.47 g/m*3 16.4 C 4.8 km/h
1423 20-05-2020 22:30:00 16.3 C 10.54 g/m*3 16.3 C 1.6 km/h
1424 20-05-2020 22:35:00 16.2 C 10.48 g/m*3 16.2 C 3.2 km/h
1425 20-05-2020 22:40:00 16.2 C 10.48 g/m*3 16.2 C 3.2 km/h
Sensor: Nr:Datum:Temp:Abs-Feuchte:Windchill:Wind:
Aussen-T/F 1426 20-05-2020 22:45:00 16.1 C 10.42 g/m*3 16.1 C 1.6 km/h
1427 20-05-2020 22:50:00 16.1 C 10.55 g/m*3 16.1 C 0 km/h
1428 20-05-2020 22:55:00 15.9 C 10.43 g/m*3 15.9 C 1.6 km/h
1429 20-05-2020 23:00:00 15.8 C 10.36 g/m*3 15.8 C 1.6 km/h
1430 20-05-2020 23:05:00 15.8 C 10.36 g/m*3 15.8 C 3.2 km/h
1431 20-05-2020 23:10:00 15.7 C 10.3 g/m*3 15.7 C 0 km/h
1432 20-05-2020 23:15:00 15.6 C 10.37 g/m*3 15.6 C 0 km/h
1433 20-05-2020 23:20:00 15.5 C 10.31 g/m*3 15.5 C 0 km/h
1434 20-05-2020 23:25:00 15.4 C 10.25 g/m*3 15.4 C 0 km/h
1435 20-05-2020 23:30:00 15.3 C 10.19 g/m*3 15.3 C 0 km/h
1436 20-05-2020 23:35:00 15.2 C 10.25 g/m*3 15.2 C 0 km/h
1437 20-05-2020 23:40:00 15.1 C 10.19 g/m*3 15.1 C 4.8 km/h
1438 20-05-2020 23:45:00 15 C 10.13 g/m*3 15 C 1.6 km/h
1439 20-05-2020 23:50:00 14.9 C 10.07 g/m*3 14.9 C 0 km/h
1440 20-05-2020 23:55:00 14.9 C 10.2 g/m*3 14.9 C 0 km/h
1441 21-05-2020 00:00:00 14.8 C 10.13 g/m*3 14.8 C 0 km/h
1442 21-05-2020 00:05:00 14.7 C 10.07 g/m*3 14.7 C 0 km/h
1443 21-05-2020 00:10:00 14.7 C 10.07 g/m*3 14.7 C 3.2 km/h
1444 21-05-2020 00:15:00 14.6 C 10.01 g/m*3 14.6 C 0 km/h
1445 21-05-2020 00:20:00 14.5 C 10.07 g/m*3 14.5 C 1.6 km/h
1446 21-05-2020 00:25:00 14.4 C 9.89 g/m*3 14.4 C 3.2 km/h
1447 21-05-2020 00:30:00 14.4 C 9.89 g/m*3 14.4 C 1.6 km/h
1448 21-05-2020 00:35:00 14.4 C 9.89 g/m*3 14.4 C 3.2 km/h
1449 21-05-2020 00:40:00 14.4 C 9.89 g/m*3 14.4 C 4.8 km/h
1450 21-05-2020 00:45:00 14.5 C 9.95 g/m*3 14.5 C 0 km/h
Sensor: Nr:Datum:Temp:Abs-Feuchte:Windchill:Wind:
Aussen-T/F 1451 21-05-2020 00:50:00 14.6 C 10.01 g/m*3 14.6 C 4.8 km/h
1452 21-05-2020 00:55:00 14.6 C 9.89 g/m*3 14.6 C 0 km/h
1453 21-05-2020 01:00:00 14.6 C 9.89 g/m*3 14.6 C 0 km/h
1454 21-05-2020 01:05:00 14.6 C 9.89 g/m*3 14.6 C 0 km/h
1455 21-05-2020 01:10:00 14.7 C 9.95 g/m*3 14.7 C 4.8 km/h
1456 21-05-2020 01:15:00 14.9 C 10.07 g/m*3 14.9 C 4.8 km/h
1457 21-05-2020 01:20:00 14.9 C 9.94 g/m*3 14.9 C 4.8 km/h
1458 21-05-2020 01:25:00 15 C 10 g/m*3 15 C 1.6 km/h
1459 21-05-2020 01:30:00 14.9 C 9.94 g/m*3 14.9 C 0 km/h
1460 21-05-2020 01:35:00 14.8 C 9.88 g/m*3 14.8 C 1.6 km/h
1461 21-05-2020 01:40:00 14.5 C 9.83 g/m*3 14.5 C 4.8 km/h
1462 21-05-2020 01:45:00 14.3 C 9.83 g/m*3 14.3 C 3.2 km/h
1463 21-05-2020 01:50:00 14.1 C 9.71 g/m*3 14.1 C 3.2 km/h
1464 21-05-2020 01:55:00 13.9 C 9.71 g/m*3 13.9 C 3.2 km/h
1465 21-05-2020 02:00:00 13.7 C 9.71 g/m*3 13.7 C 3.2 km/h
1466 21-05-2020 02:05:00 13.6 C 9.65 g/m*3 13.6 C 3.2 km/h
1467 21-05-2020 02:10:00 13.4 C 9.65 g/m*3 13.4 C 4.8 km/h
1468 21-05-2020 02:15:00 13.3 C 9.59 g/m*3 13.3 C 3.2 km/h
1469 21-05-2020 02:20:00 13.3 C 9.7 g/m*3 13.3 C 3.2 km/h
1470 21-05-2020 02:25:00 13.2 C 9.64 g/m*3 13.2 C 3.2 km/h
1471 21-05-2020 02:30:00 13.1 C 9.59 g/m*3 13.1 C 3.2 km/h
1472 21-05-2020 02:35:00 13 C 9.64 g/m*3 13 C 3.2 km/h
1473 21-05-2020 02:40:00 12.9 C 9.58 g/m*3 12.9 C 4.8 km/h
1474 21-05-2020 02:45:00 12.9 C 9.58 g/m*3 12.9 C 4.8 km/h
1475 21-05-2020 02:50:00 12.8 C 9.63 g/m*3 12.8 C 6.4 km/h
Sensor: Nr:Datum:Temp:Abs-Feuchte:Windchill:Wind:
Aussen-T/F 1476 21-05-2020 02:55:00 12.8 C 9.63 g/m*3 12.8 C 4.8 km/h
1477 21-05-2020 03:00:00 12.7 C 9.57 g/m*3 12.7 C 4.8 km/h
1478 21-05-2020 03:05:00 12.7 C 9.57 g/m*3 12.7 C 4.8 km/h
1479 21-05-2020 03:10:00 12.7 C 9.57 g/m*3 12.7 C 4.8 km/h
1480 21-05-2020 03:15:00 12.6 C 9.62 g/m*3 12.6 C 6.4 km/h
1481 21-05-2020 03:20:00 12.6 C 9.62 g/m*3 12.6 C 4.8 km/h
1482 21-05-2020 03:25:00 12.5 C 9.57 g/m*3 12.5 C 3.2 km/h
1483 21-05-2020 03:30:00 12.4 C 9.51 g/m*3 12.4 C 4.8 km/h
1484 21-05-2020 03:35:00 12.4 C 9.51 g/m*3 12.4 C 1.6 km/h
1485 21-05-2020 03:40:00 12.3 C 9.45 g/m*3 12.3 C 0 km/h
1486 21-05-2020 03:45:00 12.2 C 9.39 g/m*3 12.2 C 0 km/h
1487 21-05-2020 03:50:00 12.1 C 9.33 g/m*3 12.1 C 0 km/h
1488 21-05-2020 03:55:00 12 C 9.38 g/m*3 12 C 0 km/h
1489 21-05-2020 04:00:00 11.9 C 9.32 g/m*3 11.9 C 0 km/h
1490 21-05-2020 04:05:00 11.8 C 9.26 g/m*3 11.8 C 0 km/h
1491 21-05-2020 04:10:00 11.8 C 9.37 g/m*3 11.8 C 0 km/h
1492 21-05-2020 04:15:00 11.7 C 9.2 g/m*3 11.7 C 0 km/h
1493 21-05-2020 04:20:00 11.6 C 9.25 g/m*3 11.6 C 3.2 km/h
1494 21-05-2020 04:25:00 11.4 C 9.14 g/m*3 11.4 C 0 km/h
1495 21-05-2020 04:30:00 11.3 C 9.08 g/m*3 11.3 C 0 km/h
1496 21-05-2020 04:35:00 11.2 C 9.02 g/m*3 11.2 C 0 km/h
1497 21-05-2020 04:40:00 11.2 C 9.12 g/m*3 11.2 C 0 km/h
1498 21-05-2020 04:45:00 11.1 C 9.07 g/m*3 11.1 C 0 km/h
1499 21-05-2020 04:50:00 11.1 C 9.07 g/m*3 11.1 C 0 km/h
1500 21-05-2020 04:55:00 10.9 C 8.95 g/m*3 10.9 C 0 km/h
Sensor: Nr:Datum:Temp:Abs-Feuchte:Windchill:Wind:
Aussen-T/F 1501 21-05-2020 05:00:00 10.9 C 8.95 g/m*3 10.9 C 0 km/h
1502 21-05-2020 05:05:00 10.8 C 8.99 g/m*3 10.8 C 0 km/h
1503 21-05-2020 05:10:00 10.7 C 8.94 g/m*3 10.7 C 0 km/h
1504 21-05-2020 05:15:00 10.7 C 8.94 g/m*3 10.7 C 0 km/h
1505 21-05-2020 05:20:00 10.7 C 8.94 g/m*3 10.7 C 0 km/h
1506 21-05-2020 05:25:00 10.6 C 8.88 g/m*3 10.6 C 0 km/h
1507 21-05-2020 05:30:00 10.6 C 8.98 g/m*3 10.6 C 0 km/h
1508 21-05-2020 05:35:00 10.5 C 8.92 g/m*3 10.5 C 0 km/h
1509 21-05-2020 05:40:00 10.4 C 8.87 g/m*3 10.4 C 0 km/h
1510 21-05-2020 05:45:00 10.4 C 8.87 g/m*3 10.4 C 0 km/h
1511 21-05-2020 05:50:00 10.3 C 8.81 g/m*3 10.3 C 0 km/h
1512 21-05-2020 05:55:00 10.3 C 8.81 g/m*3 10.3 C 0 km/h
1513 21-05-2020 06:00:00 10.3 C 8.81 g/m*3 10.3 C 0 km/h
1514 21-05-2020 06:05:00 10.3 C 8.91 g/m*3 10.3 C 0 km/h
1515 21-05-2020 06:10:00 10.3 C 8.91 g/m*3 10.3 C 0 km/h
1516 21-05-2020 06:15:00 10.2 C 8.85 g/m*3 10.2 C 0 km/h
1517 21-05-2020 06:20:00 10.2 C 8.85 g/m*3 10.2 C 0 km/h
1518 21-05-2020 06:25:00 10.2 C 8.85 g/m*3 10.2 C 0 km/h
1519 21-05-2020 06:30:00 10.2 C 8.85 g/m*3 10.2 C 0 km/h
1520 21-05-2020 06:35:00 10.2 C 8.85 g/m*3 10.2 C 0 km/h
1521 21-05-2020 06:40:00 10.3 C 8.91 g/m*3 10.3 C 0 km/h
1522 21-05-2020 06:45:00 10.3 C 8.91 g/m*3 10.3 C 0 km/h
1523 21-05-2020 06:50:00 10.3 C 8.91 g/m*3 10.3 C 0 km/h
1524 21-05-2020 06:55:00 10.3 C 8.91 g/m*3 10.3 C 0 km/h
1525 21-05-2020 07:00:00 10.3 C 9 g/m*3 10.3 C 0 km/h
Sensor: Nr:Datum:Temp:Abs-Feuchte:Windchill:Wind:
Aussen-T/F 1526 21-05-2020 07:05:00 10.3 C 9 g/m*3 10.3 C 0 km/h
1527 21-05-2020 07:10:00 10.4 C 9.06 g/m*3 10.4 C 0 km/h
1528 21-05-2020 07:15:00 10.5 C 9.12 g/m*3 10.5 C 0 km/h
1529 21-05-2020 07:20:00 10.6 C 9.17 g/m*3 10.6 C 0 km/h
1530 21-05-2020 07:25:00 10.7 C 9.23 g/m*3 10.7 C 0 km/h
1531 21-05-2020 07:30:00 10.7 C 9.23 g/m*3 10.7 C 0 km/h
1532 21-05-2020 07:35:00 10.8 C 9.29 g/m*3 10.8 C 0 km/h
1533 21-05-2020 07:40:00 10.8 C 9.29 g/m*3 10.8 C 0 km/h
1534 21-05-2020 07:45:00 10.9 C 9.35 g/m*3 10.9 C 0 km/h
1535 21-05-2020 07:50:00 11 C 9.51 g/m*3 11 C 0 km/h
1536 21-05-2020 07:55:00 11.1 C 9.57 g/m*3 11.1 C 0 km/h
1537 21-05-2020 08:00:00 11.2 C 9.63 g/m*3 11.2 C 0 km/h
1538 21-05-2020 08:05:00 11.3 C 9.69 g/m*3 11.3 C 0 km/h
1539 21-05-2020 08:10:00 11.4 C 9.75 g/m*3 11.4 C 0 km/h
1540 21-05-2020 08:15:00 11.4 C 9.75 g/m*3 11.4 C 0 km/h
1541 21-05-2020 08:20:00 11.6 C 9.87 g/m*3 11.6 C 0 km/h
1542 21-05-2020 08:25:00 11.7 C 9.94 g/m*3 11.7 C 0 km/h
1543 21-05-2020 08:30:00 11.8 C 10 g/m*3 11.8 C 0 km/h
1544 21-05-2020 08:35:00 11.9 C 10.06 g/m*3 11.9 C 0 km/h
1545 21-05-2020 08:40:00 12.1 C 10.19 g/m*3 12.1 C 0 km/h
1546 21-05-2020 08:45:00 12.2 C 10.25 g/m*3 12.2 C 1.6 km/h
1547 21-05-2020 08:50:00 12.3 C 10.32 g/m*3 12.3 C 1.6 km/h
1548 21-05-2020 08:55:00 12.5 C 10.44 g/m*3 12.5 C 1.6 km/h
1549 21-05-2020 09:00:00 12.7 C 10.58 g/m*3 12.7 C 0 km/h
1550 21-05-2020 09:05:00 12.9 C 10.71 g/m*3 12.9 C 1.6 km/h
Sensor: Nr:Datum:Temp:Abs-Feuchte:Windchill:Wind:
Aussen-T/F 1551 21-05-2020 09:10:00 13.1 C 10.73 g/m*3 13.1 C 0 km/h
1552 21-05-2020 09:15:00 13.3 C 10.86 g/m*3 13.3 C 1.6 km/h
1553 21-05-2020 09:20:00 13.6 C 11.06 g/m*3 13.6 C 0 km/h
1554 21-05-2020 09:25:00 13.8 C 11.08 g/m*3 13.8 C 0 km/h
1555 21-05-2020 09:30:00 14 C 11.22 g/m*3 14 C 1.6 km/h
1556 21-05-2020 09:35:00 14.2 C 11.11 g/m*3 14.2 C 1.6 km/h
1557 21-05-2020 09:40:00 14.4 C 11.25 g/m*3 14.4 C 0 km/h
1558 21-05-2020 09:45:00 14.7 C 11.33 g/m*3 14.7 C 0 km/h
1559 21-05-2020 09:50:00 14.9 C 11.34 g/m*3 14.9 C 0 km/h
1560 21-05-2020 09:55:00 15.1 C 11.35 g/m*3 15.1 C 1.6 km/h
1561 21-05-2020 10:00:00 15.3 C 11.36 g/m*3 15.3 C 0 km/h
1562 21-05-2020 10:05:00 15.7 C 11.51 g/m*3 15.7 C 0 km/h
1563 21-05-2020 10:10:00 16 C 11.58 g/m*3 16 C 0 km/h
1564 21-05-2020 10:15:00 16.3 C 11.65 g/m*3 16.3 C 1.6 km/h
1565 21-05-2020 10:20:00 16.7 C 11.94 g/m*3 16.7 C 1.6 km/h
1566 21-05-2020 10:25:00 17.1 C 11.94 g/m*3 17.1 C 3.2 km/h
1567 21-05-2020 10:30:00 17.8 C 11.84 g/m*3 17.8 C 6.4 km/h
1568 21-05-2020 10:35:00 18.6 C 11.78 g/m*3 18.6 C 6.4 km/h
1569 21-05-2020 10:40:00 19.3 C 11.61 g/m*3 19.3 C 9.7 km/h
1570 21-05-2020 10:45:00 19.7 C 11.72 g/m*3 19.7 C 9.7 km/h
1571 21-05-2020 10:50:00 19.9 C 11.68 g/m*3 19.9 C 8.1 km/h
1572 21-05-2020 10:55:00 20.1 C 11.65 g/m*3 20.1 C 11.3 km/h
1573 21-05-2020 11:00:00 20.3 C 11.78 g/m*3 20.3 C 9.7 km/h
1574 21-05-2020 11:05:00 20.6 C 11.99 g/m*3 20.6 C 9.7 km/h
1575 21-05-2020 11:10:00 20.8 C 12.13 g/m*3 20.8 C 9.7 km/h
Sensor: Nr:Datum:Temp:Abs-Feuchte:Windchill:Wind:
Aussen-T/F 1576 21-05-2020 11:15:00 21 C 11.72 g/m*3 21 C 12.9 km/h
1577 21-05-2020 11:20:00 21.2 C 11.49 g/m*3 21.2 C 12.9 km/h
1578 21-05-2020 11:25:00 21.3 C 11.74 g/m*3 21.3 C 12.9 km/h
1579 21-05-2020 11:30:00 21.4 C 11.62 g/m*3 21.4 C 9.7 km/h
1580 21-05-2020 11:35:00 21.4 C 11.62 g/m*3 21.4 C 9.7 km/h
1581 21-05-2020 11:40:00 21.5 C 11.5 g/m*3 21.5 C 11.3 km/h
1582 21-05-2020 11:45:00 21.7 C 11.45 g/m*3 21.7 C 12.9 km/h
1583 21-05-2020 11:50:00 21.8 C 11.51 g/m*3 21.8 C 11.3 km/h
1584 21-05-2020 11:55:00 21.8 C 11.7 g/m*3 21.8 C 6.4 km/h
1585 21-05-2020 12:00:00 21.7 C 11.64 g/m*3 21.7 C 8.1 km/h
1586 21-05-2020 12:05:00 21.7 C 11.45 g/m*3 21.7 C 6.4 km/h
1587 21-05-2020 12:10:00 21.8 C 11.51 g/m*3 21.8 C 8.1 km/h
1588 21-05-2020 12:15:00 21.8 C 11.51 g/m*3 21.8 C 6.4 km/h
1589 21-05-2020 12:20:00 22 C 11.84 g/m*3 22 C 9.7 km/h
1590 21-05-2020 12:25:00 22.1 C 11.32 g/m*3 22.1 C 4.8 km/h
1591 21-05-2020 12:30:00 22.1 C 11.32 g/m*3 22.1 C 9.7 km/h
1592 21-05-2020 12:35:00 22.3 C 11.45 g/m*3 22.3 C 8.1 km/h
1593 21-05-2020 12:40:00 22.4 C 11.32 g/m*3 22.4 C 6.4 km/h
1594 21-05-2020 12:45:00 22.5 C 11.58 g/m*3 22.5 C 9.7 km/h
1595 21-05-2020 12:50:00 22.7 C 11.52 g/m*3 22.7 C 11.3 km/h
1596 21-05-2020 12:55:00 22.8 C 11.18 g/m*3 22.8 C 8.1 km/h
1597 21-05-2020 13:00:00 22.8 C 10.97 g/m*3 22.8 C 12.9 km/h
1598 21-05-2020 13:05:00 22.8 C 11.38 g/m*3 22.8 C 11.3 km/h
1599 21-05-2020 13:10:00 22.9 C 11.44 g/m*3 22.9 C 12.9 km/h
1600 21-05-2020 13:15:00 23.1 C 11.37 g/m*3 23.1 C 9.7 km/h
Sensor: Nr:Datum:Temp:Abs-Feuchte:Windchill:Wind:
Aussen-T/F 1601 21-05-2020 13:20:00 23.1 C 11.78 g/m*3 23.1 C 6.4 km/h
1602 21-05-2020 13:25:00 23.2 C 11.85 g/m*3 23.2 C 6.4 km/h
1603 21-05-2020 13:30:00 23.3 C 11.29 g/m*3 23.3 C 4.8 km/h
1604 21-05-2020 13:35:00 23.4 C 11.35 g/m*3 23.4 C 8.1 km/h
1605 21-05-2020 13:40:00 23.6 C 11.48 g/m*3 23.6 C 6.4 km/h
1606 21-05-2020 13:45:00 23.6 C 11.7 g/m*3 23.6 C 4.8 km/h
1607 21-05-2020 13:50:00 23.5 C 11.42 g/m*3 23.5 C 4.8 km/h
1608 21-05-2020 13:55:00 23.6 C 11.7 g/m*3 23.6 C 6.4 km/h
1609 21-05-2020 14:00:00 23.7 C 11.76 g/m*3 23.7 C 6.4 km/h
1610 21-05-2020 14:05:00 23.9 C 11.9 g/m*3 23.9 C 9.7 km/h
1611 21-05-2020 14:10:00 24.1 C 11.82 g/m*3 24.1 C 6.4 km/h
1612 21-05-2020 14:15:00 24.3 C 11.73 g/m*3 24.3 C 8.1 km/h
1613 21-05-2020 14:20:00 24.4 C 11.57 g/m*3 24.4 C 9.7 km/h
1614 21-05-2020 14:25:00 24.5 C 11.86 g/m*3 24.5 C 8.1 km/h
1615 21-05-2020 14:30:00 24.8 C 12.06 g/m*3 24.8 C 8.1 km/h
1616 21-05-2020 14:35:00 25.1 C 11.81 g/m*3 25.1 C 4.8 km/h
1617 21-05-2020 14:40:00 25.2 C 11.64 g/m*3 25.2 C 4.8 km/h
1618 21-05-2020 14:45:00 25.2 C 11.64 g/m*3 25.2 C 6.4 km/h
1619 21-05-2020 14:50:00 25.1 C 11.57 g/m*3 25.1 C 8.1 km/h
1620 21-05-2020 14:55:00 25.2 C 11.64 g/m*3 25.2 C 9.7 km/h
1621 21-05-2020 15:00:00 25.5 C 11.6 g/m*3 25.5 C 4.8 km/h
1622 21-05-2020 15:05:00 25.6 C 11.43 g/m*3 25.6 C 8.1 km/h
1623 21-05-2020 15:10:00 25.7 C 11.97 g/m*3 25.7 C 4.8 km/h
1624 21-05-2020 15:15:00 26.2 C 11.32 g/m*3 26.2 C 8.1 km/h
1625 21-05-2020 15:20:00 26.6 C 11.58 g/m*3 26.6 C 6.4 km/h
Sensor: Nr:Datum:Temp:Abs-Feuchte:Windchill:Wind:
Aussen-T/F 1626 21-05-2020 15:25:00 26.9 C 11.77 g/m*3 26.9 C 9.7 km/h
1627 21-05-2020 15:30:00 27.1 C 11.9 g/m*3 27.1 C 6.4 km/h
1628 21-05-2020 15:35:00 27.5 C 12.43 g/m*3 27.5 C 4.8 km/h
1629 21-05-2020 15:40:00 27.7 C 11.77 g/m*3 27.7 C 8.1 km/h
1630 21-05-2020 15:45:00 27.8 C 11.3 g/m*3 27.8 C 8.1 km/h
1631 21-05-2020 15:50:00 27.8 C 11.3 g/m*3 27.8 C 9.7 km/h
1632 21-05-2020 15:55:00 27.9 C 11.36 g/m*3 27.9 C 8.1 km/h
1633 21-05-2020 16:00:00 27.9 C 11.09 g/m*3 27.9 C 9.7 km/h
1634 21-05-2020 16:05:00 27.8 C 11.3 g/m*3 27.8 C 8.1 km/h
1635 21-05-2020 16:10:00 27.8 C 11.57 g/m*3 27.8 C 11.3 km/h
1636 21-05-2020 16:15:00 27.8 C 11.3 g/m*3 27.8 C 9.7 km/h
1637 21-05-2020 16:20:00 27.8 C 12.1 g/m*3 27.8 C 8.1 km/h
1638 21-05-2020 16:25:00 28.1 C 11.76 g/m*3 28.1 C 4.8 km/h
1639 21-05-2020 16:30:00 28.1 C 11.21 g/m*3 28.1 C 6.4 km/h
1640 21-05-2020 16:35:00 28.2 C 11.27 g/m*3 28.2 C 4.8 km/h
1641 21-05-2020 16:40:00 28.4 C 10.84 g/m*3 28.4 C 9.7 km/h
1642 21-05-2020 16:45:00 28.2 C 10.45 g/m*3 28.2 C 8.1 km/h
1643 21-05-2020 16:50:00 28.3 C 11.06 g/m*3 28.3 C 8.1 km/h
1644 21-05-2020 16:55:00 28.4 C 11.67 g/m*3 28.4 C 6.4 km/h
1645 21-05-2020 17:00:00 28.5 C 10.9 g/m*3 28.5 C 8.1 km/h
1646 21-05-2020 17:05:00 28.5 C 11.18 g/m*3 28.5 C 4.8 km/h
1647 21-05-2020 17:10:00 28.9 C 10.86 g/m*3 28.9 C 4.8 km/h
1648 21-05-2020 17:15:00 29.2 C 11.32 g/m*3 29.2 C 3.2 km/h
1649 21-05-2020 17:20:00 28.9 C 10.57 g/m*3 28.9 C 9.7 km/h
1650 21-05-2020 17:25:00 28.9 C 10.86 g/m*3 28.9 C 9.7 km/h
Sensor: Nr:Datum:Temp:Abs-Feuchte:Windchill:Wind:
Aussen-T/F 1651 21-05-2020 17:30:00 29 C 10.91 g/m*3 29 C 8.1 km/h
1652 21-05-2020 17:35:00 28.8 C 10.8 g/m*3 28.8 C 9.7 km/h
1653 21-05-2020 17:40:00 28.7 C 11.02 g/m*3 28.7 C 6.4 km/h
1654 21-05-2020 17:45:00 28.6 C 10.68 g/m*3 28.6 C 9.7 km/h
1655 21-05-2020 17:50:00 28.3 C 10.51 g/m*3 28.3 C 11.3 km/h
1656 21-05-2020 17:55:00 28.1 C 10.39 g/m*3 28.1 C 9.7 km/h
1657 21-05-2020 18:00:00 27.9 C 10.82 g/m*3 27.9 C 6.4 km/h
1658 21-05-2020 18:05:00 28.3 C 11.06 g/m*3 28.3 C 9.7 km/h
1659 21-05-2020 18:10:00 28.9 C 10.86 g/m*3 28.9 C 8.1 km/h
1660 21-05-2020 18:15:00 28.7 C 10.17 g/m*3 28.7 C 12.9 km/h
1661 21-05-2020 18:20:00 28.1 C 10.12 g/m*3 28.1 C 9.7 km/h
1662 21-05-2020 18:25:00 27.9 C 10.28 g/m*3 27.9 C 9.7 km/h
1663 21-05-2020 18:30:00 27.8 C 10.22 g/m*3 27.8 C 9.7 km/h
1664 21-05-2020 18:35:00 27.7 C 10.43 g/m*3 27.7 C 4.8 km/h
1665 21-05-2020 18:40:00 27.5 C 10.58 g/m*3 27.5 C 4.8 km/h
1666 21-05-2020 18:45:00 27.7 C 10.7 g/m*3 27.7 C 6.4 km/h
1667 21-05-2020 18:50:00 28 C 11.42 g/m*3 28 C 6.4 km/h
1668 21-05-2020 18:55:00 28.3 C 10.78 g/m*3 28.3 C 3.2 km/h
1669 21-05-2020 19:00:00 28.4 C 10.84 g/m*3 28.4 C 6.4 km/h
1670 21-05-2020 19:05:00 28.6 C 11.24 g/m*3 28.6 C 4.8 km/h
1671 21-05-2020 19:10:00 28.5 C 10.9 g/m*3 28.5 C 4.8 km/h
1672 21-05-2020 19:15:00 28.6 C 10.68 g/m*3 28.6 C 4.8 km/h
1673 21-05-2020 19:20:00 28.4 C 11.12 g/m*3 28.4 C 6.4 km/h
1674 21-05-2020 19:25:00 28.2 C 10.72 g/m*3 28.2 C 4.8 km/h
1675 21-05-2020 19:30:00 27.9 C 10.82 g/m*3 27.9 C 4.8 km/h
Sensor: Nr:Datum:Temp:Abs-Feuchte:Windchill:Wind:
Aussen-T/F 1676 21-05-2020 19:35:00 27.7 C 10.97 g/m*3 27.7 C 3.2 km/h
1677 21-05-2020 19:40:00 27.7 C 11.5 g/m*3 27.7 C 3.2 km/h
1678 21-05-2020 19:45:00 27.7 C 12.84 g/m*3 27.7 C 3.2 km/h
1679 21-05-2020 19:50:00 27.7 C 12.84 g/m*3 27.7 C 3.2 km/h
1680 21-05-2020 19:55:00 27.6 C 12.77 g/m*3 27.6 C 1.6 km/h
1681 21-05-2020 20:00:00 27.6 C 12.77 g/m*3 27.6 C 1.6 km/h
1682 21-05-2020 20:05:00 27.3 C 12.82 g/m*3 27.3 C 4.8 km/h
1683 21-05-2020 20:10:00 26.9 C 12.54 g/m*3 26.9 C 4.8 km/h
1684 21-05-2020 20:15:00 26.3 C 12.38 g/m*3 26.3 C 3.2 km/h
1685 21-05-2020 20:20:00 25.7 C 12.45 g/m*3 25.7 C 4.8 km/h
1686 21-05-2020 20:25:00 25.1 C 12.5 g/m*3 25.1 C 3.2 km/h
1687 21-05-2020 20:30:00 24.7 C 12.45 g/m*3 24.7 C 0 km/h
1688 21-05-2020 20:35:00 24.5 C 12.53 g/m*3 24.5 C 1.6 km/h
1689 21-05-2020 20:40:00 24.3 C 12.61 g/m*3 24.3 C 1.6 km/h
1690 21-05-2020 20:45:00 24.1 C 12.47 g/m*3 24.1 C 1.6 km/h
1691 21-05-2020 20:50:00 23.8 C 12.48 g/m*3 23.8 C 1.6 km/h
1692 21-05-2020 20:55:00 23.4 C 12.41 g/m*3 23.4 C 0 km/h
1693 21-05-2020 21:00:00 23.1 C 12.4 g/m*3 23.1 C 1.6 km/h
1694 21-05-2020 21:05:00 22.6 C 12.25 g/m*3 22.6 C 4.8 km/h
1695 21-05-2020 21:10:00 22.2 C 12.17 g/m*3 22.2 C 3.2 km/h
1696 21-05-2020 21:15:00 21.8 C 12.09 g/m*3 21.8 C 3.2 km/h
1697 21-05-2020 21:20:00 21.5 C 12.07 g/m*3 21.5 C 6.4 km/h
1698 21-05-2020 21:25:00 21.2 C 12.05 g/m*3 21.2 C 6.4 km/h
1699 21-05-2020 21:30:00 20.9 C 12.02 g/m*3 20.9 C 4.8 km/h
1700 21-05-2020 21:35:00 20.7 C 12.06 g/m*3 20.7 C 4.8 km/h
Sensor: Nr:Datum:Temp:Abs-Feuchte:Windchill:Wind:
Aussen-T/F 1701 21-05-2020 21:40:00 20.4 C 11.85 g/m*3 20.4 C 4.8 km/h
1702 21-05-2020 21:45:00 20.2 C 11.89 g/m*3 20.2 C 4.8 km/h
1703 21-05-2020 21:50:00 20 C 11.92 g/m*3 20 C 8.1 km/h
1704 21-05-2020 21:55:00 19.8 C 11.79 g/m*3 19.8 C 8.1 km/h
1705 21-05-2020 22:00:00 19.7 C 11.89 g/m*3 19.7 C 6.4 km/h
1706 21-05-2020 22:05:00 19.6 C 11.82 g/m*3 19.6 C 4.8 km/h
1707 21-05-2020 22:10:00 19.5 C 11.92 g/m*3 19.5 C 4.8 km/h
1708 21-05-2020 22:15:00 19.4 C 11.85 g/m*3 19.4 C 4.8 km/h
1709 21-05-2020 22:20:00 19.3 C 11.94 g/m*3 19.3 C 4.8 km/h
1710 21-05-2020 22:25:00 19.1 C 11.8 g/m*3 19.1 C 4.8 km/h
1711 21-05-2020 22:30:00 18.9 C 11.83 g/m*3 18.9 C 4.8 km/h
1712 21-05-2020 22:35:00 18.8 C 11.92 g/m*3 18.8 C 4.8 km/h
1713 21-05-2020 22:40:00 18.8 C 11.92 g/m*3 18.8 C 4.8 km/h
1714 21-05-2020 22:45:00 18.7 C 11.85 g/m*3 18.7 C 4.8 km/h
1715 21-05-2020 22:50:00 18.7 C 11.85 g/m*3 18.7 C 8.1 km/h
1716 21-05-2020 22:55:00 18.7 C 11.85 g/m*3 18.7 C 3.2 km/h
1717 21-05-2020 23:00:00 18.7 C 11.69 g/m*3 18.7 C 6.4 km/h
1718 21-05-2020 23:05:00 18.8 C 11.76 g/m*3 18.8 C 3.2 km/h
1719 21-05-2020 23:10:00 18.9 C 11.83 g/m*3 18.9 C 3.2 km/h
1720 21-05-2020 23:15:00 18.9 C 11.83 g/m*3 18.9 C 0 km/h
1721 21-05-2020 23:20:00 18.9 C 11.83 g/m*3 18.9 C 1.6 km/h
1722 21-05-2020 23:25:00 18.9 C 11.83 g/m*3 18.9 C 3.2 km/h
1723 21-05-2020 23:30:00 18.8 C 11.76 g/m*3 18.8 C 3.2 km/h
1724 21-05-2020 23:35:00 18.7 C 11.69 g/m*3 18.7 C 3.2 km/h
1725 21-05-2020 23:40:00 18.6 C 11.62 g/m*3 18.6 C 1.6 km/h
Sensor: Nr:Datum:Temp:Abs-Feuchte:Windchill:Wind:
Aussen-T/F 1726 21-05-2020 23:45:00 18.4 C 11.64 g/m*3 18.4 C 3.2 km/h
1727 21-05-2020 23:50:00 18.3 C 11.57 g/m*3 18.3 C 1.6 km/h
1728 21-05-2020 23:55:00 18.2 C 11.5 g/m*3 18.2 C 3.2 km/h
1729 22-05-2020 00:00:00 18.1 C 11.59 g/m*3 18.1 C 3.2 km/h
1730 22-05-2020 00:05:00 17.9 C 11.45 g/m*3 17.9 C 3.2 km/h
1731 22-05-2020 00:10:00 17.9 C 11.45 g/m*3 17.9 C 3.2 km/h
1732 22-05-2020 00:15:00 17.8 C 11.38 g/m*3 17.8 C 0 km/h
1733 22-05-2020 00:20:00 17.7 C 11.47 g/m*3 17.7 C 0 km/h
1734 22-05-2020 00:25:00 17.6 C 11.4 g/m*3 17.6 C 1.6 km/h
1735 22-05-2020 00:30:00 17.5 C 11.33 g/m*3 17.5 C 0 km/h
1736 22-05-2020 00:35:00 17.4 C 11.26 g/m*3 17.4 C 1.6 km/h
1737 22-05-2020 00:40:00 17.4 C 11.41 g/m*3 17.4 C 1.6 km/h
1738 22-05-2020 00:45:00 17.3 C 11.34 g/m*3 17.3 C 0 km/h
1739 22-05-2020 00:50:00 17.2 C 11.28 g/m*3 17.2 C 0 km/h
1740 22-05-2020 00:55:00 16.9 C 11.08 g/m*3 16.9 C 0 km/h
1741 22-05-2020 01:00:00 16.8 C 11.15 g/m*3 16.8 C 0 km/h
1742 22-05-2020 01:05:00 16.7 C 11.08 g/m*3 16.7 C 0 km/h
1743 22-05-2020 01:10:00 16.6 C 11.16 g/m*3 16.6 C 0 km/h
1744 22-05-2020 01:15:00 16.4 C 11.03 g/m*3 16.4 C 0 km/h
1745 22-05-2020 01:20:00 16.3 C 10.96 g/m*3 16.3 C 0 km/h
1746 22-05-2020 01:25:00 16.3 C 11.1 g/m*3 16.3 C 0 km/h
1747 22-05-2020 01:30:00 16.2 C 11.03 g/m*3 16.2 C 0 km/h
1748 22-05-2020 01:35:00 16.1 C 10.97 g/m*3 16.1 C 0 km/h
1749 22-05-2020 01:40:00 15.9 C 10.97 g/m*3 15.9 C 0 km/h
1750 22-05-2020 01:45:00 15.9 C 10.97 g/m*3 15.9 C 0 km/h
Sensor: Nr:Datum:Temp:Abs-Feuchte:Windchill:Wind:
Aussen-T/F 1751 22-05-2020 01:50:00 15.8 C 10.9 g/m*3 15.8 C 0 km/h
1752 22-05-2020 01:55:00 15.7 C 10.97 g/m*3 15.7 C 0 km/h
1753 22-05-2020 02:00:00 15.6 C 11.04 g/m*3 15.6 C 0 km/h
1754 22-05-2020 02:05:00 15.6 C 11.04 g/m*3 15.6 C 0 km/h
1755 22-05-2020 02:10:00 15.5 C 10.97 g/m*3 15.5 C 0 km/h
1756 22-05-2020 02:15:00 15.4 C 10.9 g/m*3 15.4 C 0 km/h
1757 22-05-2020 02:20:00 15.3 C 10.97 g/m*3 15.3 C 0 km/h
1758 22-05-2020 02:25:00 15.3 C 10.97 g/m*3 15.3 C 0 km/h
1759 22-05-2020 02:30:00 15.3 C 11.1 g/m*3 15.3 C 0 km/h
1760 22-05-2020 02:35:00 15.2 C 11.03 g/m*3 15.2 C 0 km/h
1761 22-05-2020 02:40:00 15.2 C 11.03 g/m*3 15.2 C 0 km/h
1762 22-05-2020 02:45:00 15.1 C 10.97 g/m*3 15.1 C 0 km/h
1763 22-05-2020 02:50:00 15.1 C 10.97 g/m*3 15.1 C 0 km/h
1764 22-05-2020 02:55:00 15 C 10.9 g/m*3 15 C 0 km/h
1765 22-05-2020 03:00:00 14.9 C 10.83 g/m*3 14.9 C 0 km/h
1766 22-05-2020 03:05:00 14.9 C 10.96 g/m*3 14.9 C 0 km/h
1767 22-05-2020 03:10:00 14.8 C 10.89 g/m*3 14.8 C 0 km/h
1768 22-05-2020 03:15:00 14.8 C 10.89 g/m*3 14.8 C 0 km/h
1769 22-05-2020 03:20:00 14.8 C 10.89 g/m*3 14.8 C 0 km/h
1770 22-05-2020 03:25:00 14.7 C 10.83 g/m*3 14.7 C 0 km/h
1771 22-05-2020 03:30:00 14.6 C 10.76 g/m*3 14.6 C 0 km/h
1772 22-05-2020 03:35:00 14.5 C 10.7 g/m*3 14.5 C 0 km/h
1773 22-05-2020 03:40:00 14.4 C 10.63 g/m*3 14.4 C 0 km/h
1774 22-05-2020 03:45:00 14.4 C 10.63 g/m*3 14.4 C 0 km/h
1775 22-05-2020 03:50:00 14.3 C 10.57 g/m*3 14.3 C 0 km/h
Sensor: Nr:Datum:Temp:Abs-Feuchte:Windchill:Wind:
Aussen-T/F 1776 22-05-2020 03:55:00 14.2 C 10.5 g/m*3 14.2 C 0 km/h
1777 22-05-2020 04:00:00 14.1 C 10.56 g/m*3 14.1 C 0 km/h
1778 22-05-2020 04:05:00 13.9 C 10.43 g/m*3 13.9 C 0 km/h
1779 22-05-2020 04:10:00 13.8 C 10.37 g/m*3 13.8 C 0 km/h
1780 22-05-2020 04:15:00 13.7 C 10.42 g/m*3 13.7 C 0 km/h
1781 22-05-2020 04:20:00 13.7 C 10.54 g/m*3 13.7 C 0 km/h
1782 22-05-2020 04:25:00 13.6 C 10.47 g/m*3 13.6 C 0 km/h
1783 22-05-2020 04:30:00 13.6 C 10.47 g/m*3 13.6 C 0 km/h
1784 22-05-2020 04:35:00 13.4 C 10.35 g/m*3 13.4 C 0 km/h
1785 22-05-2020 04:40:00 13.4 C 10.35 g/m*3 13.4 C 0 km/h
1786 22-05-2020 04:45:00 13.3 C 10.28 g/m*3 13.3 C 0 km/h
1787 22-05-2020 04:50:00 13.3 C 10.4 g/m*3 13.3 C 0 km/h
1788 22-05-2020 04:55:00 13.2 C 10.33 g/m*3 13.2 C 0 km/h
1789 22-05-2020 05:00:00 13.2 C 10.33 g/m*3 13.2 C 0 km/h
1790 22-05-2020 05:05:00 13.2 C 10.33 g/m*3 13.2 C 0 km/h
1791 22-05-2020 05:10:00 13.1 C 10.38 g/m*3 13.1 C 0 km/h
1792 22-05-2020 05:15:00 13.1 C 10.38 g/m*3 13.1 C 0 km/h
1793 22-05-2020 05:20:00 13 C 10.32 g/m*3 13 C 0 km/h
1794 22-05-2020 05:25:00 13 C 10.32 g/m*3 13 C 0 km/h
1795 22-05-2020 05:30:00 12.9 C 10.26 g/m*3 12.9 C 0 km/h
1796 22-05-2020 05:35:00 12.8 C 10.19 g/m*3 12.8 C 0 km/h
1797 22-05-2020 05:40:00 12.8 C 10.19 g/m*3 12.8 C 0 km/h
1798 22-05-2020 05:45:00 12.8 C 10.3 g/m*3 12.8 C 0 km/h
1799 22-05-2020 05:50:00 12.7 C 10.24 g/m*3 12.7 C 0 km/h
1800 22-05-2020 05:55:00 12.8 C 10.3 g/m*3 12.8 C 0 km/h
Sensor: Nr:Datum:Temp:Abs-Feuchte:Windchill:Wind:
Aussen-T/F 1801 22-05-2020 06:00:00 12.8 C 10.3 g/m*3 12.8 C 0 km/h
1802 22-05-2020 06:05:00 12.8 C 10.3 g/m*3 12.8 C 0 km/h
1803 22-05-2020 06:10:00 12.8 C 10.42 g/m*3 12.8 C 0 km/h
1804 22-05-2020 06:15:00 12.9 C 10.48 g/m*3 12.9 C 0 km/h
1805 22-05-2020 06:20:00 13.1 C 10.61 g/m*3 13.1 C 0 km/h
1806 22-05-2020 06:25:00 13.1 C 10.61 g/m*3 13.1 C 0 km/h
1807 22-05-2020 06:30:00 13.2 C 10.68 g/m*3 13.2 C 0 km/h
1808 22-05-2020 06:35:00 13.3 C 10.74 g/m*3 13.3 C 0 km/h
1809 22-05-2020 06:40:00 13.5 C 10.99 g/m*3 13.5 C 0 km/h
1810 22-05-2020 06:45:00 13.7 C 11.13 g/m*3 13.7 C 0 km/h
1811 22-05-2020 06:50:00 13.8 C 11.2 g/m*3 13.8 C 0 km/h
1812 22-05-2020 06:55:00 14 C 11.34 g/m*3 14 C 0 km/h
1813 22-05-2020 07:00:00 14.2 C 11.48 g/m*3 14.2 C 0 km/h
1814 22-05-2020 07:05:00 14.3 C 11.55 g/m*3 14.3 C 0 km/h
1815 22-05-2020 07:10:00 14.4 C 11.5 g/m*3 14.4 C 0 km/h
1816 22-05-2020 07:15:00 14.6 C 11.64 g/m*3 14.6 C 0 km/h
1817 22-05-2020 07:20:00 14.7 C 11.71 g/m*3 14.7 C 0 km/h
1818 22-05-2020 07:25:00 14.9 C 11.85 g/m*3 14.9 C 0 km/h
1819 22-05-2020 07:30:00 15 C 11.93 g/m*3 15 C 0 km/h
1820 22-05-2020 07:35:00 15.2 C 11.94 g/m*3 15.2 C 0 km/h
1821 22-05-2020 07:40:00 15.3 C 12.01 g/m*3 15.3 C 0 km/h
1822 22-05-2020 07:45:00 15.4 C 11.96 g/m*3 15.4 C 0 km/h
1823 22-05-2020 07:50:00 15.6 C 12.1 g/m*3 15.6 C 0 km/h
1824 22-05-2020 07:55:00 15.8 C 12.11 g/m*3 15.8 C 0 km/h
1825 22-05-2020 08:00:00 16 C 12.26 g/m*3 16 C 0 km/h
Sensor: Nr:Datum:Temp:Abs-Feuchte:Windchill:Wind:
Aussen-T/F 1826 22-05-2020 08:05:00 16.2 C 12.27 g/m*3 16.2 C 1.6 km/h
1827 22-05-2020 08:10:00 16.4 C 12.28 g/m*3 16.4 C 0 km/h
1828 22-05-2020 08:15:00 16.7 C 12.22 g/m*3 16.7 C 4.8 km/h
1829 22-05-2020 08:20:00 17.1 C 12.37 g/m*3 17.1 C 4.8 km/h
1830 22-05-2020 08:25:00 17.4 C 12.45 g/m*3 17.4 C 3.2 km/h
1831 22-05-2020 08:30:00 17.7 C 12.67 g/m*3 17.7 C 6.4 km/h
1832 22-05-2020 08:35:00 18.1 C 12.52 g/m*3 18.1 C 6.4 km/h
1833 22-05-2020 08:40:00 18.4 C 12.58 g/m*3 18.4 C 4.8 km/h
1834 22-05-2020 08:45:00 18.7 C 12.65 g/m*3 18.7 C 6.4 km/h
1835 22-05-2020 08:50:00 18.9 C 12.8 g/m*3 18.9 C 1.6 km/h
1836 22-05-2020 08:55:00 19.1 C 12.79 g/m*3 19.1 C 6.4 km/h
1837 22-05-2020 09:00:00 19.3 C 12.77 g/m*3 19.3 C 8.1 km/h
1838 22-05-2020 09:05:00 19.3 C 12.77 g/m*3 19.3 C 8.1 km/h
1839 22-05-2020 09:10:00 19.4 C 12.68 g/m*3 19.4 C 8.1 km/h
1840 22-05-2020 09:15:00 19.6 C 12.83 g/m*3 19.6 C 6.4 km/h
1841 22-05-2020 09:20:00 19.8 C 12.98 g/m*3 19.8 C 8.1 km/h
1842 22-05-2020 09:25:00 19.9 C 12.89 g/m*3 19.9 C 6.4 km/h
1843 22-05-2020 09:30:00 20.1 C 12.86 g/m*3 20.1 C 8.1 km/h
1844 22-05-2020 09:35:00 20.1 C 12.86 g/m*3 20.1 C 6.4 km/h
1845 22-05-2020 09:40:00 20.2 C 13.11 g/m*3 20.2 C 4.8 km/h
1846 22-05-2020 09:45:00 20.3 C 13.19 g/m*3 20.3 C 3.2 km/h
1847 22-05-2020 09:50:00 20.4 C 13.27 g/m*3 20.4 C 3.2 km/h
1848 22-05-2020 09:55:00 20.6 C 13.24 g/m*3 20.6 C 3.2 km/h
1849 22-05-2020 10:00:00 20.7 C 13.32 g/m*3 20.7 C 1.6 km/h
1850 22-05-2020 10:05:00 20.9 C 13.48 g/m*3 20.9 C 1.6 km/h
Sensor: Nr:Datum:Temp:Abs-Feuchte:Windchill:Wind:
Aussen-T/F 1851 22-05-2020 10:10:00 21.1 C 13.45 g/m*3 21.1 C 0 km/h
1852 22-05-2020 10:15:00 21.3 C 13.61 g/m*3 21.3 C 0 km/h
1853 22-05-2020 10:20:00 21.5 C 13.58 g/m*3 21.5 C 0 km/h
1854 22-05-2020 10:25:00 21.7 C 13.73 g/m*3 21.7 C 0 km/h
1855 22-05-2020 10:30:00 21.8 C 13.62 g/m*3 21.8 C 0 km/h
1856 22-05-2020 10:35:00 21.9 C 13.7 g/m*3 21.9 C 0 km/h
1857 22-05-2020 10:40:00 21.9 C 13.7 g/m*3 21.9 C 1.6 km/h
1858 22-05-2020 10:45:00 22.1 C 13.86 g/m*3 22.1 C 1.6 km/h
1859 22-05-2020 10:50:00 22.3 C 13.82 g/m*3 22.3 C 4.8 km/h
1860 22-05-2020 10:55:00 22.6 C 14.06 g/m*3 22.6 C 1.6 km/h
1861 22-05-2020 11:00:00 22.8 C 14.02 g/m*3 22.8 C 4.8 km/h
1862 22-05-2020 11:05:00 23 C 14.18 g/m*3 23 C 3.2 km/h
1863 22-05-2020 11:10:00 23.2 C 13.93 g/m*3 23.2 C 3.2 km/h
1864 22-05-2020 11:15:00 23.4 C 13.88 g/m*3 23.4 C 6.4 km/h
1865 22-05-2020 11:20:00 23.5 C 13.96 g/m*3 23.5 C 8.1 km/h
1866 22-05-2020 11:25:00 23.7 C 14.33 g/m*3 23.7 C 8.1 km/h
1867 22-05-2020 11:30:00 23.8 C 13.77 g/m*3 23.8 C 11.3 km/h
1868 22-05-2020 11:35:00 23.9 C 13.63 g/m*3 23.9 C 9.7 km/h
1869 22-05-2020 11:40:00 24 C 13.71 g/m*3 24 C 9.7 km/h
1870 22-05-2020 11:45:00 24.1 C 13.78 g/m*3 24.1 C 3.2 km/h
1871 22-05-2020 11:50:00 24.3 C 13.72 g/m*3 24.3 C 6.4 km/h
1872 22-05-2020 11:55:00 24.4 C 13.58 g/m*3 24.4 C 8.1 km/h
1873 22-05-2020 12:00:00 24.4 C 13.35 g/m*3 24.4 C 9.7 km/h
1874 22-05-2020 12:05:00 24.4 C 13.35 g/m*3 24.4 C 9.7 km/h
1875 22-05-2020 12:10:00 24.5 C 13.65 g/m*3 24.5 C 9.7 km/h
Sensor: Nr:Datum:Temp:Abs-Feuchte:Windchill:Wind:
Aussen-T/F 1876 22-05-2020 12:15:00 24.4 C 13.35 g/m*3 24.4 C 16.1 km/h
1877 22-05-2020 12:20:00 24.4 C 13.8 g/m*3 24.4 C 3.2 km/h
1878 22-05-2020 12:25:00 24.5 C 13.43 g/m*3 24.5 C 8.1 km/h
1879 22-05-2020 12:30:00 24.6 C 13.73 g/m*3 24.6 C 6.4 km/h
1880 22-05-2020 12:35:00 24.5 C 13.65 g/m*3 24.5 C 6.4 km/h
1881 22-05-2020 12:40:00 24.6 C 13.73 g/m*3 24.6 C 4.8 km/h
1882 22-05-2020 12:45:00 24.6 C 13.73 g/m*3 24.6 C 6.4 km/h
1883 22-05-2020 12:50:00 24.6 C 14.18 g/m*3 24.6 C 4.8 km/h
1884 22-05-2020 12:55:00 24.7 C 13.81 g/m*3 24.7 C 6.4 km/h
1885 22-05-2020 13:00:00 24.7 C 14.49 g/m*3 24.7 C 1.6 km/h
1886 22-05-2020 13:05:00 24.7 C 14.26 g/m*3 24.7 C 4.8 km/h
1887 22-05-2020 13:10:00 24.7 C 14.03 g/m*3 24.7 C 3.2 km/h
1888 22-05-2020 13:15:00 24.8 C 14.11 g/m*3 24.8 C 3.2 km/h
1889 22-05-2020 13:20:00 24.9 C 13.96 g/m*3 24.9 C 11.3 km/h
1890 22-05-2020 13:25:00 24.9 C 13.73 g/m*3 24.9 C 8.1 km/h
1891 22-05-2020 13:30:00 25.1 C 15.28 g/m*3 25.1 C 1.6 km/h
1892 22-05-2020 13:35:00 25.3 C 13.81 g/m*3 25.3 C 8.1 km/h
1893 22-05-2020 13:40:00 25.4 C 13.89 g/m*3 25.4 C 8.1 km/h
1894 22-05-2020 13:45:00 25.6 C 14.76 g/m*3 25.6 C 4.8 km/h
1895 22-05-2020 13:50:00 25.8 C 13.96 g/m*3 25.8 C 9.7 km/h
1896 22-05-2020 13:55:00 26 C 13.88 g/m*3 26 C 8.1 km/h
1897 22-05-2020 14:00:00 26.1 C 14.44 g/m*3 26.1 C 11.3 km/h
1898 22-05-2020 14:05:00 26.2 C 14.77 g/m*3 26.2 C 8.1 km/h
1899 22-05-2020 14:10:00 26.2 C 14.28 g/m*3 26.2 C 4.8 km/h
1900 22-05-2020 14:15:00 26.2 C 14.52 g/m*3 26.2 C 4.8 km/h
Sensor: Nr:Datum:Temp:Abs-Feuchte:Windchill:Wind:
Aussen-T/F 1901 22-05-2020 14:20:00 26.3 C 14.36 g/m*3 26.3 C 4.8 km/h
1902 22-05-2020 14:25:00 26.3 C 14.61 g/m*3 26.3 C 6.4 km/h
1903 22-05-2020 14:30:00 26.4 C 14.19 g/m*3 26.4 C 6.4 km/h
1904 22-05-2020 14:35:00 26.3 C 14.11 g/m*3 26.3 C 11.3 km/h
1905 22-05-2020 14:40:00 26.2 C 14.03 g/m*3 26.2 C 11.3 km/h
1906 22-05-2020 14:45:00 26.2 C 13.79 g/m*3 26.2 C 9.7 km/h
1907 22-05-2020 14:50:00 26.3 C 13.86 g/m*3 26.3 C 4.8 km/h
1908 22-05-2020 14:55:00 26.4 C 13.69 g/m*3 26.4 C 12.9 km/h
1909 22-05-2020 15:00:00 26.3 C 13.62 g/m*3 26.3 C 11.3 km/h
1910 22-05-2020 15:05:00 26.3 C 13.37 g/m*3 26.3 C 14.5 km/h
1911 22-05-2020 15:10:00 26.5 C 13.52 g/m*3 26.5 C 9.7 km/h
1912 22-05-2020 15:15:00 26.6 C 13.59 g/m*3 26.6 C 14.5 km/h
1913 22-05-2020 15:20:00 26.8 C 13.74 g/m*3 26.8 C 9.7 km/h
1914 22-05-2020 15:25:00 26.8 C 13.49 g/m*3 26.8 C 16.1 km/h
1915 22-05-2020 15:30:00 26.6 C 13.34 g/m*3 26.6 C 12.9 km/h
1916 22-05-2020 15:35:00 26.4 C 13.44 g/m*3 26.4 C 8.1 km/h
1917 22-05-2020 15:40:00 26.2 C 13.54 g/m*3 26.2 C 14.5 km/h
1918 22-05-2020 15:45:00 26.1 C 13.46 g/m*3 26.1 C 11.3 km/h
1919 22-05-2020 15:50:00 25.9 C 13.32 g/m*3 25.9 C 9.7 km/h
1920 22-05-2020 15:55:00 25.9 C 13.56 g/m*3 25.9 C 11.3 km/h
1921 22-05-2020 16:00:00 25.9 C 13.56 g/m*3 25.9 C 9.7 km/h
1922 22-05-2020 16:05:00 25.9 C 13.8 g/m*3 25.9 C 12.9 km/h
1923 22-05-2020 16:10:00 25.9 C 13.32 g/m*3 25.9 C 12.9 km/h
1924 22-05-2020 16:15:00 25.9 C 13.32 g/m*3 25.9 C 11.3 km/h
1925 22-05-2020 16:20:00 25.9 C 13.32 g/m*3 25.9 C 17.7 km/h
Sensor: Nr:Datum:Temp:Abs-Feuchte:Windchill:Wind:
Aussen-T/F 1926 22-05-2020 16:25:00 26.1 C 13.46 g/m*3 26.1 C 12.9 km/h
1927 22-05-2020 16:30:00 26.2 C 13.79 g/m*3 26.2 C 12.9 km/h
1928 22-05-2020 16:35:00 26.2 C 13.29 g/m*3 26.2 C 8.1 km/h
1929 22-05-2020 16:40:00 26.2 C 13.79 g/m*3 26.2 C 12.9 km/h
1930 22-05-2020 16:45:00 26.3 C 13.62 g/m*3 26.3 C 12.9 km/h
1931 22-05-2020 16:50:00 26.3 C 13.86 g/m*3 26.3 C 12.9 km/h
1932 22-05-2020 16:55:00 26.2 C 13.54 g/m*3 26.2 C 9.7 km/h
1933 22-05-2020 17:00:00 26.2 C 13.79 g/m*3 26.2 C 12.9 km/h
1934 22-05-2020 17:05:00 26.1 C 13.46 g/m*3 26.1 C 9.7 km/h
1935 22-05-2020 17:10:00 26.1 C 13.46 g/m*3 26.1 C 11.3 km/h
1936 22-05-2020 17:15:00 26.1 C 13.71 g/m*3 26.1 C 6.4 km/h
1937 22-05-2020 17:20:00 26.2 C 13.79 g/m*3 26.2 C 6.4 km/h
1938 22-05-2020 17:25:00 26.3 C 14.11 g/m*3 26.3 C 6.4 km/h
1939 22-05-2020 17:30:00 26.4 C 14.44 g/m*3 26.4 C 4.8 km/h
1940 22-05-2020 17:35:00 26.4 C 13.69 g/m*3 26.4 C 8.1 km/h
1941 22-05-2020 17:40:00 26.4 C 14.19 g/m*3 26.4 C 3.2 km/h
1942 22-05-2020 17:45:00 26.3 C 14.36 g/m*3 26.3 C 6.4 km/h
1943 22-05-2020 17:50:00 26.2 C 14.03 g/m*3 26.2 C 4.8 km/h
1944 22-05-2020 17:55:00 26.1 C 13.71 g/m*3 26.1 C 8.1 km/h
1945 22-05-2020 18:00:00 25.9 C 13.8 g/m*3 25.9 C 9.7 km/h
1946 22-05-2020 18:05:00 25.9 C 14.04 g/m*3 25.9 C 8.1 km/h
1947 22-05-2020 18:10:00 25.8 C 14.2 g/m*3 25.8 C 9.7 km/h
1948 22-05-2020 18:15:00 25.7 C 13.65 g/m*3 25.7 C 11.3 km/h
1949 22-05-2020 18:20:00 25.6 C 14.52 g/m*3 25.6 C 11.3 km/h
1950 22-05-2020 18:25:00 25.3 C 14.51 g/m*3 25.3 C 12.9 km/h
Sensor: Nr:Datum:Temp:Abs-Feuchte:Windchill:Wind:
Aussen-T/F 1951 22-05-2020 18:30:00 25 C 14.73 g/m*3 25 C 4.8 km/h
1952 22-05-2020 18:35:00 24.8 C 14.8 g/m*3 24.8 C 8.1 km/h
1953 22-05-2020 18:40:00 24.7 C 14.94 g/m*3 24.7 C 3.2 km/h
1954 22-05-2020 18:45:00 24.4 C 14.91 g/m*3 24.4 C 4.8 km/h
1955 22-05-2020 18:50:00 24.2 C 14.74 g/m*3 24.2 C 3.2 km/h
1956 22-05-2020 18:55:00 24.1 C 14.66 g/m*3 24.1 C 6.4 km/h
1957 22-05-2020 19:00:00 24 C 14.36 g/m*3 24 C 9.7 km/h
1958 22-05-2020 19:05:00 24 C 14.14 g/m*3 24 C 4.8 km/h
1959 22-05-2020 19:10:00 24.1 C 14 g/m*3 24.1 C 8.1 km/h
1960 22-05-2020 19:15:00 24.4 C 13.8 g/m*3 24.4 C 12.9 km/h
1961 22-05-2020 19:20:00 24.6 C 14.18 g/m*3 24.6 C 6.4 km/h
1962 22-05-2020 19:25:00 24.7 C 14.26 g/m*3 24.7 C 4.8 km/h
1963 22-05-2020 19:30:00 24.7 C 14.49 g/m*3 24.7 C 0 km/h
1964 22-05-2020 19:35:00 24.6 C 14.18 g/m*3 24.6 C 4.8 km/h
1965 22-05-2020 19:40:00 24.4 C 14.47 g/m*3 24.4 C 11.3 km/h
1966 22-05-2020 19:45:00 24.2 C 14.08 g/m*3 24.2 C 11.3 km/h
1967 22-05-2020 19:50:00 23.9 C 14.06 g/m*3 23.9 C 8.1 km/h
1968 22-05-2020 19:55:00 23.7 C 13.9 g/m*3 23.7 C 9.7 km/h
1969 22-05-2020 20:00:00 23.5 C 13.96 g/m*3 23.5 C 9.7 km/h
1970 22-05-2020 20:05:00 23.2 C 14.14 g/m*3 23.2 C 8.1 km/h
1971 22-05-2020 20:10:00 22.7 C 14.14 g/m*3 22.7 C 12.9 km/h
1972 22-05-2020 20:15:00 22.2 C 13.94 g/m*3 22.2 C 22.5 km/h
1973 22-05-2020 20:20:00 21.7 C 13.93 g/m*3 21.7 C 16.1 km/h
1974 22-05-2020 20:25:00 21.2 C 13.71 g/m*3 21.2 C 14.5 km/h
1975 22-05-2020 20:30:00 20.8 C 13.76 g/m*3 20.8 C 11.3 km/h
Sensor: Nr:Datum:Temp:Abs-Feuchte:Windchill:Wind:
Aussen-T/F 1976 22-05-2020 20:35:00 20.5 C 13.7 g/m*3 20.5 C 12.9 km/h
1977 22-05-2020 20:40:00 20.2 C 13.81 g/m*3 20.2 C 6.4 km/h
1978 22-05-2020 20:45:00 19.9 C 13.57 g/m*3 19.9 C 12.9 km/h
1979 22-05-2020 20:50:00 19.7 C 13.41 g/m*3 19.7 C 11.3 km/h
1980 22-05-2020 20:55:00 19.5 C 13.59 g/m*3 19.5 C 19.3 km/h
1981 22-05-2020 21:00:00 19.3 C 13.6 g/m*3 19.3 C 8.1 km/h
1982 22-05-2020 21:05:00 19 C 13.53 g/m*3 19 C 9.7 km/h
1983 22-05-2020 21:10:00 18.8 C 13.53 g/m*3 18.8 C 6.4 km/h
1984 22-05-2020 21:15:00 18.6 C 13.69 g/m*3 18.6 C 1.6 km/h
1985 22-05-2020 21:20:00 18.4 C 13.53 g/m*3 18.4 C 3.2 km/h
1986 22-05-2020 21:25:00 18.3 C 13.6 g/m*3 18.3 C 4.8 km/h
1987 22-05-2020 21:30:00 18.2 C 13.52 g/m*3 18.2 C 3.2 km/h
1988 22-05-2020 21:35:00 18.1 C 13.6 g/m*3 18.1 C 0 km/h
1989 22-05-2020 21:40:00 18 C 13.67 g/m*3 18 C 0 km/h
1990 22-05-2020 21:45:00 17.9 C 13.59 g/m*3 17.9 C 0 km/h
1991 22-05-2020 21:50:00 17.8 C 13.66 g/m*3 17.8 C 0 km/h
1992 22-05-2020 21:55:00 17.8 C 13.66 g/m*3 17.8 C 0 km/h
1993 22-05-2020 22:00:00 17.7 C 13.58 g/m*3 17.7 C 1.6 km/h
1994 22-05-2020 22:05:00 17.7 C 13.73 g/m*3 17.7 C 0 km/h
1995 22-05-2020 22:10:00 17.6 C 13.65 g/m*3 17.6 C 0 km/h
1996 22-05-2020 22:15:00 17.6 C 13.8 g/m*3 17.6 C 0 km/h
1997 22-05-2020 22:20:00 17.6 C 13.8 g/m*3 17.6 C 0 km/h
1998 22-05-2020 22:25:00 17.6 C 13.8 g/m*3 17.6 C 3.2 km/h
1999 22-05-2020 22:30:00 17.5 C 13.72 g/m*3 17.5 C 4.8 km/h
2000 22-05-2020 22:35:00 17.4 C 13.78 g/m*3 17.4 C 4.8 km/h
Sensor: Nr:Datum:Temp:Abs-Feuchte:Windchill:Wind:
Aussen-T/F 2001 22-05-2020 22:40:00 17.4 C 13.78 g/m*3 17.4 C 3.2 km/h
2002 22-05-2020 22:45:00 17.3 C 13.7 g/m*3 17.3 C 0 km/h
2003 22-05-2020 22:50:00 17.3 C 13.7 g/m*3 17.3 C 1.6 km/h
2004 22-05-2020 22:55:00 17.3 C 13.7 g/m*3 17.3 C 3.2 km/h
2005 22-05-2020 23:00:00 17.3 C 13.7 g/m*3 17.3 C 6.4 km/h
2006 22-05-2020 23:05:00 17.2 C 13.62 g/m*3 17.2 C 4.8 km/h
2007 22-05-2020 23:10:00 17.2 C 13.62 g/m*3 17.2 C 3.2 km/h
2008 22-05-2020 23:15:00 17.2 C 13.62 g/m*3 17.2 C 1.6 km/h
2009 22-05-2020 23:20:00 17.2 C 13.77 g/m*3 17.2 C 1.6 km/h
2010 22-05-2020 23:25:00 17.1 C 13.68 g/m*3 17.1 C 3.2 km/h
2011 22-05-2020 23:30:00 17.1 C 13.68 g/m*3 17.1 C 0 km/h
2012 22-05-2020 23:35:00 17.1 C 13.68 g/m*3 17.1 C 0 km/h
2013 22-05-2020 23:40:00 17.1 C 13.68 g/m*3 17.1 C 0 km/h
2014 22-05-2020 23:45:00 16.9 C 13.52 g/m*3 16.9 C 4.8 km/h
2015 22-05-2020 23:50:00 16.9 C 13.52 g/m*3 16.9 C 3.2 km/h
2016 22-05-2020 23:55:00 16.8 C 13.44 g/m*3 16.8 C 0 km/h

Legende:
   Min
   Max


Maximal/Minimal-Werte vom 16.05.2020 - 22.05.2020

Sensor Min Max Avg
Temp
(Aussen-T/F)
2.6 °C
16-05-2020  05:55:00
29.2 °C
21-05-2020  17:15:00
16.19 °C
Abs-Feuchte
(Aussen-T/F)
5.21 g/m*3
16-05-2020  05:55:00
15.28 g/m*3
22-05-2020  13:30:00
9.14 g/m*3
Windchill
(Aussen-T/F)
2.6 C
16-05-2020  05:55:00
29.2 C
21-05-2020  17:15:00
16.18 C

Die Daten stammen von einer Davis Vantage Pro 2 Wetter-Station und werden unter Linux mit der Software wview2wettercgi und aufbereitet. Alle Angaben erfolgen ohne Gewähr für ihre Vollständigkeit oder Richtigkeit.
Kontakt: Rainer Krienke krienke@uni-koblenz.de . Meine Webseiten an der Uni Koblenz oder privat.
Version: $Revision: 0.78 $